Wetterdaten: aktuell Sonntag, 19.05.2019 21:06
Datum Zeit Temp. 2m Luftf.2m Luftdruck Regen Wind Richtung Richtung Taupunkt Windchill
19.05.2019 21:06 18,8 C 61 % 1001,5 hPa 0,0 l/m 0,0 km/h (0 Bft) NO 56 11,1 C 18,8 C
19.05.2019 21:05 18,8 C 61 % 1001,5 hPa 0,0 l/m 0,0 km/h (0 Bft) NO 56 11,1 C 18,8 C
19.05.2019 21:04 18,8 C 61 % 1001,5 hPa 0,0 l/m 1,7 km/h (1 Bft) NO 56 11,1 C 18,8 C
19.05.2019 21:03 18,8 C 61 % 1001,5 hPa 0,0 l/m 0,0 km/h (0 Bft) NO 56 11,1 C 18,8 C
19.05.2019 21:02 18,9 C 61 % 1001,5 hPa 0,0 l/m 0,0 km/h (0 Bft) NO 56 11,2 C 18,9 C
19.05.2019 21:01 18,9 C 60 % 1001,5 hPa 0,0 l/m 3,1 km/h (1 Bft) NO 56 11,0 C 18,9 C
19.05.2019 21:00 18,9 C 60 % 1001,5 hPa 0,0 l/m 3,1 km/h (1 Bft) NO 56 11,0 C 18,9 C
19.05.2019 20:59 18,9 C 60 % 1001,5 hPa 0,0 l/m 3,1 km/h (1 Bft) NO 56 11,0 C 18,9 C
19.05.2019 20:58 19,0 C 60 % 1001,5 hPa 0,0 l/m 0,0 km/h (0 Bft) NO 56 11,1 C 19,0 C
19.05.2019 20:57 19,0 C 60 % 1001,5 hPa 0,0 l/m 0,0 km/h (0 Bft) NO 56 11,1 C 19,0 C
19.05.2019 20:56 19,0 C 59 % 1001,5 hPa 0,0 l/m 0,0 km/h (0 Bft) NO 56 10,8 C 19,0 C
19.05.2019 20:55 19,0 C 59 % 1001,5 hPa 0,0 l/m 0,0 km/h (0 Bft) NO 56 10,8 C 19,0 C
19.05.2019 20:54 19,0 C 60 % 1001,5 hPa 0,0 l/m 0,0 km/h (0 Bft) NO 56 11,1 C 19,0 C
19.05.2019 20:53 19,1 C 60 % 1001,5 hPa 0,0 l/m 0,0 km/h (0 Bft) NO 56 11,1 C 19,1 C
19.05.2019 20:52 19,1 C 60 % 1001,5 hPa 0,0 l/m 0,0 km/h (0 Bft) NO 56 11,1 C 19,1 C
19.05.2019 20:51 19,1 C 59 % 1001,5 hPa 0,0 l/m 0,0 km/h (0 Bft) NO 56 10,9 C 19,1 C
19.05.2019 20:50 19,1 C 59 % 1001,5 hPa 0,0 l/m 0,0 km/h (0 Bft) NO 56 10,9 C 19,1 C
19.05.2019 20:49 19,2 C 59 % 1001,5 hPa 0,0 l/m 0,0 km/h (0 Bft) NO 56 11,0 C 19,2 C
19.05.2019 20:48 19,2 C 59 % 1001,5 hPa 0,0 l/m 0,0 km/h (0 Bft) NO 56 11,0 C 19,2 C
19.05.2019 20:47 19,3 C 59 % 1001,5 hPa 0,0 l/m 0,0 km/h (0 Bft) NO 56 11,1 C 19,3 C
19.05.2019 20:46 19,3 C 59 % 1001,4 hPa 0,0 l/m 6,5 km/h (2 Bft) NO 56 11,1 C 19,3 C
19.05.2019 20:45 19,3 C 59 % 1001,5 hPa 0,0 l/m 0,0 km/h (0 Bft) N 355 11,1 C 19,3 C
19.05.2019 20:44 19,3 C 59 % 1001,4 hPa 0,0 l/m 0,0 km/h (0 Bft) N 355 11,1 C 19,3 C
19.05.2019 20:43 19,3 C 59 % 1001,4 hPa 0,0 l/m 0,0 km/h (0 Bft) N 355 11,1 C 19,3 C
19.05.2019 20:42 19,3 C 59 % 1001,4 hPa 0,0 l/m 0,0 km/h (0 Bft) O-NO 72 11,1 C 19,3 C
19.05.2019 20:41 19,4 C 58 % 1001,5 hPa 0,0 l/m 0,0 km/h (0 Bft) O-NO 72 10,9 C 19,4 C
19.05.2019 20:40 19,4 C 58 % 1001,5 hPa 0,0 l/m 0,0 km/h (0 Bft) O-NO 72 10,9 C 19,4 C
19.05.2019 20:39 19,4 C 58 % 1001,5 hPa 0,0 l/m 0,0 km/h (0 Bft) O-NO 72 10,9 C 19,4 C
19.05.2019 20:38 19,4 C 58 % 1001,5 hPa 0,0 l/m 0,0 km/h (0 Bft) O-NO 72 10,9 C 19,4 C
19.05.2019 20:37 19,4 C 58 % 1001,5 hPa 0,0 l/m 0,0 km/h (0 Bft) O-NO 72 10,9 C 19,4 C
19.05.2019 20:36 19,4 C 58 % 1001,5 hPa 0,0 l/m 0,0 km/h (0 Bft) O-NO 72 10,9 C 19,4 C
19.05.2019 20:35 19,4 C 58 % 1001,5 hPa 0,0 l/m 0,0 km/h (0 Bft) O-NO 72 10,9 C 19,4 C
19.05.2019 20:34 19,4 C 58 % 1001,5 hPa 0,0 l/m 0,0 km/h (0 Bft) O-NO 72 10,9 C 19,4 C
19.05.2019 20:33 19,5 C 58 % 1001,5 hPa 0,0 l/m 0,0 km/h (0 Bft) O-NO 72 11,0 C 19,5 C
19.05.2019 20:32 19,5 C 58 % 1001,5 hPa 0,0 l/m 0,0 km/h (0 Bft) O-NO 72 11,0 C 19,5 C
19.05.2019 20:31 19,5 C 58 % 1001,5 hPa 0,0 l/m 0,0 km/h (0 Bft) O-NO 76 11,0 C 19,5 C
19.05.2019 20:30 19,5 C 58 % 1001,5 hPa 0,0 l/m 3,1 km/h (1 Bft) O-NO 76 11,0 C 19,5 C
19.05.2019 20:29 19,5 C 58 % 1001,4 hPa 0,0 l/m 1,7 km/h (1 Bft) O 81 11,0 C 19,5 C
19.05.2019 20:28 19,5 C 58 % 1001,5 hPa 0,0 l/m 4,8 km/h (1 Bft) O-NO 65 11,0 C 19,5 C
19.05.2019 20:27 19,5 C 58 % 1001,5 hPa 0,0 l/m 3,1 km/h (1 Bft) O-NO 65 11,0 C 19,5 C
19.05.2019 20:26 19,6 C 57 % 1001,5 hPa 0,0 l/m 1,7 km/h (1 Bft) O-NO 67 10,8 C 19,6 C
19.05.2019 20:25 19,6 C 57 % 1001,5 hPa 0,0 l/m 6,5 km/h (2 Bft) O-NO 73 10,8 C 19,6 C
19.05.2019 20:24 19,6 C 57 % 1001,5 hPa 0,0 l/m 3,1 km/h (1 Bft) O-NO 76 10,8 C 19,6 C
19.05.2019 20:23 19,6 C 57 % 1001,4 hPa 0,0 l/m 3,1 km/h (1 Bft) O-NO 65 10,8 C 19,6 C
19.05.2019 20:22 19,6 C 57 % 1001,5 hPa 0,0 l/m 8,0 km/h (2 Bft) O-NO 65 10,8 C 18,9 C
19.05.2019 20:21 19,7 C 58 % 1001,4 hPa 0,0 l/m 6,5 km/h (2 Bft) O-NO 69 11,2 C 19,7 C
19.05.2019 20:20 19,7 C 58 % 1001,4 hPa 0,0 l/m 6,5 km/h (2 Bft) O-NO 61 11,2 C 19,7 C
19.05.2019 20:19 19,8 C 57 % 1001,4 hPa 0,0 l/m 3,1 km/h (1 Bft) O-NO 61 11,0 C 19,8 C
19.05.2019 20:18 19,8 C 57 % 1001,4 hPa 0,0 l/m 1,7 km/h (1 Bft) O-NO 59 11,0 C 19,8 C
19.05.2019 20:17 19,8 C 57 % 1001,4 hPa 0,0 l/m 3,1 km/h (1 Bft) O-NO 59 11,0 C 19,8 C
19.05.2019 20:16 19,8 C 57 % 1001,4 hPa 0,0 l/m 6,5 km/h (2 Bft) NO 51 11,0 C 19,8 C
19.05.2019 20:15 19,8 C 57 % 1001,4 hPa 0,0 l/m 6,5 km/h (2 Bft) O-NO 76 11,0 C 19,8 C
19.05.2019 20:14 19,8 C 57 % 1001,4 hPa 0,0 l/m 4,8 km/h (1 Bft) O-NO 69 11,0 C 19,8 C
19.05.2019 20:13 19,9 C 57 % 1001,5 hPa 0,0 l/m 4,8 km/h (1 Bft) O 80 11,1 C 19,9 C
19.05.2019 20:12 19,9 C 57 % 1001,4 hPa 0,0 l/m 4,8 km/h (1 Bft) O-NO 71 11,1 C 19,9 C
19.05.2019 20:11 19,9 C 57 % 1001,4 hPa 0,0 l/m 6,5 km/h (2 Bft) O-NO 61 11,1 C 19,9 C
19.05.2019 20:10 19,9 C 57 % 1001,4 hPa 0,0 l/m 6,5 km/h (2 Bft) O-NO 78 11,1 C 19,9 C
19.05.2019 20:09 19,9 C 57 % 1001,4 hPa 0,0 l/m 6,5 km/h (2 Bft) O 80 11,1 C 19,9 C
19.05.2019 20:08 20,0 C 57 % 1001,5 hPa 0,0 l/m 1,7 km/h (1 Bft) O-NO 65 11,2 C 20,0 C
19.05.2019 20:07 20,0 C 57 % 1001,4 hPa 0,0 l/m 6,5 km/h (2 Bft) O-NO 74 11,2 C 20,0 C
19.05.2019 20:06 20,0 C 57 % 1001,4 hPa 0,0 l/m 3,1 km/h (1 Bft) O-NO 65 11,2 C 20,0 C
19.05.2019 20:05 20,0 C 58 % 1001,4 hPa 0,0 l/m 0,0 km/h (0 Bft) O-NO 78 11,5 C 20,0 C
19.05.2019 20:04 20,0 C 58 % 1001,4 hPa 0,0 l/m 8,0 km/h (2 Bft) O-NO 71 11,5 C 19,4 C
19.05.2019 20:03 20,0 C 58 % 1001,4 hPa 0,0 l/m 1,7 km/h (1 Bft) O-NO 62 11,5 C 20,0 C
19.05.2019 20:02 20,1 C 58 % 1001,4 hPa 0,0 l/m 4,8 km/h (1 Bft) O-NO 61 11,6 C 20,1 C
19.05.2019 20:01 20,1 C 58 % 1001,4 hPa 0,0 l/m 4,8 km/h (1 Bft) NO 34 11,6 C 20,1 C
19.05.2019 20:00 20,1 C 58 % 1001,4 hPa 0,0 l/m 3,1 km/h (1 Bft) O-NO 66 11,6 C 20,1 C
19.05.2019 19:59 20,1 C 57 % 1001,3 hPa 0,0 l/m 3,1 km/h (1 Bft) O-NO 69 11,3 C 20,1 C
19.05.2019 19:58 20,1 C 57 % 1001,4 hPa 0,0 l/m 8,0 km/h (2 Bft) O-NO 70 11,3 C 19,5 C
19.05.2019 19:57 20,1 C 57 % 1001,4 hPa 0,0 l/m 8,0 km/h (2 Bft) O-NO 69 11,3 C 19,5 C
19.05.2019 19:56 20,2 C 57 % 1001,4 hPa 0,0 l/m 3,1 km/h (1 Bft) O-NO 67 11,4 C 20,2 C
19.05.2019 19:55 20,2 C 57 % 1001,4 hPa 0,0 l/m 4,8 km/h (1 Bft) O-NO 71 11,4 C 20,2 C
19.05.2019 19:54 20,2 C 57 % 1001,5 hPa 0,0 l/m 4,8 km/h (1 Bft) O-NO 76 11,4 C 20,2 C
19.05.2019 19:53 20,3 C 57 % 1001,4 hPa 0,0 l/m 4,8 km/h (1 Bft) O-NO 73 11,5 C 20,3 C
19.05.2019 19:52 20,3 C 57 % 1001,5 hPa 0,0 l/m 6,5 km/h (2 Bft) O 88 11,5 C 20,3 C
19.05.2019 19:51 20,3 C 57 % 1001,5 hPa 0,0 l/m 4,8 km/h (1 Bft) O-NO 72 11,5 C 20,3 C
19.05.2019 19:50 20,3 C 56 % 1001,5 hPa 0,0 l/m 4,8 km/h (1 Bft) O-NO 72 11,2 C 20,3 C
19.05.2019 19:49 20,3 C 56 % 1001,5 hPa 0,0 l/m 4,8 km/h (1 Bft) O-NO 69 11,2 C 20,3 C
19.05.2019 19:48 20,3 C 56 % 1001,5 hPa 0,0 l/m 3,1 km/h (1 Bft) O-NO 65 11,2 C 20,3 C
19.05.2019 19:47 20,3 C 56 % 1001,5 hPa 0,0 l/m 4,8 km/h (1 Bft) O-NO 71 11,2 C 20,3 C
19.05.2019 19:46 20,4 C 56 % 1001,5 hPa 0,0 l/m 8,0 km/h (2 Bft) NO 49 11,3 C 19,8 C
19.05.2019 19:45 20,4 C 56 % 1001,5 hPa 0,0 l/m 6,5 km/h (2 Bft) O-NO 67 11,3 C 20,4 C
19.05.2019 19:44 20,4 C 56 % 1001,5 hPa 0,0 l/m 4,8 km/h (1 Bft) O-NO 62 11,3 C 20,4 C
19.05.2019 19:43 20,4 C 56 % 1001,5 hPa 0,0 l/m 3,1 km/h (1 Bft) O-NO 72 11,3 C 20,4 C
19.05.2019 19:42 20,4 C 56 % 1001,5 hPa 0,0 l/m 4,8 km/h (1 Bft) O 83 11,3 C 20,4 C
19.05.2019 19:41 20,5 C 56 % 1001,5 hPa 0,0 l/m 1,7 km/h (1 Bft) O 84 11,4 C 20,5 C
19.05.2019 19:40 20,5 C 56 % 1001,5 hPa 0,0 l/m 6,5 km/h (2 Bft) O-NO 62 11,4 C 20,5 C
19.05.2019 19:39 20,5 C 56 % 1001,5 hPa 0,0 l/m 4,8 km/h (1 Bft) O 84 11,4 C 20,5 C
19.05.2019 19:38 20,5 C 56 % 1001,5 hPa 0,0 l/m 11,3 km/h (2 Bft) O 97 11,4 C 18,8 C
19.05.2019 19:37 20,5 C 56 % 1001,5 hPa 0,0 l/m 8,0 km/h (2 Bft) O-NO 63 11,4 C 19,9 C
19.05.2019 19:36 20,6 C 57 % 1001,5 hPa 0,0 l/m 9,6 km/h (2 Bft) O-SO 107 11,8 C 19,4 C
19.05.2019 19:35 20,6 C 57 % 1001,5 hPa 0,0 l/m 3,1 km/h (1 Bft) O-NO 65 11,8 C 20,6 C
19.05.2019 19:34 20,6 C 57 % 1001,4 hPa 0,0 l/m 4,8 km/h (1 Bft) O 87 11,8 C 20,6 C
19.05.2019 19:33 20,6 C 56 % 1001,5 hPa 0,0 l/m 6,5 km/h (2 Bft) O 89 11,5 C 20,6 C
19.05.2019 19:32 20,6 C 56 % 1001,5 hPa 0,0 l/m 3,1 km/h (1 Bft) O-SO 110 11,5 C 20,6 C
19.05.2019 19:31 20,7 C 56 % 1001,5 hPa 0,0 l/m 4,8 km/h (1 Bft) O 96 11,6 C 20,7 C
19.05.2019 19:30 20,7 C 57 % 1001,5 hPa 0,0 l/m 13,0 km/h (3 Bft) O-SO 116 11,9 C 18,6 C
19.05.2019 19:29 20,7 C 57 % 1001,5 hPa 0,0 l/m 3,1 km/h (1 Bft) O-NO 71 11,9 C 20,7 C
19.05.2019 19:28 20,8 C 57 % 1001,5 hPa 0,0 l/m 4,8 km/h (1 Bft) O-NO 61 12,0 C 20,8 C
19.05.2019 19:27 20,8 C 57 % 1001,5 hPa 0,0 l/m 6,5 km/h (2 Bft) O-NO 66 12,0 C 20,8 C
19.05.2019 19:26 20,8 C 57 % 1001,4 hPa 0,0 l/m 9,6 km/h (2 Bft) O-NO 61 12,0 C 19,6 C
19.05.2019 19:25 20,8 C 57 % 1001,5 hPa 0,0 l/m 4,8 km/h (1 Bft) O 85 12,0 C 20,8 C
19.05.2019 19:24 20,8 C 57 % 1001,4 hPa 0,0 l/m 6,5 km/h (2 Bft) NO 50 12,0 C 20,8 C
19.05.2019 19:23 20,8 C 57 % 1001,4 hPa 0,0 l/m 3,1 km/h (1 Bft) O-NO 67 12,0 C 20,8 C
19.05.2019 19:22 20,8 C 56 % 1001,4 hPa 0,0 l/m 6,5 km/h (2 Bft) O-SO 104 11,7 C 20,8 C
19.05.2019 19:21 20,8 C 57 % 1001,3 hPa 0,0 l/m 1,7 km/h (1 Bft) O 96 12,0 C 20,8 C
19.05.2019 19:20 20,9 C 56 % 1001,4 hPa 0,0 l/m 9,6 km/h (2 Bft) NO 53 11,8 C 19,8 C
19.05.2019 19:19 20,9 C 56 % 1001,4 hPa 0,0 l/m 3,1 km/h (1 Bft) O-NO 71 11,8 C 20,9 C
19.05.2019 19:18 20,9 C 56 % 1001,3 hPa 0,0 l/m 9,6 km/h (2 Bft) O-NO 71 11,8 C 19,8 C
19.05.2019 19:17 20,9 C 56 % 1001,3 hPa 0,0 l/m 4,8 km/h (1 Bft) O-NO 71 11,8 C 20,9 C
19.05.2019 19:16 20,9 C 55 % 1001,3 hPa 0,0 l/m 9,6 km/h (2 Bft) NO 45 11,5 C 19,8 C
19.05.2019 19:15 20,9 C 56 % 1001,3 hPa 0,0 l/m 11,3 km/h (2 Bft) O 89 11,8 C 19,3 C
19.05.2019 19:14 20,9 C 56 % 1001,3 hPa 0,0 l/m 9,6 km/h (2 Bft) O 92 11,8 C 19,8 C
19.05.2019 19:13 21,0 C 55 % 1001,3 hPa 0,0 l/m 4,8 km/h (1 Bft) NO 42 11,6 C 21,0 C
19.05.2019 19:12 21,0 C 56 % 1001,4 hPa 0,0 l/m 6,5 km/h (2 Bft) O 100 11,9 C 21,0 C
19.05.2019 19:11 21,0 C 55 % 1001,3 hPa 0,0 l/m 4,8 km/h (1 Bft) O-NO 65 11,6 C 21,0 C
19.05.2019 19:10 21,0 C 55 % 1001,4 hPa 0,0 l/m 11,3 km/h (2 Bft) O 88 11,6 C 19,4 C
19.05.2019 19:09 21,0 C 55 % 1001,4 hPa 0,0 l/m 8,0 km/h (2 Bft) O-NO 73 11,6 C 20,4 C
19.05.2019 19:08 21,0 C 55 % 1001,4 hPa 0,0 l/m 4,8 km/h (1 Bft) N-NO 30 11,6 C 21,0 C
19.05.2019 19:07 21,0 C 55 % 1001,3 hPa 0,0 l/m 8,0 km/h (2 Bft) O-NO 70 11,6 C 20,4 C
19.05.2019 19:06 21,0 C 55 % 1001,4 hPa 0,0 l/m 4,8 km/h (1 Bft) O-NO 64 11,6 C 21,0 C
19.05.2019 19:05 21,0 C 55 % 1001,4 hPa 0,0 l/m 4,8 km/h (1 Bft) O 90 11,6 C 21,0 C
19.05.2019 19:04 21,1 C 55 % 1001,4 hPa 0,0 l/m 11,3 km/h (2 Bft) O-NO 57 11,7 C 19,5 C
19.05.2019 19:03 21,1 C 55 % 1001,4 hPa 0,0 l/m 6,5 km/h (2 Bft) NO 53 11,7 C 21,1 C
19.05.2019 19:02 21,1 C 55 % 1001,4 hPa 0,0 l/m 11,3 km/h (2 Bft) NO 53 11,7 C 19,5 C
19.05.2019 19:01 21,1 C 55 % 1001,3 hPa 0,0 l/m 4,8 km/h (1 Bft) O-SO 104 11,7 C 21,1 C
19.05.2019 19:00 21,1 C 55 % 1001,4 hPa 0,0 l/m 4,8 km/h (1 Bft) O-NO 78 11,7 C 21,1 C
19.05.2019 18:59 21,1 C 55 % 1001,3 hPa 0,0 l/m 4,8 km/h (1 Bft) NO 49 11,7 C 21,1 C
19.05.2019 18:58 21,1 C 55 % 1001,3 hPa 0,0 l/m 6,5 km/h (2 Bft) O-NO 71 11,7 C 21,1 C
19.05.2019 18:57 21,1 C 55 % 1001,4 hPa 0,0 l/m 4,8 km/h (1 Bft) NO 49 11,7 C 21,1 C
19.05.2019 18:56 21,1 C 55 % 1001,3 hPa 0,0 l/m 4,8 km/h (1 Bft) O-NO 65 11,7 C 21,1 C
19.05.2019 18:55 21,1 C 55 % 1001,3 hPa 0,0 l/m 3,1 km/h (1 Bft) O 81 11,7 C 21,1 C
19.05.2019 18:54 21,1 C 54 % 1001,3 hPa 0,0 l/m 4,8 km/h (1 Bft) O-NO 64 11,4 C 21,1 C
19.05.2019 18:53 21,1 C 54 % 1001,3 hPa 0,0 l/m 3,1 km/h (1 Bft) O 85 11,4 C 21,1 C
19.05.2019 18:52 21,1 C 54 % 1001,3 hPa 0,0 l/m 11,3 km/h (2 Bft) O-SO 115 11,4 C 19,5 C
19.05.2019 18:51 21,1 C 54 % 1001,3 hPa 0,0 l/m 4,8 km/h (1 Bft) O 98 11,4 C 21,1 C
19.05.2019 18:50 21,1 C 55 % 1001,4 hPa 0,0 l/m 8,0 km/h (2 Bft) O 84 11,7 C 20,5 C
19.05.2019 18:49 21,1 C 55 % 1001,3 hPa 0,0 l/m 6,5 km/h (2 Bft) O-NO 57 11,7 C 21,1 C
19.05.2019 18:48 21,1 C 54 % 1001,4 hPa 0,0 l/m 8,0 km/h (2 Bft) O-NO 57 11,4 C 20,5 C
19.05.2019 18:47 21,1 C 54 % 1001,3 hPa 0,0 l/m 6,5 km/h (2 Bft) O-SO 102 11,4 C 21,1 C
19.05.2019 18:46 21,1 C 54 % 1001,3 hPa 0,0 l/m 3,1 km/h (1 Bft) O 82 11,4 C 21,1 C
19.05.2019 18:45 21,2 C 54 % 1001,3 hPa 0,0 l/m 4,8 km/h (1 Bft) O 89 11,5 C 21,2 C
19.05.2019 18:44 21,2 C 54 % 1001,4 hPa 0,0 l/m 1,7 km/h (1 Bft) O-NO 68 11,5 C 21,2 C
19.05.2019 18:43 21,2 C 54 % 1001,4 hPa 0,0 l/m 11,3 km/h (2 Bft) O-NO 76 11,5 C 19,6 C
19.05.2019 18:42 21,3 C 54 % 1001,4 hPa 0,0 l/m 4,8 km/h (1 Bft) N-NO 29 11,6 C 21,3 C
19.05.2019 18:41 21,3 C 54 % 1001,4 hPa 0,0 l/m 4,8 km/h (1 Bft) NO 47 11,6 C 21,3 C
19.05.2019 18:40 21,3 C 54 % 1001,4 hPa 0,0 l/m 9,6 km/h (2 Bft) O 101 11,6 C 20,2 C
19.05.2019 18:39 21,3 C 54 % 1001,4 hPa 0,0 l/m 8,0 km/h (2 Bft) O 84 11,6 C 20,7 C
19.05.2019 18:38 21,4 C 55 % 1001,4 hPa 0,0 l/m 9,6 km/h (2 Bft) O-NO 58 12,0 C 20,3 C
19.05.2019 18:37 21,4 C 54 % 1001,4 hPa 0,0 l/m 9,6 km/h (2 Bft) O 100 11,7 C 20,3 C
19.05.2019 18:36 21,4 C 54 % 1001,4 hPa 0,0 l/m 6,5 km/h (2 Bft) O-SO 104 11,7 C 21,4 C
19.05.2019 18:35 21,4 C 55 % 1001,3 hPa 0,0 l/m 8,0 km/h (2 Bft) O-NO 59 12,0 C 20,8 C
19.05.2019 18:34 21,4 C 55 % 1001,4 hPa 0,0 l/m 4,8 km/h (1 Bft) O-SO 105 12,0 C 21,4 C
19.05.2019 18:33 21,4 C 55 % 1001,4 hPa 0,0 l/m 6,5 km/h (2 Bft) O-NO 77 12,0 C 21,4 C
19.05.2019 18:32 21,4 C 55 % 1001,3 hPa 0,0 l/m 11,3 km/h (2 Bft) O-SO 110 12,0 C 19,8 C
19.05.2019 18:31 21,4 C 55 % 1001,3 hPa 0,0 l/m 1,7 km/h (1 Bft) O 100 12,0 C 21,4 C
19.05.2019 18:30 21,4 C 54 % 1001,4 hPa 0,0 l/m 9,6 km/h (2 Bft) O 97 11,7 C 20,3 C
19.05.2019 18:28 21,4 C 54 % 1001,3 hPa 0,0 l/m 14,4 km/h (3 Bft) O 100 11,7 C 19,1 C
19.05.2019 18:27 21,4 C 54 % 1001,3 hPa 0,0 l/m 3,1 km/h (1 Bft) O-SO 104 11,7 C 21,4 C
19.05.2019 18:26 21,4 C 54 % 1001,4 hPa 0,0 l/m 6,5 km/h (2 Bft) O 92 11,7 C 21,4 C
19.05.2019 18:25 21,4 C 54 % 1001,3 hPa 0,0 l/m 4,8 km/h (1 Bft) NO 53 11,7 C 21,4 C
19.05.2019 18:24 21,4 C 55 % 1001,3 hPa 0,0 l/m 14,4 km/h (3 Bft) O-NO 65 12,0 C 19,1 C
19.05.2019 18:23 21,4 C 55 % 1001,3 hPa 0,0 l/m 6,5 km/h (2 Bft) O 81 12,0 C 21,4 C
19.05.2019 18:22 21,4 C 55 % 1001,4 hPa 0,0 l/m 6,5 km/h (2 Bft) N-NO 32 12,0 C 21,4 C
19.05.2019 18:21 21,4 C 55 % 1001,4 hPa 0,0 l/m 6,5 km/h (2 Bft) NO 34 12,0 C 21,4 C
19.05.2019 18:20 21,4 C 54 % 1001,4 hPa 0,0 l/m 4,8 km/h (1 Bft) O 100 11,7 C 21,4 C
19.05.2019 18:19 21,4 C 55 % 1001,3 hPa 0,0 l/m 16,1 km/h (3 Bft) N-NO 32 12,0 C 18,7 C
19.05.2019 18:18 21,4 C 54 % 1001,4 hPa 0,0 l/m 3,1 km/h (1 Bft) O 97 11,7 C 21,4 C
19.05.2019 18:17 21,4 C 54 % 1001,3 hPa 0,0 l/m 19,3 km/h (3 Bft) O 92 11,7 C 18,1 C
19.05.2019 18:16 21,5 C 55 % 1001,4 hPa 0,0 l/m 16,1 km/h (3 Bft) O-NO 57 12,1 C 18,8 C
19.05.2019 18:15 21,5 C 55 % 1001,5 hPa 0,0 l/m 6,5 km/h (2 Bft) O 90 12,1 C 21,5 C
19.05.2019 18:14 21,5 C 55 % 1001,4 hPa 0,0 l/m 11,3 km/h (2 Bft) O 92 12,1 C 19,9 C
19.05.2019 18:13 21,5 C 55 % 1001,3 hPa 0,0 l/m 9,6 km/h (2 Bft) O 98 12,1 C 20,4 C
19.05.2019 18:12 21,5 C 55 % 1001,3 hPa 0,0 l/m 6,5 km/h (2 Bft) O-SO 112 12,1 C 21,5 C
19.05.2019 18:11 21,6 C 55 % 1001,4 hPa 0,0 l/m 6,5 km/h (2 Bft) O 100 12,2 C 21,6 C
19.05.2019 18:10 21,6 C 54 % 1001,4 hPa 0,0 l/m 3,1 km/h (1 Bft) O 97 11,9 C 21,6 C
19.05.2019 18:09 21,6 C 54 % 1001,4 hPa 0,0 l/m 4,8 km/h (1 Bft) O 91 11,9 C 21,6 C
19.05.2019 18:08 21,6 C 54 % 1001,3 hPa 0,0 l/m 9,6 km/h (2 Bft) O-SO 111 11,9 C 20,5 C
19.05.2019 18:07 21,6 C 53 % 1001,4 hPa 0,0 l/m 8,0 km/h (2 Bft) O-SO 121 11,6 C 21,0 C
19.05.2019 18:06 21,6 C 53 % 1001,4 hPa 0,0 l/m 6,5 km/h (2 Bft) O-SO 103 11,6 C 21,6 C
19.05.2019 18:05 21,6 C 53 % 1001,4 hPa 0,0 l/m 17,8 km/h (3 Bft) O 88 11,6 C 18,6 C
19.05.2019 18:04 21,6 C 53 % 1001,4 hPa 0,0 l/m 9,6 km/h (2 Bft) O 101 11,6 C 20,5 C
19.05.2019 18:03 21,7 C 53 % 1001,4 hPa 0,0 l/m 11,3 km/h (2 Bft) O 91 11,7 C 20,2 C
19.05.2019 18:02 21,7 C 53 % 1001,5 hPa 0,0 l/m 3,1 km/h (1 Bft) SO 146 11,7 C 21,7 C
19.05.2019 18:01 21,7 C 52 % 1001,5 hPa 0,0 l/m 8,0 km/h (2 Bft) O 86 11,4 C 21,1 C
19.05.2019 18:00 21,7 C 53 % 1001,5 hPa 0,0 l/m 13,0 km/h (3 Bft) O 91 11,7 C 19,7 C
19.05.2019 17:59 21,8 C 53 % 1001,5 hPa 0,0 l/m 4,8 km/h (1 Bft) O 98 11,8 C 21,8 C
19.05.2019 17:58 21,8 C 53 % 1001,4 hPa 0,0 l/m 14,4 km/h (3 Bft) O-NO 63 11,8 C 19,6 C
19.05.2019 17:57 21,8 C 53 % 1001,4 hPa 0,0 l/m 9,6 km/h (2 Bft) O 101 11,8 C 20,7 C
19.05.2019 17:56 21,8 C 52 % 1001,4 hPa 0,0 l/m 1,7 km/h (1 Bft) O-NO 67 11,5 C 21,8 C
19.05.2019 17:55 21,8 C 52 % 1001,5 hPa 0,0 l/m 11,3 km/h (2 Bft) O 87 11,5 C 20,3 C
19.05.2019 17:54 21,8 C 52 % 1001,5 hPa 0,0 l/m 11,3 km/h (2 Bft) O-SO 103 11,5 C 20,3 C
19.05.2019 17:53 21,8 C 52 % 1001,5 hPa 0,0 l/m 8,0 km/h (2 Bft) O-NO 71 11,5 C 21,2 C
19.05.2019 17:52 21,8 C 53 % 1001,5 hPa 0,0 l/m 4,8 km/h (1 Bft) O-NO 76 11,8 C 21,8 C
19.05.2019 17:51 21,8 C 52 % 1001,5 hPa 0,0 l/m 4,8 km/h (1 Bft) SO 126 11,5 C 21,8 C
19.05.2019 17:50 21,8 C 52 % 1001,4 hPa 0,0 l/m 6,5 km/h (2 Bft) O 90 11,5 C 21,8 C
19.05.2019 17:49 21,8 C 52 % 1001,5 hPa 0,0 l/m 9,6 km/h (2 Bft) O 92 11,5 C 20,7 C
19.05.2019 17:48 21,8 C 51 % 1001,5 hPa 0,0 l/m 3,1 km/h (1 Bft) NO 55 11,2 C 21,8 C
19.05.2019 17:47 21,8 C 52 % 1001,5 hPa 0,0 l/m 13,0 km/h (3 Bft) N-NO 32 11,5 C 19,9 C
19.05.2019 17:45 21,9 C 52 % 1001,5 hPa 0,0 l/m 16,1 km/h (3 Bft) O-SO 113 11,6 C 19,3 C
19.05.2019 17:44 21,9 C 51 % 1001,5 hPa 0,0 l/m 4,8 km/h (1 Bft) O 98 11,3 C 21,9 C
19.05.2019 17:43 21,9 C 52 % 1001,5 hPa 0,0 l/m 16,1 km/h (3 Bft) O 98 11,6 C 19,3 C
19.05.2019 17:42 21,9 C 51 % 1001,6 hPa 0,0 l/m 13,0 km/h (3 Bft) O 80 11,3 C 20,0 C
19.05.2019 17:41 21,9 C 51 % 1001,6 hPa 0,0 l/m 4,8 km/h (1 Bft) O-NO 66 11,3 C 21,9 C
19.05.2019 17:40 22,0 C 51 % 1001,6 hPa 0,0 l/m 11,3 km/h (2 Bft) O-NO 76 11,4 C 20,5 C
19.05.2019 17:39 22,0 C 50 % 1001,6 hPa 0,0 l/m 8,0 km/h (2 Bft) O 87 11,1 C 21,5 C
19.05.2019 17:38 22,1 C 49 % 1001,5 hPa 0,0 l/m 4,8 km/h (1 Bft) O 98 10,9 C 22,1 C
19.05.2019 17:37 22,1 C 49 % 1001,6 hPa 0,0 l/m 6,5 km/h (2 Bft) O-NO 73 10,9 C 22,1 C
19.05.2019 17:36 22,2 C 49 % 1001,6 hPa 0,0 l/m 11,3 km/h (2 Bft) O-NO 60 11,0 C 20,7 C
19.05.2019 17:35 22,3 C 49 % 1001,6 hPa 0,0 l/m 6,5 km/h (2 Bft) O-NO 57 11,1 C 22,3 C
19.05.2019 17:34 22,4 C 50 % 1001,6 hPa 0,0 l/m 8,0 km/h (2 Bft) O 88 11,5 C 21,9 C
19.05.2019 17:33 22,4 C 50 % 1001,6 hPa 0,0 l/m 6,5 km/h (2 Bft) O-NO 76 11,5 C 22,4 C
19.05.2019 17:31 22,5 C 50 % 1001,7 hPa 0,0 l/m 4,8 km/h (1 Bft) O 101 11,5 C 22,5 C
19.05.2019 17:30 22,6 C 49 % 1001,6 hPa 0,0 l/m 11,3 km/h (2 Bft) SO 127 11,3 C 21,2 C
19.05.2019 17:29 22,7 C 50 % 1001,7 hPa 0,0 l/m 16,1 km/h (3 Bft) O-NO 75 11,7 C 20,3 C
19.05.2019 17:28 22,7 C 51 % 1001,6 hPa 0,0 l/m 6,5 km/h (2 Bft) O 94 12,0 C 22,7 C
19.05.2019 17:27 22,7 C 51 % 1001,6 hPa 0,0 l/m 4,8 km/h (1 Bft) O 90 12,0 C 22,7 C
19.05.2019 17:26 22,7 C 50 % 1001,6 hPa 0,0 l/m 4,8 km/h (1 Bft) O-SO 117 11,7 C 22,7 C
19.05.2019 17:25 22,8 C 51 % 1001,6 hPa 0,0 l/m 8,0 km/h (2 Bft) O-NO 78 12,1 C 22,3 C
19.05.2019 17:24 22,8 C 51 % 1001,6 hPa 0,0 l/m 9,6 km/h (2 Bft) O-NO 62 12,1 C 21,8 C
19.05.2019 17:23 22,8 C 51 % 1001,7 hPa 0,0 l/m 3,1 km/h (1 Bft) O 84 12,1 C 22,8 C
19.05.2019 17:22 22,8 C 50 % 1001,6 hPa 0,0 l/m 3,1 km/h (1 Bft) O 86 11,8 C 22,8 C
19.05.2019 17:21 22,8 C 49 % 1001,6 hPa 0,0 l/m 8,0 km/h (2 Bft) NO 50 11,5 C 22,3 C
19.05.2019 17:20 22,8 C 49 % 1001,6 hPa 0,0 l/m 11,3 km/h (2 Bft) O 84 11,5 C 21,4 C
19.05.2019 17:19 22,8 C 49 % 1001,6 hPa 0,0 l/m 11,3 km/h (2 Bft) SO 136 11,5 C 21,4 C
19.05.2019 17:18 22,8 C 49 % 1001,6 hPa 0,0 l/m 6,5 km/h (2 Bft) O-NO 73 11,5 C 22,8 C
19.05.2019 17:17 22,9 C 49 % 1001,6 hPa 0,0 l/m 16,1 km/h (3 Bft) SO 131 11,6 C 20,6 C
19.05.2019 17:16 22,9 C 50 % 1001,6 hPa 0,0 l/m 11,3 km/h (2 Bft) O 87 11,9 C 21,5 C
19.05.2019 17:15 22,9 C 49 % 1001,6 hPa 0,0 l/m 11,3 km/h (2 Bft) O-SO 117 11,6 C 21,5 C
19.05.2019 17:14 22,9 C 48 % 1001,6 hPa 0,0 l/m 3,1 km/h (1 Bft) O 86 11,3 C 22,9 C
19.05.2019 17:13 22,9 C 49 % 1001,6 hPa 0,0 l/m 8,0 km/h (2 Bft) O-NO 74 11,6 C 22,4 C
19.05.2019 17:12 23,0 C 49 % 1001,6 hPa 0,0 l/m 4,8 km/h (1 Bft) SO 130 11,7 C 23,0 C
19.05.2019 17:11 23,0 C 47 % 1001,7 hPa 0,0 l/m 8,0 km/h (2 Bft) S-SO 150 11,1 C 22,5 C
19.05.2019 17:10 23,0 C 48 % 1001,7 hPa 0,0 l/m 8,0 km/h (2 Bft) SO 125 11,4 C 22,5 C
19.05.2019 17:09 23,1 C 48 % 1001,7 hPa 0,0 l/m 11,3 km/h (2 Bft) O-SO 104 11,5 C 21,8 C
19.05.2019 17:08 23,1 C 48 % 1001,7 hPa 0,0 l/m 3,1 km/h (1 Bft) O-NO 75 11,5 C 23,1 C
19.05.2019 17:07 23,1 C 48 % 1001,7 hPa 0,0 l/m 6,5 km/h (2 Bft) O 89 11,5 C 23,1 C
19.05.2019 17:06 23,1 C 48 % 1001,6 hPa 0,0 l/m 13,0 km/h (3 Bft) O 92 11,5 C 21,4 C
19.05.2019 17:05 23,2 C 48 % 1001,6 hPa 0,0 l/m 16,1 km/h (3 Bft) O 80 11,6 C 20,9 C
19.05.2019 17:04 23,3 C 47 % 1001,7 hPa 0,0 l/m 4,8 km/h (1 Bft) O 91 11,3 C 23,3 C
19.05.2019 17:03 23,3 C 47 % 1001,7 hPa 0,0 l/m 14,4 km/h (3 Bft) O 90 11,3 C 21,4 C
19.05.2019 17:02 23,4 C 46 % 1001,6 hPa 0,0 l/m 11,3 km/h (2 Bft) O-SO 111 11,1 C 22,1 C
19.05.2019 17:01 23,4 C 47 % 1001,6 hPa 0,0 l/m 16,1 km/h (3 Bft) O-SO 123 11,4 C 21,2 C
19.05.2019 17:00 23,5 C 47 % 1001,7 hPa 0,0 l/m 4,8 km/h (1 Bft) O 89 11,5 C 23,5 C
19.05.2019 16:59 23,5 C 47 % 1001,6 hPa 0,0 l/m 6,5 km/h (2 Bft) O-SO 121 11,5 C 23,5 C
19.05.2019 16:58 23,5 C 47 % 1001,6 hPa 0,0 l/m 4,8 km/h (1 Bft) O-NO 62 11,5 C 23,5 C
19.05.2019 16:57 23,6 C 47 % 1001,7 hPa 0,0 l/m 14,4 km/h (3 Bft) O-NO 72 11,6 C 21,7 C
19.05.2019 16:56 23,6 C 47 % 1001,6 hPa 0,0 l/m 3,1 km/h (1 Bft) O-SO 103 11,6 C 23,6 C
19.05.2019 16:55 23,7 C 48 % 1001,6 hPa 0,0 l/m 11,3 km/h (2 Bft) O 93 12,0 C 22,4 C
19.05.2019 16:54 23,7 C 47 % 1001,6 hPa 0,0 l/m 11,3 km/h (2 Bft) O 86 11,7 C 22,4 C
19.05.2019 16:53 23,8 C 47 % 1001,6 hPa 0,0 l/m 6,5 km/h (2 Bft) O-SO 105 11,8 C 23,8 C
19.05.2019 16:52 23,8 C 46 % 1001,6 hPa 0,0 l/m 4,8 km/h (1 Bft) O 94 11,5 C 23,8 C
19.05.2019 16:51 23,9 C 46 % 1001,6 hPa 0,0 l/m 14,4 km/h (3 Bft) O-NO 77 11,6 C 22,1 C
19.05.2019 16:50 23,9 C 46 % 1001,5 hPa 0,0 l/m 14,4 km/h (3 Bft) O-SO 111 11,6 C 22,1 C
19.05.2019 16:49 24,0 C 46 % 1001,5 hPa 0,0 l/m 11,3 km/h (2 Bft) O 90 11,7 C 22,8 C
19.05.2019 16:47 24,0 C 46 % 1001,5 hPa 0,0 l/m 4,8 km/h (1 Bft) O 93 11,7 C 24,0 C
19.05.2019 16:46 24,0 C 44 % 1001,6 hPa 0,0 l/m 4,8 km/h (1 Bft) O 101 11,0 C 24,0 C
19.05.2019 16:45 24,0 C 45 % 1001,5 hPa 0,0 l/m 4,8 km/h (1 Bft) O 85 11,3 C 24,0 C
19.05.2019 16:44 24,0 C 44 % 1001,6 hPa 0,0 l/m 4,8 km/h (1 Bft) O 97 11,0 C 24,0 C
19.05.2019 16:43 24,1 C 44 % 1001,6 hPa 0,0 l/m 9,6 km/h (2 Bft) SO 142 11,1 C 23,3 C
19.05.2019 16:42 24,1 C 44 % 1001,6 hPa 0,0 l/m 6,5 km/h (2 Bft) O 86 11,1 C 24,1 C
19.05.2019 16:41 24,2 C 43 % 1001,6 hPa 0,0 l/m 9,6 km/h (2 Bft) O 93 10,8 C 23,4 C
19.05.2019 16:40 24,3 C 44 % 1001,5 hPa 0,0 l/m 8,0 km/h (2 Bft) SO 128 11,3 C 23,9 C
19.05.2019 16:39 24,4 C 43 % 1001,5 hPa 0,0 l/m 6,5 km/h (2 Bft) S-SO 159 11,0 C 24,4 C
19.05.2019 16:38 24,4 C 44 % 1001,5 hPa 0,0 l/m 13,0 km/h (3 Bft) SO 145 11,3 C 22,9 C
19.05.2019 16:37 24,5 C 44 % 1001,6 hPa 0,0 l/m 17,8 km/h (3 Bft) O-SO 107 11,4 C 22,3 C
19.05.2019 16:36 24,5 C 43 % 1001,6 hPa 0,0 l/m 13,0 km/h (3 Bft) O-SO 117 11,1 C 23,0 C
19.05.2019 16:35 24,6 C 43 % 1001,6 hPa 0,0 l/m 4,8 km/h (1 Bft) O-SO 118 11,2 C 24,6 C
19.05.2019 16:34 24,7 C 43 % 1001,5 hPa 0,0 l/m 13,0 km/h (3 Bft) O-SO 107 11,3 C 23,3 C
19.05.2019 16:33 24,8 C 44 % 1001,6 hPa 0,0 l/m 14,4 km/h (3 Bft) O 92 11,7 C 23,2 C
19.05.2019 16:32 24,8 C 42 % 1001,6 hPa 0,0 l/m 3,1 km/h (1 Bft) O 93 11,0 C 24,8 C
19.05.2019 16:31 24,9 C 43 % 1001,6 hPa 0,0 l/m 6,5 km/h (2 Bft) O-NO 74 11,4 C 24,9 C
19.05.2019 16:30 24,9 C 41 % 1001,5 hPa 0,0 l/m 14,4 km/h (3 Bft) O-SO 103 10,7 C 23,3 C
19.05.2019 16:29 25,0 C 41 % 1001,5 hPa 0,0 l/m 11,3 km/h (2 Bft) O-SO 110 10,8 C 23,9 C
19.05.2019 16:28 25,0 C 42 % 1001,5 hPa 0,0 l/m 6,5 km/h (2 Bft) O-SO 113 11,2 C 25,0 C
19.05.2019 16:27 25,0 C 41 % 1001,5 hPa 0,0 l/m 9,6 km/h (2 Bft) S-SO 159 10,8 C 24,2 C
19.05.2019 16:26 25,0 C 42 % 1001,5 hPa 0,0 l/m 4,8 km/h (1 Bft) S 180 11,2 C 25,0 C
19.05.2019 16:24 25,0 C 41 % 1001,5 hPa 0,0 l/m 3,1 km/h (1 Bft) O-SO 104 10,8 C 25,0 C
19.05.2019 16:23 25,0 C 41 % 1001,5 hPa 0,0 l/m 4,8 km/h (1 Bft) O 86 10,8 C 25,0 C
19.05.2019 16:22 24,9 C 42 % 1001,5 hPa 0,0 l/m 4,8 km/h (1 Bft) O 82 11,1 C 24,9 C
19.05.2019 16:21 24,9 C 43 % 1001,6 hPa 0,0 l/m 1,7 km/h (1 Bft) SO 128 11,4 C 24,9 C
19.05.2019 16:20 24,8 C 43 % 1001,5 hPa 0,0 l/m 1,7 km/h (1 Bft) O 94 11,4 C 24,8 C
19.05.2019 16:19 24,8 C 42 % 1001,6 hPa 0,0 l/m 3,1 km/h (1 Bft) O 93 11,0 C 24,8 C
19.05.2019 16:18 24,8 C 41 % 1001,6 hPa 0,0 l/m 9,6 km/h (2 Bft) O 91 10,6 C 24,0 C
19.05.2019 16:17 24,8 C 42 % 1001,6 hPa 0,0 l/m 3,1 km/h (1 Bft) O 82 11,0 C 24,8 C
19.05.2019 16:16 24,8 C 41 % 1001,6 hPa 0,0 l/m 3,1 km/h (1 Bft) O-SO 108 10,6 C 24,8 C
19.05.2019 16:15 24,8 C 41 % 1001,6 hPa 0,0 l/m 11,3 km/h (2 Bft) O-SO 102 10,6 C 23,7 C
19.05.2019 16:14 24,8 C 40 % 1001,6 hPa 0,0 l/m 6,5 km/h (2 Bft) O-NO 65 10,3 C 24,8 C
19.05.2019 16:13 24,8 C 42 % 1001,6 hPa 0,0 l/m 1,7 km/h (1 Bft) O 93 11,0 C 24,8 C
19.05.2019 16:12 24,8 C 42 % 1001,6 hPa 0,0 l/m 6,5 km/h (2 Bft) O 97 11,0 C 24,8 C
19.05.2019 16:11 24,8 C 42 % 1001,6 hPa 0,0 l/m 4,8 km/h (1 Bft) O 96 11,0 C 24,8 C
19.05.2019 16:10 24,8 C 42 % 1001,6 hPa 0,0 l/m 1,7 km/h (1 Bft) O 95 11,0 C 24,8 C
19.05.2019 16:09 24,8 C 42 % 1001,6 hPa 0,0 l/m 3,1 km/h (1 Bft) O-NO 71 11,0 C 24,8 C
19.05.2019 16:08 24,8 C 41 % 1001,6 hPa 0,0 l/m 3,1 km/h (1 Bft) O-SO 121 10,6 C 24,8 C
19.05.2019 16:07 24,8 C 41 % 1001,6 hPa 0,0 l/m 6,5 km/h (2 Bft) O-SO 102 10,6 C 24,8 C
19.05.2019 16:06 24,8 C 41 % 1001,7 hPa 0,0 l/m 4,8 km/h (1 Bft) O-SO 103 10,6 C 24,8 C
19.05.2019 16:05 24,9 C 41 % 1001,7 hPa 0,0 l/m 4,8 km/h (1 Bft) O 87 10,7 C 24,9 C
19.05.2019 16:04 24,9 C 43 % 1001,7 hPa 0,0 l/m 13,0 km/h (3 Bft) O 93 11,4 C 23,5 C
19.05.2019 16:03 24,9 C 42 % 1001,7 hPa 0,0 l/m 6,5 km/h (2 Bft) O-NO 71 11,1 C 24,9 C
19.05.2019 16:02 24,9 C 45 % 1001,7 hPa 0,0 l/m 13,0 km/h (3 Bft) O 89 12,1 C 23,5 C
19.05.2019 16:01 24,9 C 43 % 1001,7 hPa 0,0 l/m 1,7 km/h (1 Bft) O 97 11,4 C 24,9 C
19.05.2019 16:00 24,9 C 44 % 1001,7 hPa 0,0 l/m 1,7 km/h (1 Bft) S 175 11,8 C 24,9 C
19.05.2019 15:59 24,9 C 43 % 1001,6 hPa 0,0 l/m 6,5 km/h (2 Bft) O-NO 78 11,4 C 24,9 C
19.05.2019 15:58 24,9 C 42 % 1001,7 hPa 0,0 l/m 3,1 km/h (1 Bft) O 92 11,1 C 24,9 C
19.05.2019 15:57 24,9 C 41 % 1001,7 hPa 0,0 l/m 3,1 km/h (1 Bft) O 84 10,7 C 24,9 C
19.05.2019 15:56 24,9 C 41 % 1001,6 hPa 0,0 l/m 6,5 km/h (2 Bft) O-SO 118 10,7 C 24,9 C
19.05.2019 15:55 25,0 C 42 % 1001,7 hPa 0,0 l/m 9,6 km/h (2 Bft) O-SO 110 11,2 C 24,2 C
19.05.2019 15:54 25,0 C 42 % 1001,7 hPa 0,0 l/m 6,5 km/h (2 Bft) O 89 11,2 C 25,0 C
19.05.2019 15:53 24,9 C 42 % 1001,6 hPa 0,0 l/m 3,1 km/h (1 Bft) O 89 11,1 C 24,9 C
19.05.2019 15:52 24,9 C 41 % 1001,7 hPa 0,0 l/m 4,8 km/h (1 Bft) O 89 10,7 C 24,9 C
19.05.2019 15:51 24,9 C 41 % 1001,7 hPa 0,0 l/m 3,1 km/h (1 Bft) O 89 10,7 C 24,9 C
19.05.2019 15:50 24,9 C 40 % 1001,7 hPa 0,0 l/m 4,8 km/h (1 Bft) O 88 10,4 C 24,9 C
19.05.2019 15:49 24,9 C 41 % 1001,7 hPa 0,0 l/m 1,7 km/h (1 Bft) O 92 10,7 C 24,9 C
19.05.2019 15:48 24,8 C 42 % 1001,6 hPa 0,0 l/m 4,8 km/h (1 Bft) O 92 11,0 C 24,8 C
19.05.2019 15:47 24,8 C 44 % 1001,6 hPa 0,0 l/m 3,1 km/h (1 Bft) O-NO 69 11,7 C 24,8 C
19.05.2019 15:46 24,8 C 41 % 1001,7 hPa 0,0 l/m 0,0 km/h (0 Bft) O-NO 62 10,6 C 24,8 C
19.05.2019 15:45 24,9 C 41 % 1001,7 hPa 0,0 l/m 1,7 km/h (1 Bft) O-NO 62 10,7 C 24,9 C
19.05.2019 15:44 24,9 C 43 % 1001,7 hPa 0,0 l/m 0,0 km/h (0 Bft) O-NO 62 11,4 C 24,9 C
19.05.2019 15:43 24,9 C 42 % 1001,7 hPa 0,0 l/m 4,8 km/h (1 Bft) O 81 11,1 C 24,9 C
19.05.2019 15:42 24,9 C 41 % 1001,7 hPa 0,0 l/m 3,1 km/h (1 Bft) O 93 10,7 C 24,9 C
19.05.2019 15:41 24,9 C 41 % 1001,7 hPa 0,0 l/m 6,5 km/h (2 Bft) SO 146 10,7 C 24,9 C
19.05.2019 15:40 24,9 C 41 % 1001,7 hPa 0,0 l/m 3,1 km/h (1 Bft) SO 130 10,7 C 24,9 C
19.05.2019 15:39 24,9 C 41 % 1001,7 hPa 0,0 l/m 6,5 km/h (2 Bft) S-SO 160 10,7 C 24,9 C
19.05.2019 15:38 24,8 C 41 % 1001,7 hPa 0,0 l/m 4,8 km/h (1 Bft) S-SO 151 10,6 C 24,8 C
19.05.2019 15:37 24,8 C 40 % 1001,7 hPa 0,0 l/m 3,1 km/h (1 Bft) O-NO 57 10,3 C 24,8 C
19.05.2019 15:36 24,8 C 39 % 1001,7 hPa 0,0 l/m 4,8 km/h (1 Bft) O-NO 74 9,9 C 24,8 C
19.05.2019 15:35 24,9 C 38 % 1001,7 hPa 0,0 l/m 8,0 km/h (2 Bft) O-NO 67 9,6 C 24,5 C
19.05.2019 15:34 24,9 C 39 % 1001,7 hPa 0,0 l/m 9,6 km/h (2 Bft) O-NO 67 10,0 C 24,1 C
19.05.2019 15:33 24,9 C 39 % 1001,8 hPa 0,0 l/m 0,0 km/h (0 Bft) O 89 10,0 C 24,9 C
19.05.2019 15:32 24,9 C 40 % 1001,7 hPa 0,0 l/m 1,7 km/h (1 Bft) O 94 10,4 C 24,9 C
19.05.2019 15:31 24,9 C 40 % 1001,8 hPa 0,0 l/m 4,8 km/h (1 Bft) O 95 10,4 C 24,9 C
19.05.2019 15:30 24,9 C 40 % 1001,8 hPa 0,0 l/m 4,8 km/h (1 Bft) NO 51 10,4 C 24,9 C
19.05.2019 15:29 24,9 C 42 % 1001,8 hPa 0,0 l/m 3,1 km/h (1 Bft) O 101 11,1 C 24,9 C
19.05.2019 15:28 24,8 C 41 % 1001,8 hPa 0,0 l/m 6,5 km/h (2 Bft) O 100 10,6 C 24,8 C
19.05.2019 15:27 24,8 C 40 % 1001,8 hPa 0,0 l/m 4,8 km/h (1 Bft) O-NO 69 10,3 C 24,8 C
19.05.2019 15:26 24,8 C 39 % 1001,9 hPa 0,0 l/m 6,5 km/h (2 Bft) O 98 9,9 C 24,8 C
19.05.2019 15:25 24,8 C 38 % 1001,8 hPa 0,0 l/m 0,0 km/h (0 Bft) O-NO 65 9,5 C 24,8 C
19.05.2019 15:24 24,9 C 41 % 1001,8 hPa 0,0 l/m 6,5 km/h (2 Bft) O-NO 65 10,7 C 24,9 C
19.05.2019 15:23 24,9 C 39 % 1001,8 hPa 0,0 l/m 3,1 km/h (1 Bft) O-NO 74 10,0 C 24,9 C
19.05.2019 15:22 24,9 C 39 % 1001,9 hPa 0,0 l/m 3,1 km/h (1 Bft) SO 144 10,0 C 24,9 C
19.05.2019 15:21 24,9 C 41 % 1001,9 hPa 0,0 l/m 9,6 km/h (2 Bft) NO 56 10,7 C 24,1 C
19.05.2019 15:20 24,8 C 41 % 1001,9 hPa 0,0 l/m 0,0 km/h (0 Bft) O-SO 110 10,6 C 24,8 C
19.05.2019 15:19 24,8 C 42 % 1001,9 hPa 0,0 l/m 1,7 km/h (1 Bft) O-SO 115 11,0 C 24,8 C
19.05.2019 15:18 24,8 C 42 % 1001,9 hPa 0,0 l/m 1,7 km/h (1 Bft) O-SO 115 11,0 C 24,8 C
19.05.2019 15:17 24,7 C 43 % 1001,9 hPa 0,0 l/m 0,0 km/h (0 Bft) O 96 11,3 C 24,7 C
19.05.2019 15:16 24,6 C 41 % 1001,9 hPa 0,0 l/m 1,7 km/h (1 Bft) O 96 10,5 C 24,6 C
19.05.2019 15:15 24,6 C 43 % 1002,0 hPa 0,0 l/m 4,8 km/h (1 Bft) O 88 11,2 C 24,6 C
19.05.2019 15:14 24,6 C 40 % 1002,0 hPa 0,0 l/m 3,1 km/h (1 Bft) O 85 10,1 C 24,6 C
19.05.2019 15:13 24,6 C 42 % 1002,0 hPa 0,0 l/m 4,8 km/h (1 Bft) O 90 10,8 C 24,6 C
19.05.2019 15:12 24,5 C 42 % 1001,9 hPa 0,0 l/m 3,1 km/h (1 Bft) O 99 10,7 C 24,5 C
19.05.2019 15:11 24,5 C 42 % 1001,9 hPa 0,0 l/m 6,5 km/h (2 Bft) S-SO 155 10,7 C 24,5 C
19.05.2019 15:10 24,5 C 44 % 1002,0 hPa 0,0 l/m 4,8 km/h (1 Bft) O 84 11,4 C 24,5 C
19.05.2019 15:09 24,5 C 42 % 1001,9 hPa 0,0 l/m 8,0 km/h (2 Bft) N-NO 23 10,7 C 24,1 C
19.05.2019 15:08 24,5 C 41 % 1002,0 hPa 0,0 l/m 3,1 km/h (1 Bft) O 84 10,4 C 24,5 C
19.05.2019 15:07 24,5 C 42 % 1002,0 hPa 0,0 l/m 6,5 km/h (2 Bft) O-NO 57 10,7 C 24,5 C
19.05.2019 15:06 24,5 C 43 % 1002,1 hPa 0,0 l/m 4,8 km/h (1 Bft) O-NO 63 11,1 C 24,5 C
19.05.2019 15:05 24,5 C 41 % 1002,1 hPa 0,0 l/m 6,5 km/h (2 Bft) O-SO 102 10,4 C 24,5 C
19.05.2019 15:04 24,5 C 41 % 1002,1 hPa 0,0 l/m 4,8 km/h (1 Bft) O-SO 107 10,4 C 24,5 C
19.05.2019 15:03 24,6 C 40 % 1002,1 hPa 0,0 l/m 11,3 km/h (2 Bft) NO 46 10,1 C 23,5 C
19.05.2019 15:02 24,7 C 42 % 1002,1 hPa 0,0 l/m 4,8 km/h (1 Bft) O-NO 71 10,9 C 24,7 C
19.05.2019 15:01 24,7 C 40 % 1002,1 hPa 0,0 l/m 4,8 km/h (1 Bft) O-NO 64 10,2 C 24,7 C
19.05.2019 15:00 24,8 C 43 % 1002,1 hPa 0,0 l/m 6,5 km/h (2 Bft) NO 55 11,4 C 24,8 C
19.05.2019 14:59 24,8 C 41 % 1002,1 hPa 0,0 l/m 1,7 km/h (1 Bft) O 93 10,6 C 24,8 C
19.05.2019 14:58 24,7 C 42 % 1002,2 hPa 0,0 l/m 1,7 km/h (1 Bft) O-SO 111 10,9 C 24,7 C
19.05.2019 14:57 24,7 C 40 % 1002,2 hPa 0,0 l/m 1,7 km/h (1 Bft) O-SO 111 10,2 C 24,7 C
19.05.2019 14:56 24,7 C 40 % 1002,2 hPa 0,0 l/m 4,8 km/h (1 Bft) O 94 10,2 C 24,7 C
19.05.2019 14:55 24,8 C 41 % 1002,2 hPa 0,0 l/m 6,5 km/h (2 Bft) O-NO 74 10,6 C 24,8 C
19.05.2019 14:54 24,8 C 42 % 1002,2 hPa 0,0 l/m 8,0 km/h (2 Bft) NO 51 11,0 C 24,4 C
19.05.2019 14:53 24,8 C 42 % 1002,2 hPa 0,0 l/m 1,7 km/h (1 Bft) O-SO 111 11,0 C 24,8 C
19.05.2019 14:52 24,7 C 40 % 1002,2 hPa 0,0 l/m 4,8 km/h (1 Bft) O-SO 116 10,2 C 24,7 C
19.05.2019 14:50 24,7 C 41 % 1002,3 hPa 0,0 l/m 1,7 km/h (1 Bft) O-SO 117 10,6 C 24,7 C
19.05.2019 14:48 24,7 C 43 % 1002,2 hPa 0,0 l/m 4,8 km/h (1 Bft) O-SO 116 11,3 C 24,7 C
19.05.2019 14:46 24,8 C 41 % 1002,2 hPa 0,0 l/m 4,8 km/h (1 Bft) O-SO 102 10,6 C 24,8 C
19.05.2019 14:44 24,8 C 42 % 1002,3 hPa 0,0 l/m 6,5 km/h (2 Bft) O-SO 103 11,0 C 24,8 C
19.05.2019 14:43 24,8 C 41 % 1002,2 hPa 0,0 l/m 0,0 km/h (0 Bft) O-NO 67 10,6 C 24,8 C
19.05.2019 14:42 24,9 C 40 % 1002,3 hPa 0,0 l/m 0,0 km/h (0 Bft) O-NO 71 10,4 C 24,9 C
19.05.2019 14:41 24,9 C 41 % 1002,3 hPa 0,0 l/m 0,0 km/h (0 Bft) O-NO 64 10,7 C 24,9 C
19.05.2019 14:40 24,9 C 42 % 1002,3 hPa 0,0 l/m 0,0 km/h (0 Bft) O-NO 72 11,1 C 24,9 C
19.05.2019 14:39 25,0 C 41 % 1002,3 hPa 0,0 l/m 0,0 km/h (0 Bft) O 88 10,8 C 25,0 C
19.05.2019 14:38 25,0 C 41 % 1002,3 hPa 0,0 l/m 0,0 km/h (0 Bft) O 96 10,8 C 25,0 C
19.05.2019 14:37 25,0 C 41 % 1002,3 hPa 0,0 l/m 0,0 km/h (0 Bft) O 88 10,8 C 25,0 C
19.05.2019 14:36 25,0 C 42 % 1002,3 hPa 0,0 l/m 0,0 km/h (0 Bft) O 99 11,2 C 25,0 C
19.05.2019 14:35 25,0 C 41 % 1002,3 hPa 0,0 l/m 0,0 km/h (0 Bft) O 97 10,8 C 25,0 C
19.05.2019 14:34 24,9 C 41 % 1002,3 hPa 0,0 l/m 0,0 km/h (0 Bft) O 97 10,7 C 24,9 C
19.05.2019 14:33 24,9 C 40 % 1002,3 hPa 0,0 l/m 0,0 km/h (0 Bft) O 97 10,4 C 24,9 C
19.05.2019 14:32 24,9 C 41 % 1002,3 hPa 0,0 l/m 0,0 km/h (0 Bft) O-SO 105 10,7 C 24,9 C
19.05.2019 14:31 24,9 C 41 % 1002,3 hPa 0,0 l/m 0,0 km/h (0 Bft) O-SO 105 10,7 C 24,9 C
19.05.2019 14:30 24,9 C 44 % 1002,3 hPa 0,0 l/m 0,0 km/h (0 Bft) O 99 11,8 C 24,9 C
19.05.2019 14:29 24,9 C 42 % 1002,3 hPa 0,0 l/m 0,0 km/h (0 Bft) O 97 11,1 C 24,9 C
19.05.2019 14:28 24,9 C 43 % 1002,3 hPa 0,0 l/m 0,0 km/h (0 Bft) O-SO 103 11,4 C 24,9 C
19.05.2019 14:27 24,9 C 42 % 1002,3 hPa 0,0 l/m 0,0 km/h (0 Bft) O-SO 113 11,1 C 24,9 C
19.05.2019 14:26 24,8 C 43 % 1002,3 hPa 0,0 l/m 0,0 km/h (0 Bft) O-SO 107 11,4 C 24,8 C
19.05.2019 14:25 24,8 C 43 % 1002,3 hPa 0,0 l/m 0,0 km/h (0 Bft) S-SO 150 11,4 C 24,8 C
19.05.2019 14:24 24,8 C 43 % 1002,3 hPa 0,0 l/m 0,0 km/h (0 Bft) O-SO 112 11,4 C 24,8 C
19.05.2019 14:23 24,8 C 41 % 1002,3 hPa 0,0 l/m 0,0 km/h (0 Bft) O 95 10,6 C 24,8 C
19.05.2019 14:22 24,8 C 42 % 1002,3 hPa 0,0 l/m 0,0 km/h (0 Bft) O 92 11,0 C 24,8 C
19.05.2019 14:21 24,8 C 44 % 1002,3 hPa 0,0 l/m 0,0 km/h (0 Bft) SO 138 11,7 C 24,8 C
19.05.2019 14:20 24,7 C 43 % 1002,3 hPa 0,0 l/m 0,0 km/h (0 Bft) SO 143 11,3 C 24,7 C
19.05.2019 14:19 24,7 C 42 % 1002,3 hPa 0,0 l/m 0,0 km/h (0 Bft) SO 143 10,9 C 24,7 C
19.05.2019 14:18 24,7 C 43 % 1002,3 hPa 0,0 l/m 0,0 km/h (0 Bft) SO 125 11,3 C 24,7 C
19.05.2019 14:17 24,7 C 43 % 1002,3 hPa 0,0 l/m 0,0 km/h (0 Bft) O 88 11,3 C 24,7 C
19.05.2019 14:16 24,6 C 43 % 1002,3 hPa 0,0 l/m 0,0 km/h (0 Bft) SO 136 11,2 C 24,6 C
19.05.2019 14:15 24,6 C 44 % 1002,3 hPa 0,0 l/m 0,0 km/h (0 Bft) SO 136 11,5 C 24,6 C
19.05.2019 14:14 24,7 C 44 % 1002,3 hPa 0,0 l/m 0,0 km/h (0 Bft) O-SO 115 11,6 C 24,7 C
19.05.2019 14:13 24,7 C 43 % 1002,3 hPa 0,0 l/m 0,0 km/h (0 Bft) O-SO 111 11,3 C 24,7 C
19.05.2019 14:12 24,7 C 45 % 1002,3 hPa 0,0 l/m 0,0 km/h (0 Bft) O-SO 103 12,0 C 24,7 C
19.05.2019 14:11 24,7 C 44 % 1002,3 hPa 0,0 l/m 0,0 km/h (0 Bft) SO 134 11,6 C 24,7 C
19.05.2019 14:10 24,7 C 45 % 1002,3 hPa 0,0 l/m 0,0 km/h (0 Bft) SO 140 12,0 C 24,7 C
19.05.2019 14:09 24,7 C 46 % 1002,3 hPa 0,0 l/m 0,0 km/h (0 Bft) S-SO 147 12,3 C 24,7 C
19.05.2019 14:08 24,6 C 47 % 1002,3 hPa 0,0 l/m 0,0 km/h (0 Bft) S-SO 148 12,5 C 24,6 C
19.05.2019 14:07 24,5 C 46 % 1002,3 hPa 0,0 l/m 0,0 km/h (0 Bft) O 96 12,1 C 24,5 C
19.05.2019 14:06 24,5 C 48 % 1002,3 hPa 0,0 l/m 0,0 km/h (0 Bft) O-NO 65 12,8 C 24,5 C
19.05.2019 14:05 24,4 C 47 % 1002,3 hPa 0,0 l/m 0,0 km/h (0 Bft) O-SO 114 12,3 C 24,4 C
19.05.2019 14:04 24,3 C 45 % 1002,3 hPa 0,0 l/m 0,0 km/h (0 Bft) O-SO 114 11,6 C 24,3 C
19.05.2019 14:03 24,3 C 44 % 1002,3 hPa 0,0 l/m 0,0 km/h (0 Bft) O-SO 115 11,3 C 24,3 C
19.05.2019 14:02 24,2 C 46 % 1002,4 hPa 0,0 l/m 0,0 km/h (0 Bft) O-SO 116 11,8 C 24,2 C
19.05.2019 14:01 24,1 C 48 % 1002,3 hPa 0,0 l/m 0,0 km/h (0 Bft) O-SO 115 12,4 C 24,1 C
19.05.2019 14:00 24,0 C 46 % 1002,4 hPa 0,0 l/m 0,0 km/h (0 Bft) O-SO 115 11,7 C 24,0 C
19.05.2019 13:59 24,0 C 47 % 1002,4 hPa 0,0 l/m 0,0 km/h (0 Bft) O-SO 110 12,0 C 24,0 C
19.05.2019 13:58 24,0 C 46 % 1002,4 hPa 0,0 l/m 0,0 km/h (0 Bft) O-SO 110 11,7 C 24,0 C
19.05.2019 13:57 23,9 C 46 % 1002,4 hPa 0,0 l/m 0,0 km/h (0 Bft) O-SO 110 11,6 C 23,9 C
19.05.2019 13:56 23,9 C 46 % 1002,4 hPa 0,0 l/m 0,0 km/h (0 Bft) O 97 11,6 C 23,9 C
19.05.2019 13:55 23,8 C 46 % 1002,4 hPa 0,0 l/m 0,0 km/h (0 Bft) O 94 11,5 C 23,8 C
19.05.2019 13:54 23,8 C 48 % 1002,5 hPa 0,0 l/m 0,0 km/h (0 Bft) O 94 12,1 C 23,8 C
19.05.2019 13:53 23,8 C 48 % 1002,5 hPa 0,0 l/m 0,0 km/h (0 Bft) O 101 12,1 C 23,8 C
19.05.2019 13:52 23,6 C 48 % 1002,5 hPa 0,0 l/m 0,0 km/h (0 Bft) O 79 11,9 C 23,6 C
19.05.2019 13:51 23,6 C 49 % 1002,5 hPa 0,0 l/m 0,0 km/h (0 Bft) NO 53 12,2 C 23,6 C
19.05.2019 13:50 23,5 C 47 % 1002,5 hPa 0,0 l/m 0,0 km/h (0 Bft) O 91 11,5 C 23,5 C
19.05.2019 13:49 23,5 C 46 % 1002,5 hPa 0,0 l/m 0,0 km/h (0 Bft) NO 54 11,2 C 23,5 C
19.05.2019 13:48 23,5 C 51 % 1002,5 hPa 0,0 l/m 0,0 km/h (0 Bft) O 84 12,8 C 23,5 C
19.05.2019 13:47 23,4 C 47 % 1002,5 hPa 0,0 l/m 3,1 km/h (1 Bft) O 80 11,4 C 23,4 C
19.05.2019 13:46 23,4 C 47 % 1002,5 hPa 0,0 l/m 0,0 km/h (0 Bft) O-NO 71 11,4 C 23,4 C
19.05.2019 13:45 23,4 C 48 % 1002,5 hPa 0,0 l/m 0,0 km/h (0 Bft) O-NO 65 11,8 C 23,4 C
19.05.2019 13:44 23,4 C 48 % 1002,5 hPa 0,0 l/m 3,1 km/h (1 Bft) O-NO 76 11,8 C 23,4 C
19.05.2019 13:43 23,5 C 47 % 1002,5 hPa 0,0 l/m 8,0 km/h (2 Bft) O 83 11,5 C 23,0 C
19.05.2019 13:42 23,5 C 47 % 1002,5 hPa 0,0 l/m 0,0 km/h (0 Bft) O-NO 73 11,5 C 23,5 C
19.05.2019 13:41 23,6 C 47 % 1002,6 hPa 0,0 l/m 0,0 km/h (0 Bft) O-NO 66 11,6 C 23,6 C
19.05.2019 13:40 23,7 C 46 % 1002,6 hPa 0,0 l/m 3,1 km/h (1 Bft) O-NO 61 11,4 C 23,7 C
19.05.2019 13:39 23,8 C 46 % 1002,6 hPa 0,0 l/m 4,8 km/h (1 Bft) O-NO 73 11,5 C 23,8 C
19.05.2019 13:38 23,9 C 47 % 1002,6 hPa 0,0 l/m 14,4 km/h (3 Bft) O-NO 71 11,9 C 22,1 C
19.05.2019 13:37 24,0 C 47 % 1002,6 hPa 0,0 l/m 8,0 km/h (2 Bft) O-NO 59 12,0 C 23,6 C
19.05.2019 13:36 24,0 C 45 % 1002,6 hPa 0,0 l/m 0,0 km/h (0 Bft) NO 53 11,3 C 24,0 C
19.05.2019 13:35 24,0 C 45 % 1002,6 hPa 0,0 l/m 0,0 km/h (0 Bft) NO 55 11,3 C 24,0 C
19.05.2019 13:34 24,0 C 46 % 1002,6 hPa 0,0 l/m 0,0 km/h (0 Bft) O-NO 57 11,7 C 24,0 C
19.05.2019 13:33 24,0 C 44 % 1002,6 hPa 0,0 l/m 0,0 km/h (0 Bft) SO 128 11,0 C 24,0 C
19.05.2019 13:32 23,9 C 45 % 1002,6 hPa 0,0 l/m 0,0 km/h (0 Bft) O-SO 103 11,2 C 23,9 C
19.05.2019 13:31 23,8 C 45 % 1002,7 hPa 0,0 l/m 0,0 km/h (0 Bft) O 94 11,1 C 23,8 C
19.05.2019 13:30 23,8 C 44 % 1002,7 hPa 0,0 l/m 0,0 km/h (0 Bft) O 94 10,8 C 23,8 C
19.05.2019 13:29 23,7 C 45 % 1002,8 hPa 0,0 l/m 0,0 km/h (0 Bft) O 94 11,1 C 23,7 C
19.05.2019 13:28 23,7 C 45 % 1002,8 hPa 0,0 l/m 0,0 km/h (0 Bft) O 92 11,1 C 23,7 C
19.05.2019 13:27 23,7 C 44 % 1002,8 hPa 0,0 l/m 0,0 km/h (0 Bft) O 92 10,7 C 23,7 C
19.05.2019 13:26 23,6 C 45 % 1002,7 hPa 0,0 l/m 0,0 km/h (0 Bft) O 88 11,0 C 23,6 C
19.05.2019 13:25 23,6 C 46 % 1002,8 hPa 0,0 l/m 0,0 km/h (0 Bft) O-NO 63 11,3 C 23,6 C
19.05.2019 13:24 23,5 C 43 % 1002,8 hPa 0,0 l/m 0,0 km/h (0 Bft) O-NO 63 10,2 C 23,5 C
19.05.2019 13:23 23,5 C 44 % 1002,8 hPa 0,0 l/m 0,0 km/h (0 Bft) O-NO 63 10,5 C 23,5 C
19.05.2019 13:22 23,5 C 45 % 1002,8 hPa 0,0 l/m 0,0 km/h (0 Bft) O-SO 107 10,9 C 23,5 C
19.05.2019 13:21 23,5 C 46 % 1002,8 hPa 0,0 l/m 0,0 km/h (0 Bft) O 100 11,2 C 23,5 C
19.05.2019 13:20 23,5 C 45 % 1002,8 hPa 0,0 l/m 0,0 km/h (0 Bft) O 98 10,9 C 23,5 C
19.05.2019 13:19 23,5 C 46 % 1002,8 hPa 0,0 l/m 0,0 km/h (0 Bft) O-SO 103 11,2 C 23,5 C
19.05.2019 13:18 23,4 C 44 % 1002,8 hPa 0,0 l/m 0,0 km/h (0 Bft) S-SO 161 10,4 C 23,4 C
19.05.2019 13:17 23,4 C 44 % 1002,8 hPa 0,0 l/m 0,0 km/h (0 Bft) S-SO 165 10,4 C 23,4 C
19.05.2019 13:16 23,4 C 45 % 1002,9 hPa 0,0 l/m 0,0 km/h (0 Bft) S-SO 151 10,8 C 23,4 C
19.05.2019 13:15 23,3 C 44 % 1002,9 hPa 0,0 l/m 0,0 km/h (0 Bft) O-SO 123 10,4 C 23,3 C
19.05.2019 13:14 23,4 C 42 % 1002,9 hPa 0,0 l/m 0,0 km/h (0 Bft) O-NO 77 9,7 C 23,4 C
19.05.2019 13:13 23,4 C 42 % 1002,9 hPa 0,0 l/m 0,0 km/h (0 Bft) O-NO 77 9,7 C 23,4 C
19.05.2019 13:12 23,4 C 43 % 1002,9 hPa 0,0 l/m 0,0 km/h (0 Bft) O-NO 77 10,1 C 23,4 C
19.05.2019 13:11 23,4 C 43 % 1002,9 hPa 0,0 l/m 0,0 km/h (0 Bft) O 84 10,1 C 23,4 C
19.05.2019 13:10 23,4 C 44 % 1002,9 hPa 0,0 l/m 0,0 km/h (0 Bft) O 84 10,4 C 23,4 C
19.05.2019 13:09 23,4 C 45 % 1003,0 hPa 0,0 l/m 0,0 km/h (0 Bft) O-NO 57 10,8 C 23,4 C
19.05.2019 13:08 23,4 C 42 % 1003,0 hPa 0,0 l/m 0,0 km/h (0 Bft) O-NO 73 9,7 C 23,4 C
19.05.2019 13:07 23,5 C 43 % 1003,0 hPa 0,0 l/m 0,0 km/h (0 Bft) O-NO 73 10,2 C 23,5 C
19.05.2019 13:06 23,5 C 44 % 1003,0 hPa 0,0 l/m 0,0 km/h (0 Bft) O-NO 73 10,5 C 23,5 C
19.05.2019 13:05 23,4 C 42 % 1003,0 hPa 0,0 l/m 0,0 km/h (0 Bft) O 90 9,7 C 23,4 C
19.05.2019 13:04 23,4 C 42 % 1003,0 hPa 0,0 l/m 0,0 km/h (0 Bft) O 90 9,7 C 23,4 C
19.05.2019 13:03 23,4 C 42 % 1003,0 hPa 0,0 l/m 0,0 km/h (0 Bft) O 90 9,7 C 23,4 C
19.05.2019 13:02 23,3 C 42 % 1003,1 hPa 0,0 l/m 0,0 km/h (0 Bft) O 90 9,7 C 23,3 C
19.05.2019 13:01 23,4 C 43 % 1003,1 hPa 0,0 l/m 0,0 km/h (0 Bft) O 90 10,1 C 23,4 C
19.05.2019 13:00 23,4 C 42 % 1003,0 hPa 0,0 l/m 0,0 km/h (0 Bft) O 90 9,7 C 23,4 C
19.05.2019 12:59 23,4 C 42 % 1003,1 hPa 0,0 l/m 0,0 km/h (0 Bft) O 99 9,7 C 23,4 C
19.05.2019 12:58 23,4 C 45 % 1003,1 hPa 0,0 l/m 0,0 km/h (0 Bft) O 99 10,8 C 23,4 C
19.05.2019 12:57 23,3 C 45 % 1003,0 hPa 0,0 l/m 0,0 km/h (0 Bft) O 101 10,7 C 23,3 C
19.05.2019 12:56 23,3 C 45 % 1003,1 hPa 0,0 l/m 0,0 km/h (0 Bft) O 101 10,7 C 23,3 C
19.05.2019 12:55 23,3 C 45 % 1003,1 hPa 0,0 l/m 0,0 km/h (0 Bft) O 100 10,7 C 23,3 C
19.05.2019 12:54 23,3 C 42 % 1003,1 hPa 0,0 l/m 0,0 km/h (0 Bft) O 96 9,7 C 23,3 C
19.05.2019 12:53 23,3 C 45 % 1003,1 hPa 0,0 l/m 0,0 km/h (0 Bft) O-SO 111 10,7 C 23,3 C
19.05.2019 12:52 23,3 C 46 % 1003,2 hPa 0,0 l/m 0,0 km/h (0 Bft) O-NO 61 11,0 C 23,3 C
19.05.2019 12:51 23,3 C 46 % 1003,0 hPa 0,0 l/m 0,0 km/h (0 Bft) O 94 11,0 C 23,3 C
19.05.2019 12:50 23,1 C 45 % 1003,1 hPa 0,0 l/m 0,0 km/h (0 Bft) S-SO 148 10,5 C 23,1 C
19.05.2019 12:49 23,1 C 45 % 1003,2 hPa 0,0 l/m 0,0 km/h (0 Bft) SO 126 10,5 C 23,1 C
19.05.2019 12:48 23,0 C 46 % 1003,2 hPa 0,0 l/m 0,0 km/h (0 Bft) SO 125 10,7 C 23,0 C
19.05.2019 12:47 23,0 C 46 % 1003,2 hPa 0,0 l/m 0,0 km/h (0 Bft) SO 125 10,7 C 23,0 C
19.05.2019 12:46 22,9 C 48 % 1003,2 hPa 0,0 l/m 0,0 km/h (0 Bft) O-SO 107 11,3 C 22,9 C
19.05.2019 12:45 22,9 C 46 % 1003,2 hPa 0,0 l/m 0,0 km/h (0 Bft) O-SO 107 10,7 C 22,9 C
19.05.2019 12:44 22,8 C 47 % 1003,1 hPa 0,0 l/m 0,0 km/h (0 Bft) O-SO 107 10,9 C 22,8 C
19.05.2019 12:43 22,7 C 48 % 1003,2 hPa 0,0 l/m 0,0 km/h (0 Bft) O-SO 107 11,1 C 22,7 C
19.05.2019 12:41 22,5 C 51 % 1003,1 hPa 0,0 l/m 0,0 km/h (0 Bft) O 84 11,8 C 22,5 C
19.05.2019 12:39 22,5 C 50 % 1003,1 hPa 0,0 l/m 0,0 km/h (0 Bft) O-NO 77 11,5 C 22,5 C
19.05.2019 12:38 22,4 C 47 % 1003,1 hPa 0,0 l/m 0,0 km/h (0 Bft) O-NO 76 10,5 C 22,4 C
19.05.2019 12:37 22,5 C 47 % 1003,1 hPa 0,0 l/m 0,0 km/h (0 Bft) O-NO 72 10,6 C 22,5 C
19.05.2019 12:36 22,5 C 46 % 1003,1 hPa 0,0 l/m 0,0 km/h (0 Bft) O-NO 73 10,3 C 22,5 C
19.05.2019 12:35 22,6 C 47 % 1003,1 hPa 0,0 l/m 0,0 km/h (0 Bft) O-NO 72 10,7 C 22,6 C
19.05.2019 12:34 22,6 C 46 % 1003,1 hPa 0,0 l/m 0,0 km/h (0 Bft) O 80 10,4 C 22,6 C
19.05.2019 12:33 22,8 C 49 % 1003,1 hPa 0,0 l/m 0,0 km/h (0 Bft) O-NO 66 11,5 C 22,8 C
19.05.2019 12:31 22,8 C 48 % 1003,2 hPa 0,0 l/m 0,0 km/h (0 Bft) O-NO 71 11,2 C 22,8 C
19.05.2019 12:30 22,8 C 47 % 1003,2 hPa 0,0 l/m 0,0 km/h (0 Bft) O-NO 60 10,9 C 22,8 C
19.05.2019 12:29 22,7 C 47 % 1003,2 hPa 0,0 l/m 0,0 km/h (0 Bft) O-NO 75 10,8 C 22,7 C
19.05.2019 12:28 22,7 C 46 % 1003,1 hPa 0,0 l/m 0,0 km/h (0 Bft) O-NO 76 10,5 C 22,7 C
19.05.2019 12:27 22,7 C 49 % 1003,2 hPa 0,0 l/m 0,0 km/h (0 Bft) O-NO 75 11,4 C 22,7 C
19.05.2019 12:25 22,7 C 48 % 1003,2 hPa 0,0 l/m 0,0 km/h (0 Bft) O-NO 76 11,1 C 22,7 C
19.05.2019 12:23 22,7 C 48 % 1003,3 hPa 0,0 l/m 0,0 km/h (0 Bft) O-NO 61 11,1 C 22,7 C
19.05.2019 12:22 22,8 C 45 % 1003,3 hPa 0,0 l/m 0,0 km/h (0 Bft) O-NO 72 10,2 C 22,8 C
19.05.2019 12:21 22,8 C 46 % 1003,3 hPa 0,0 l/m 0,0 km/h (0 Bft) O-NO 72 10,6 C 22,8 C
19.05.2019 12:20 22,8 C 48 % 1003,3 hPa 0,0 l/m 0,0 km/h (0 Bft) O-NO 69 11,2 C 22,8 C
19.05.2019 12:19 22,8 C 47 % 1003,3 hPa 0,0 l/m 0,0 km/h (0 Bft) O-NO 63 10,9 C 22,8 C
19.05.2019 12:18 22,9 C 49 % 1003,3 hPa 0,0 l/m 0,0 km/h (0 Bft) O-NO 70 11,6 C 22,9 C
19.05.2019 12:17 22,8 C 48 % 1003,3 hPa 0,0 l/m 0,0 km/h (0 Bft) O 96 11,2 C 22,8 C
19.05.2019 12:16 22,8 C 50 % 1003,3 hPa 0,0 l/m 0,0 km/h (0 Bft) O-SO 111 11,8 C 22,8 C
19.05.2019 12:15 22,8 C 48 % 1003,3 hPa 0,0 l/m 0,0 km/h (0 Bft) NO 44 11,2 C 22,8 C
19.05.2019 12:14 22,8 C 48 % 1003,4 hPa 0,0 l/m 0,0 km/h (0 Bft) O 81 11,2 C 22,8 C
19.05.2019 12:13 22,8 C 48 % 1003,4 hPa 0,0 l/m 0,0 km/h (0 Bft) O-SO 119 11,2 C 22,8 C
19.05.2019 12:12 22,7 C 50 % 1003,4 hPa 0,0 l/m 0,0 km/h (0 Bft) O-SO 119 11,7 C 22,7 C
19.05.2019 12:11 22,6 C 50 % 1003,4 hPa 0,0 l/m 0,0 km/h (0 Bft) O-SO 102 11,6 C 22,6 C
19.05.2019 12:10 22,6 C 49 % 1003,4 hPa 0,0 l/m 0,0 km/h (0 Bft) O 98 11,3 C 22,6 C
19.05.2019 12:09 22,6 C 50 % 1003,5 hPa 0,0 l/m 0,0 km/h (0 Bft) NO 56 11,6 C 22,6 C
19.05.2019 12:08 22,6 C 52 % 1003,4 hPa 0,0 l/m 0,0 km/h (0 Bft) O-NO 65 12,2 C 22,6 C
19.05.2019 12:07 22,5 C 49 % 1003,4 hPa 0,0 l/m 0,0 km/h (0 Bft) S-SO 162 11,2 C 22,5 C
19.05.2019 12:06 22,4 C 50 % 1003,4 hPa 0,0 l/m 0,0 km/h (0 Bft) S 183 11,5 C 22,4 C
19.05.2019 12:05 22,4 C 50 % 1003,5 hPa 0,0 l/m 0,0 km/h (0 Bft) S 183 11,5 C 22,4 C
19.05.2019 12:04 22,3 C 50 % 1003,4 hPa 0,0 l/m 0,0 km/h (0 Bft) S 183 11,4 C 22,3 C
19.05.2019 12:03 22,2 C 50 % 1003,4 hPa 0,0 l/m 0,0 km/h (0 Bft) S 183 11,3 C 22,2 C
19.05.2019 12:02 22,1 C 52 % 1003,4 hPa 0,0 l/m 0,0 km/h (0 Bft) S 183 11,8 C 22,1 C
19.05.2019 12:01 22,1 C 51 % 1003,4 hPa 0,0 l/m 0,0 km/h (0 Bft) O 82 11,5 C 22,1 C
19.05.2019 12:00 22,0 C 49 % 1003,4 hPa 0,0 l/m 0,0 km/h (0 Bft) O 82 10,8 C 22,0 C
19.05.2019 11:59 22,0 C 49 % 1003,5 hPa 0,0 l/m 0,0 km/h (0 Bft) O-NO 69 10,8 C 22,0 C
19.05.2019 11:58 22,0 C 50 % 1003,5 hPa 0,0 l/m 0,0 km/h (0 Bft) O-NO 69 11,1 C 22,0 C
19.05.2019 11:57 22,0 C 51 % 1003,5 hPa 0,0 l/m 0,0 km/h (0 Bft) O 92 11,4 C 22,0 C
19.05.2019 11:56 22,0 C 49 % 1003,5 hPa 0,0 l/m 0,0 km/h (0 Bft) O-NO 77 10,8 C 22,0 C
19.05.2019 11:55 22,0 C 49 % 1003,5 hPa 0,0 l/m 0,0 km/h (0 Bft) O-NO 57 10,8 C 22,0 C
19.05.2019 11:54 22,1 C 49 % 1003,5 hPa 0,0 l/m 0,0 km/h (0 Bft) O-NO 64 10,9 C 22,1 C
19.05.2019 11:53 22,2 C 50 % 1003,6 hPa 0,0 l/m 0,0 km/h (0 Bft) O-NO 61 11,3 C 22,2 C
19.05.2019 11:52 22,2 C 52 % 1003,5 hPa 0,0 l/m 0,0 km/h (0 Bft) O 92 11,9 C 22,2 C
19.05.2019 11:51 22,2 C 52 % 1003,6 hPa 0,0 l/m 0,0 km/h (0 Bft) O-NO 65 11,9 C 22,2 C
19.05.2019 11:50 22,1 C 49 % 1003,6 hPa 0,0 l/m 0,0 km/h (0 Bft) O-NO 71 10,9 C 22,1 C
19.05.2019 11:49 22,1 C 49 % 1003,5 hPa 0,0 l/m 0,0 km/h (0 Bft) O-NO 74 10,9 C 22,1 C
19.05.2019 11:48 22,1 C 51 % 1003,6 hPa 0,0 l/m 0,0 km/h (0 Bft) O-NO 73 11,5 C 22,1 C
19.05.2019 11:47 22,0 C 52 % 1003,6 hPa 0,0 l/m 0,0 km/h (0 Bft) O 97 11,7 C 22,0 C
19.05.2019 11:46 22,0 C 52 % 1003,6 hPa 0,0 l/m 0,0 km/h (0 Bft) S-SO 153 11,7 C 22,0 C
19.05.2019 11:45 21,9 C 51 % 1003,6 hPa 0,0 l/m 0,0 km/h (0 Bft) S-SO 153 11,3 C 21,9 C
19.05.2019 11:44 21,8 C 50 % 1003,7 hPa 0,0 l/m 0,0 km/h (0 Bft) S-SO 153 10,9 C 21,8 C
19.05.2019 11:43 21,8 C 50 % 1003,7 hPa 0,0 l/m 0,0 km/h (0 Bft) S-SO 150 10,9 C 21,8 C
19.05.2019 11:42 21,8 C 51 % 1003,7 hPa 0,0 l/m 0,0 km/h (0 Bft) O-NO 61 11,2 C 21,8 C
19.05.2019 11:41 21,8 C 52 % 1003,7 hPa 0,0 l/m 0,0 km/h (0 Bft) O 80 11,5 C 21,8 C
19.05.2019 11:40 21,8 C 52 % 1003,7 hPa 0,0 l/m 0,0 km/h (0 Bft) O-NO 72 11,5 C 21,8 C
19.05.2019 11:39 21,7 C 52 % 1003,7 hPa 0,0 l/m 0,0 km/h (0 Bft) O-NO 67 11,4 C 21,7 C
19.05.2019 11:38 21,7 C 53 % 1003,7 hPa 0,0 l/m 0,0 km/h (0 Bft) O 79 11,7 C 21,7 C
19.05.2019 11:37 21,7 C 53 % 1003,7 hPa 0,0 l/m 0,0 km/h (0 Bft) SO 133 11,7 C 21,7 C
19.05.2019 11:36 21,6 C 54 % 1003,7 hPa 0,0 l/m 0,0 km/h (0 Bft) SO 138 11,9 C 21,6 C
19.05.2019 11:35 21,5 C 54 % 1003,7 hPa 0,0 l/m 0,0 km/h (0 Bft) SO 138 11,8 C 21,5 C
19.05.2019 11:34 21,5 C 53 % 1003,7 hPa 0,0 l/m 0,0 km/h (0 Bft) SO 137 11,5 C 21,5 C
19.05.2019 11:33 21,5 C 53 % 1003,7 hPa 0,0 l/m 0,0 km/h (0 Bft) O-SO 106 11,5 C 21,5 C
19.05.2019 11:32 21,4 C 52 % 1003,7 hPa 0,0 l/m 0,0 km/h (0 Bft) O-SO 105 11,1 C 21,4 C
19.05.2019 11:31 21,4 C 53 % 1003,8 hPa 0,0 l/m 0,0 km/h (0 Bft) O-SO 104 11,4 C 21,4 C
19.05.2019 11:30 21,4 C 55 % 1003,7 hPa 0,0 l/m 0,0 km/h (0 Bft) O 97 12,0 C 21,4 C
19.05.2019 11:29 21,4 C 53 % 1003,7 hPa 0,0 l/m 0,0 km/h (0 Bft) O 90 11,4 C 21,4 C
19.05.2019 11:28 21,4 C 55 % 1003,7 hPa 0,0 l/m 0,0 km/h (0 Bft) O 92 12,0 C 21,4 C
19.05.2019 11:27 21,3 C 55 % 1003,7 hPa 0,0 l/m 0,0 km/h (0 Bft) O-NO 64 11,9 C 21,3 C
19.05.2019 11:26 21,3 C 55 % 1003,8 hPa 0,0 l/m 0,0 km/h (0 Bft) O-NO 64 11,9 C 21,3 C
19.05.2019 11:25 21,2 C 53 % 1003,7 hPa 0,0 l/m 0,0 km/h (0 Bft) O-NO 64 11,2 C 21,2 C
19.05.2019 11:24 21,1 C 52 % 1003,8 hPa 0,0 l/m 0,0 km/h (0 Bft) O-NO 64 10,9 C 21,1 C
19.05.2019 11:23 21,1 C 53 % 1003,7 hPa 0,0 l/m 0,0 km/h (0 Bft) O-NO 64 11,1 C 21,1 C
19.05.2019 11:22 21,0 C 53 % 1003,7 hPa 0,0 l/m 0,0 km/h (0 Bft) O-NO 64 11,0 C 21,0 C
19.05.2019 11:21 21,0 C 52 % 1003,7 hPa 0,0 l/m 0,0 km/h (0 Bft) O-NO 64 10,8 C 21,0 C
19.05.2019 11:20 21,0 C 53 % 1003,7 hPa 0,0 l/m 0,0 km/h (0 Bft) O-NO 64 11,0 C 21,0 C
19.05.2019 11:19 21,0 C 53 % 1003,8 hPa 0,0 l/m 0,0 km/h (0 Bft) O-NO 65 11,0 C 21,0 C
19.05.2019 11:18 21,0 C 54 % 1003,7 hPa 0,0 l/m 0,0 km/h (0 Bft) O-SO 123 11,3 C 21,0 C
19.05.2019 11:17 21,0 C 56 % 1003,8 hPa 0,0 l/m 0,0 km/h (0 Bft) SO 139 11,9 C 21,0 C
19.05.2019 11:16 20,9 C 54 % 1003,7 hPa 0,0 l/m 0,0 km/h (0 Bft) SO 142 11,2 C 20,9 C
19.05.2019 11:15 20,9 C 53 % 1003,8 hPa 0,0 l/m 0,0 km/h (0 Bft) SO 142 11,0 C 20,9 C
19.05.2019 11:14 20,9 C 54 % 1003,8 hPa 0,0 l/m 0,0 km/h (0 Bft) SO 139 11,2 C 20,9 C
19.05.2019 11:13 20,9 C 54 % 1003,8 hPa 0,0 l/m 0,0 km/h (0 Bft) SO 141 11,2 C 20,9 C
19.05.2019 11:12 20,8 C 56 % 1003,8 hPa 0,0 l/m 0,0 km/h (0 Bft) SO 141 11,7 C 20,8 C
19.05.2019 11:11 20,8 C 55 % 1003,8 hPa 0,0 l/m 0,0 km/h (0 Bft) SO 140 11,4 C 20,8 C
19.05.2019 11:10 20,7 C 54 % 1003,8 hPa 0,0 l/m 0,0 km/h (0 Bft) SO 140 11,1 C 20,7 C
19.05.2019 11:09 20,6 C 54 % 1003,7 hPa 0,0 l/m 0,0 km/h (0 Bft) SO 140 11,0 C 20,6 C
19.05.2019 11:08 20,6 C 53 % 1003,7 hPa 0,0 l/m 0,0 km/h (0 Bft) S-SO 153 10,7 C 20,6 C
19.05.2019 11:07 20,6 C 54 % 1003,8 hPa 0,0 l/m 0,0 km/h (0 Bft) O-SO 107 11,0 C 20,6 C
19.05.2019 11:06 20,5 C 54 % 1003,7 hPa 0,0 l/m 0,0 km/h (0 Bft) O-SO 107 10,9 C 20,5 C
19.05.2019 11:05 20,5 C 56 % 1003,7 hPa 0,0 l/m 0,0 km/h (0 Bft) O-SO 107 11,4 C 20,5 C
19.05.2019 11:04 20,5 C 56 % 1003,7 hPa 0,0 l/m 0,0 km/h (0 Bft) O-SO 107 11,4 C 20,5 C
19.05.2019 11:03 20,5 C 56 % 1003,8 hPa 0,0 l/m 0,0 km/h (0 Bft) O-SO 114 11,4 C 20,5 C
19.05.2019 11:02 20,5 C 56 % 1003,8 hPa 0,0 l/m 0,0 km/h (0 Bft) SO 141 11,4 C 20,5 C
19.05.2019 11:01 20,4 C 55 % 1003,8 hPa 0,0 l/m 0,0 km/h (0 Bft) SO 141 11,1 C 20,4 C
19.05.2019 11:00 20,5 C 54 % 1003,7 hPa 0,0 l/m 0,0 km/h (0 Bft) SO 135 10,9 C 20,5 C
19.05.2019 10:59 20,5 C 56 % 1003,8 hPa 0,0 l/m 0,0 km/h (0 Bft) SO 134 11,4 C 20,5 C
19.05.2019 10:58 20,5 C 55 % 1003,8 hPa 0,0 l/m 0,0 km/h (0 Bft) O-SO 122 11,1 C 20,5 C
19.05.2019 10:57 20,5 C 55 % 1003,8 hPa 0,0 l/m 0,0 km/h (0 Bft) O-SO 122 11,1 C 20,5 C
19.05.2019 10:55 20,5 C 54 % 1003,8 hPa 0,0 l/m 0,0 km/h (0 Bft) SO 125 10,9 C 20,5 C
19.05.2019 10:54 20,5 C 55 % 1003,8 hPa 0,0 l/m 0,0 km/h (0 Bft) SO 136 11,1 C 20,5 C
19.05.2019 10:53 20,5 C 54 % 1003,8 hPa 0,0 l/m 0,0 km/h (0 Bft) O-SO 107 10,9 C 20,5 C
19.05.2019 10:52 20,5 C 54 % 1003,8 hPa 0,0 l/m 0,0 km/h (0 Bft) O-SO 105 10,9 C 20,5 C
19.05.2019 10:51 20,5 C 55 % 1003,8 hPa 0,0 l/m 0,0 km/h (0 Bft) O-SO 105 11,1 C 20,5 C
19.05.2019 10:50 20,5 C 55 % 1003,8 hPa 0,0 l/m 0,0 km/h (0 Bft) O-SO 106 11,1 C 20,5 C
19.05.2019 10:49 20,5 C 56 % 1003,9 hPa 0,0 l/m 0,0 km/h (0 Bft) O-SO 105 11,4 C 20,5 C
19.05.2019 10:48 20,4 C 55 % 1003,8 hPa 0,0 l/m 0,0 km/h (0 Bft) O-SO 105 11,1 C 20,4 C
19.05.2019 10:47 20,4 C 54 % 1003,8 hPa 0,0 l/m 0,0 km/h (0 Bft) O-SO 105 10,8 C 20,4 C
19.05.2019 10:46 20,4 C 56 % 1003,8 hPa 0,0 l/m 0,0 km/h (0 Bft) O 101 11,3 C 20,4 C
19.05.2019 10:45 20,3 C 55 % 1003,8 hPa 0,0 l/m 0,0 km/h (0 Bft) O 94 11,0 C 20,3 C
19.05.2019 10:44 20,3 C 57 % 1003,8 hPa 0,0 l/m 0,0 km/h (0 Bft) O-SO 120 11,5 C 20,3 C
19.05.2019 10:43 20,3 C 56 % 1003,8 hPa 0,0 l/m 0,0 km/h (0 Bft) O-SO 120 11,2 C 20,3 C
19.05.2019 10:42 20,2 C 55 % 1003,8 hPa 0,0 l/m 0,0 km/h (0 Bft) O-SO 122 10,9 C 20,2 C
19.05.2019 10:41 20,2 C 55 % 1003,8 hPa 0,0 l/m 0,0 km/h (0 Bft) O-SO 117 10,9 C 20,2 C
19.05.2019 10:40 20,2 C 55 % 1003,8 hPa 0,0 l/m 0,0 km/h (0 Bft) O-SO 109 10,9 C 20,2 C
19.05.2019 10:39 20,2 C 55 % 1003,8 hPa 0,0 l/m 0,0 km/h (0 Bft) O 94 10,9 C 20,2 C
19.05.2019 10:38 20,2 C 55 % 1003,8 hPa 0,0 l/m 0,0 km/h (0 Bft) SO 146 10,9 C 20,2 C
19.05.2019 10:37 20,3 C 56 % 1003,8 hPa 0,0 l/m 0,0 km/h (0 Bft) O 86 11,2 C 20,3 C
19.05.2019 10:36 20,3 C 56 % 1003,8 hPa 0,0 l/m 0,0 km/h (0 Bft) O-SO 107 11,2 C 20,3 C
19.05.2019 10:35 20,2 C 56 % 1003,8 hPa 0,0 l/m 0,0 km/h (0 Bft) O 92 11,1 C 20,2 C
19.05.2019 10:34 20,2 C 56 % 1003,8 hPa 0,0 l/m 0,0 km/h (0 Bft) O 89 11,1 C 20,2 C
19.05.2019 10:33 20,1 C 56 % 1003,9 hPa 0,0 l/m 0,0 km/h (0 Bft) O 89 11,0 C 20,1 C
19.05.2019 10:32 20,1 C 56 % 1003,8 hPa 0,0 l/m 0,0 km/h (0 Bft) SO 130 11,0 C 20,1 C
19.05.2019 10:31 20,0 C 57 % 1003,9 hPa 0,0 l/m 0,0 km/h (0 Bft) NO 53 11,2 C 20,0 C
19.05.2019 10:30 20,0 C 57 % 1003,9 hPa 0,0 l/m 0,0 km/h (0 Bft) NO 51 11,2 C 20,0 C
19.05.2019 10:29 19,9 C 59 % 1003,9 hPa 0,0 l/m 0,0 km/h (0 Bft) O-SO 103 11,6 C 19,9 C
19.05.2019 10:28 19,8 C 58 % 1004,0 hPa 0,0 l/m 0,0 km/h (0 Bft) O-SO 112 11,3 C 19,8 C
19.05.2019 10:27 19,7 C 57 % 1003,9 hPa 0,0 l/m 0,0 km/h (0 Bft) O-SO 106 10,9 C 19,7 C
19.05.2019 10:26 19,6 C 57 % 1003,9 hPa 0,0 l/m 0,0 km/h (0 Bft) O-SO 104 10,8 C 19,6 C
19.05.2019 10:25 19,6 C 57 % 1004,0 hPa 0,0 l/m 0,0 km/h (0 Bft) O 94 10,8 C 19,6 C
19.05.2019 10:24 19,6 C 56 % 1004,0 hPa 0,0 l/m 1,7 km/h (1 Bft) O 98 10,6 C 19,6 C
19.05.2019 10:23 19,5 C 57 % 1004,0 hPa 0,0 l/m 0,0 km/h (0 Bft) NO 53 10,8 C 19,5 C
19.05.2019 10:22 19,5 C 57 % 1004,0 hPa 0,0 l/m 0,0 km/h (0 Bft) O-SO 108 10,8 C 19,5 C
19.05.2019 10:21 19,5 C 57 % 1004,0 hPa 0,0 l/m 0,0 km/h (0 Bft) O-SO 111 10,8 C 19,5 C
19.05.2019 10:20 19,4 C 59 % 1004,0 hPa 0,0 l/m 0,0 km/h (0 Bft) O 99 11,2 C 19,4 C
19.05.2019 10:19 19,4 C 59 % 1004,0 hPa 0,0 l/m 0,0 km/h (0 Bft) NO 51 11,2 C 19,4 C
19.05.2019 10:18 19,4 C 59 % 1004,0 hPa 0,0 l/m 0,0 km/h (0 Bft) NO 56 11,2 C 19,4 C
19.05.2019 10:17 19,3 C 62 % 1004,1 hPa 0,0 l/m 0,0 km/h (0 Bft) NO 48 11,8 C 19,3 C
19.05.2019 10:16 19,3 C 61 % 1004,0 hPa 0,0 l/m 0,0 km/h (0 Bft) NO 49 11,6 C 19,3 C
19.05.2019 10:15 19,1 C 62 % 1004,1 hPa 0,0 l/m 0,0 km/h (0 Bft) NO 45 11,6 C 19,1 C
19.05.2019 10:14 19,1 C 60 % 1004,1 hPa 0,0 l/m 0,0 km/h (0 Bft) O 101 11,1 C 19,1 C
19.05.2019 10:13 19,1 C 60 % 1004,0 hPa 0,0 l/m 0,0 km/h (0 Bft) O-NO 71 11,1 C 19,1 C
19.05.2019 10:12 19,0 C 60 % 1004,0 hPa 0,0 l/m 0,0 km/h (0 Bft) O-NO 61 11,1 C 19,0 C
19.05.2019 10:11 19,0 C 62 % 1004,1 hPa 0,0 l/m 8,0 km/h (2 Bft) O-NO 64 11,6 C 18,3 C
19.05.2019 10:10 19,0 C 62 % 1004,0 hPa 0,0 l/m 0,0 km/h (0 Bft) O-NO 66 11,6 C 19,0 C
19.05.2019 10:09 18,9 C 62 % 1004,0 hPa 0,0 l/m 0,0 km/h (0 Bft) O-NO 67 11,5 C 18,9 C
19.05.2019 10:08 18,8 C 60 % 1004,1 hPa 0,0 l/m 0,0 km/h (0 Bft) O-NO 76 10,9 C 18,8 C
19.05.2019 10:07 18,8 C 60 % 1004,0 hPa 0,0 l/m 0,0 km/h (0 Bft) O 97 10,9 C 18,8 C
19.05.2019 10:06 18,7 C 61 % 1004,1 hPa 0,0 l/m 0,0 km/h (0 Bft) O 84 11,0 C 18,7 C
19.05.2019 10:05 18,6 C 63 % 1004,1 hPa 0,0 l/m 0,0 km/h (0 Bft) O-NO 67 11,4 C 18,6 C
19.05.2019 10:04 18,6 C 63 % 1004,1 hPa 0,0 l/m 0,0 km/h (0 Bft) O-NO 61 11,4 C 18,6 C
19.05.2019 10:03 18,5 C 63 % 1004,1 hPa 0,0 l/m 0,0 km/h (0 Bft) O-NO 71 11,3 C 18,5 C
19.05.2019 10:02 18,5 C 63 % 1004,1 hPa 0,0 l/m 0,0 km/h (0 Bft) O 84 11,3 C 18,5 C
19.05.2019 10:01 18,5 C 63 % 1004,1 hPa 0,0 l/m 0,0 km/h (0 Bft) O-NO 63 11,3 C 18,5 C
19.05.2019 10:00 18,4 C 64 % 1004,1 hPa 0,0 l/m 0,0 km/h (0 Bft) O-NO 63 11,5 C 18,4 C
19.05.2019 09:59 18,4 C 64 % 1004,1 hPa 0,0 l/m 0,0 km/h (0 Bft) O-NO 73 11,5 C 18,4 C
19.05.2019 09:58 18,3 C 65 % 1004,1 hPa 0,0 l/m 0,0 km/h (0 Bft) O-NO 61 11,6 C 18,3 C
19.05.2019 09:57 18,2 C 64 % 1004,1 hPa 0,0 l/m 0,0 km/h (0 Bft) O-NO 69 11,3 C 18,2 C
19.05.2019 09:56 18,1 C 64 % 1004,1 hPa 0,0 l/m 0,0 km/h (0 Bft) O-NO 69 11,2 C 18,1 C
19.05.2019 09:55 18,1 C 64 % 1004,1 hPa 0,0 l/m 0,0 km/h (0 Bft) O-NO 69 11,2 C 18,1 C
19.05.2019 09:54 18,1 C 64 % 1004,1 hPa 0,0 l/m 0,0 km/h (0 Bft) O-NO 67 11,2 C 18,1 C
19.05.2019 09:53 18,0 C 64 % 1004,1 hPa 0,0 l/m 0,0 km/h (0 Bft) O-NO 67 11,1 C 18,0 C
19.05.2019 09:52 18,0 C 63 % 1004,1 hPa 0,0 l/m 0,0 km/h (0 Bft) O-NO 67 10,8 C 18,0 C
19.05.2019 09:51 18,0 C 65 % 1004,1 hPa 0,0 l/m 0,0 km/h (0 Bft) O-NO 67 11,3 C 18,0 C
19.05.2019 09:50 18,0 C 64 % 1004,1 hPa 0,0 l/m 0,0 km/h (0 Bft) O 84 11,1 C 18,0 C
19.05.2019 09:49 17,9 C 64 % 1004,2 hPa 0,0 l/m 0,0 km/h (0 Bft) O 84 11,0 C 17,9 C
19.05.2019 09:48 17,9 C 63 % 1004,2 hPa 0,0 l/m 0,0 km/h (0 Bft) O 84 10,8 C 17,9 C
19.05.2019 09:47 17,9 C 63 % 1004,2 hPa 0,0 l/m 0,0 km/h (0 Bft) O 84 10,8 C 17,9 C
19.05.2019 09:46 17,9 C 64 % 1004,2 hPa 0,0 l/m 0,0 km/h (0 Bft) O 89 11,0 C 17,9 C
19.05.2019 09:45 17,9 C 64 % 1004,2 hPa 0,0 l/m 0,0 km/h (0 Bft) O-NO 75 11,0 C 17,9 C
19.05.2019 09:44 17,8 C 64 % 1004,2 hPa 0,0 l/m 0,0 km/h (0 Bft) O-NO 75 10,9 C 17,8 C
19.05.2019 09:43 17,8 C 64 % 1004,2 hPa 0,0 l/m 0,0 km/h (0 Bft) O-NO 74 10,9 C 17,8 C
19.05.2019 09:42 17,7 C 64 % 1004,2 hPa 0,0 l/m 0,0 km/h (0 Bft) O-NO 67 10,8 C 17,7 C
19.05.2019 09:41 17,7 C 64 % 1004,2 hPa 0,0 l/m 0,0 km/h (0 Bft) O-NO 67 10,8 C 17,7 C
19.05.2019 09:40 17,7 C 64 % 1004,2 hPa 0,0 l/m 0,0 km/h (0 Bft) O-NO 67 10,8 C 17,7 C
19.05.2019 09:39 17,7 C 64 % 1004,3 hPa 0,0 l/m 0,0 km/h (0 Bft) O-NO 67 10,8 C 17,7 C
19.05.2019 09:38 17,7 C 63 % 1004,2 hPa 0,0 l/m 0,0 km/h (0 Bft) O-NO 67 10,6 C 17,7 C
19.05.2019 09:37 17,7 C 63 % 1004,2 hPa 0,0 l/m 0,0 km/h (0 Bft) O-NO 67 10,6 C 17,7 C
19.05.2019 09:36 17,7 C 63 % 1004,2 hPa 0,0 l/m 0,0 km/h (0 Bft) O-NO 78 10,6 C 17,7 C
19.05.2019 09:35 17,6 C 64 % 1004,2 hPa 0,0 l/m 0,0 km/h (0 Bft) O-NO 78 10,7 C 17,6 C
19.05.2019 09:34 17,6 C 63 % 1004,2 hPa 0,0 l/m 0,0 km/h (0 Bft) O-NO 78 10,5 C 17,6 C
19.05.2019 09:33 17,6 C 62 % 1004,3 hPa 0,0 l/m 0,0 km/h (0 Bft) O-NO 78 10,2 C 17,6 C
19.05.2019 09:32 17,6 C 62 % 1004,2 hPa 0,0 l/m 0,0 km/h (0 Bft) O-NO 78 10,2 C 17,6 C
19.05.2019 09:31 17,6 C 62 % 1004,2 hPa 0,0 l/m 0,0 km/h (0 Bft) O-NO 78 10,2 C 17,6 C
19.05.2019 09:30 17,5 C 62 % 1004,2 hPa 0,0 l/m 0,0 km/h (0 Bft) O-NO 78 10,1 C 17,5 C
19.05.2019 09:29 17,5 C 63 % 1004,3 hPa 0,0 l/m 0,0 km/h (0 Bft) O-NO 78 10,4 C 17,5 C
19.05.2019 09:28 17,5 C 65 % 1004,3 hPa 0,0 l/m 0,0 km/h (0 Bft) O-NO 78 10,8 C 17,5 C
19.05.2019 09:27 17,4 C 65 % 1004,3 hPa 0,0 l/m 0,0 km/h (0 Bft) O 80 10,8 C 17,4 C
19.05.2019 09:26 17,4 C 64 % 1004,3 hPa 0,0 l/m 0,0 km/h (0 Bft) O 80 10,5 C 17,4 C
19.05.2019 09:25 17,3 C 67 % 1004,3 hPa 0,0 l/m 0,0 km/h (0 Bft) O 80 11,1 C 17,3 C
19.05.2019 09:24 17,2 C 65 % 1004,3 hPa 0,0 l/m 0,0 km/h (0 Bft) O 80 10,6 C 17,2 C
19.05.2019 09:23 17,1 C 64 % 1004,3 hPa 0,0 l/m 0,0 km/h (0 Bft) O 80 10,2 C 17,1 C
19.05.2019 09:22 17,0 C 64 % 1004,3 hPa 0,0 l/m 0,0 km/h (0 Bft) O 80 10,1 C 17,0 C
19.05.2019 09:21 17,0 C 64 % 1004,3 hPa 0,0 l/m 0,0 km/h (0 Bft) O 80 10,1 C 17,0 C
19.05.2019 09:20 17,0 C 65 % 1004,3 hPa 0,0 l/m 0,0 km/h (0 Bft) O 80 10,4 C 17,0 C
19.05.2019 09:19 16,9 C 64 % 1004,4 hPa 0,0 l/m 0,0 km/h (0 Bft) O 80 10,0 C 16,9 C
19.05.2019 09:18 16,9 C 64 % 1004,4 hPa 0,0 l/m 0,0 km/h (0 Bft) O 80 10,0 C 16,9 C
19.05.2019 09:17 16,9 C 64 % 1004,3 hPa 0,0 l/m 0,0 km/h (0 Bft) O 80 10,0 C 16,9 C
19.05.2019 09:16 16,9 C 64 % 1004,4 hPa 0,0 l/m 0,0 km/h (0 Bft) O 80 10,0 C 16,9 C
19.05.2019 09:15 16,9 C 64 % 1004,4 hPa 0,0 l/m 0,0 km/h (0 Bft) O 80 10,0 C 16,9 C
19.05.2019 09:14 16,9 C 64 % 1004,4 hPa 0,0 l/m 0,0 km/h (0 Bft) O 81 10,0 C 16,9 C
19.05.2019 09:13 16,9 C 65 % 1004,4 hPa 0,0 l/m 0,0 km/h (0 Bft) O 81 10,3 C 16,9 C
19.05.2019 09:12 16,8 C 66 % 1004,4 hPa 0,0 l/m 0,0 km/h (0 Bft) O 81 10,4 C 16,8 C
19.05.2019 09:11 16,8 C 67 % 1004,4 hPa 0,0 l/m 0,0 km/h (0 Bft) O 81 10,6 C 16,8 C
19.05.2019 09:10 16,8 C 68 % 1004,4 hPa 0,0 l/m 0,0 km/h (0 Bft) O 81 10,9 C 16,8 C
19.05.2019 09:09 16,7 C 67 % 1004,4 hPa 0,0 l/m 0,0 km/h (0 Bft) O 81 10,5 C 16,7 C
19.05.2019 09:08 16,6 C 66 % 1004,4 hPa 0,0 l/m 0,0 km/h (0 Bft) O 81 10,2 C 16,6 C
19.05.2019 09:07 16,6 C 66 % 1004,5 hPa 0,0 l/m 0,0 km/h (0 Bft) O 81 10,2 C 16,6 C
19.05.2019 09:06 16,6 C 67 % 1004,5 hPa 0,0 l/m 0,0 km/h (0 Bft) O 81 10,4 C 16,6 C
19.05.2019 09:05 16,5 C 68 % 1004,4 hPa 0,0 l/m 0,0 km/h (0 Bft) O 81 10,6 C 16,5 C
19.05.2019 09:03 16,4 C 67 % 1004,4 hPa 0,0 l/m 0,0 km/h (0 Bft) O 81 10,3 C 16,4 C
19.05.2019 09:01 16,3 C 66 % 1004,5 hPa 0,0 l/m 0,0 km/h (0 Bft) O 81 9,9 C 16,3 C
19.05.2019 09:00 16,3 C 67 % 1004,5 hPa 0,0 l/m 0,0 km/h (0 Bft) O 81 10,2 C 16,3 C
19.05.2019 08:59 16,2 C 68 % 1004,5 hPa 0,0 l/m 0,0 km/h (0 Bft) O 81 10,3 C 16,2 C
19.05.2019 08:58 16,1 C 67 % 1004,5 hPa 0,0 l/m 0,0 km/h (0 Bft) O 81 10,0 C 16,1 C
19.05.2019 08:57 16,0 C 67 % 1004,5 hPa 0,0 l/m 0,0 km/h (0 Bft) O 81 9,9 C 16,0 C
19.05.2019 08:56 16,0 C 68 % 1004,5 hPa 0,0 l/m 0,0 km/h (0 Bft) O 81 10,1 C 16,0 C
19.05.2019 08:55 16,0 C 68 % 1004,5 hPa 0,0 l/m 0,0 km/h (0 Bft) O 81 10,1 C 16,0 C
19.05.2019 08:54 15,9 C 68 % 1004,5 hPa 0,0 l/m 0,0 km/h (0 Bft) O 81 10,0 C 15,9 C
19.05.2019 08:53 15,9 C 69 % 1004,5 hPa 0,0 l/m 0,0 km/h (0 Bft) O 81 10,2 C 15,9 C
19.05.2019 08:52 15,8 C 69 % 1004,6 hPa 0,0 l/m 0,0 km/h (0 Bft) O 79 10,1 C 15,8 C
19.05.2019 08:51 15,8 C 69 % 1004,6 hPa 0,0 l/m 0,0 km/h (0 Bft) NO 36 10,1 C 15,8 C
19.05.2019 08:50 15,7 C 69 % 1004,6 hPa 0,0 l/m 0,0 km/h (0 Bft) NO 36 10,0 C 15,7 C
19.05.2019 08:49 15,6 C 69 % 1004,5 hPa 0,0 l/m 0,0 km/h (0 Bft) NO 36 9,9 C 15,6 C
19.05.2019 08:48 15,6 C 69 % 1004,5 hPa 0,0 l/m 0,0 km/h (0 Bft) NO 36 9,9 C 15,6 C
19.05.2019 08:46 15,5 C 69 % 1004,6 hPa 0,0 l/m 0,0 km/h (0 Bft) NO 36 9,8 C 15,5 C
19.05.2019 08:45 15,5 C 69 % 1004,6 hPa 0,0 l/m 0,0 km/h (0 Bft) NO 36 9,8 C 15,5 C
19.05.2019 08:44 15,5 C 69 % 1004,6 hPa 0,0 l/m 0,0 km/h (0 Bft) NO 36 9,8 C 15,5 C
19.05.2019 08:43 15,4 C 69 % 1004,6 hPa 0,0 l/m 0,0 km/h (0 Bft) NO 36 9,7 C 15,4 C
19.05.2019 08:42 15,4 C 69 % 1004,6 hPa 0,0 l/m 0,0 km/h (0 Bft) NO 36 9,7 C 15,4 C
19.05.2019 08:41 15,4 C 69 % 1004,6 hPa 0,0 l/m 0,0 km/h (0 Bft) NO 36 9,7 C 15,4 C
19.05.2019 08:40 15,3 C 69 % 1004,6 hPa 0,0 l/m 0,0 km/h (0 Bft) NO 36 9,6 C 15,3 C
19.05.2019 08:39 15,3 C 69 % 1004,6 hPa 0,0 l/m 0,0 km/h (0 Bft) NO 36 9,6 C 15,3 C
19.05.2019 08:38 15,2 C 69 % 1004,6 hPa 0,0 l/m 0,0 km/h (0 Bft) NO 36 9,6 C 15,2 C
19.05.2019 08:37 15,2 C 70 % 1004,6 hPa 0,0 l/m 0,0 km/h (0 Bft) NO 36 9,8 C 15,2 C
19.05.2019 08:36 15,1 C 70 % 1004,7 hPa 0,0 l/m 0,0 km/h (0 Bft) NO 36 9,7 C 15,1 C
19.05.2019 08:35 15,0 C 70 % 1004,6 hPa 0,0 l/m 0,0 km/h (0 Bft) NO 36 9,6 C 15,0 C
19.05.2019 08:34 15,0 C 70 % 1004,6 hPa 0,0 l/m 0,0 km/h (0 Bft) NO 36 9,6 C 15,0 C
19.05.2019 08:33 15,0 C 70 % 1004,7 hPa 0,0 l/m 0,0 km/h (0 Bft) NO 36 9,6 C 15,0 C
19.05.2019 08:32 14,9 C 71 % 1004,6 hPa 0,0 l/m 0,0 km/h (0 Bft) NO 36 9,7 C 14,9 C
19.05.2019 08:31 14,9 C 70 % 1004,6 hPa 0,0 l/m 0,0 km/h (0 Bft) NO 36 9,5 C 14,9 C
19.05.2019 08:30 14,9 C 70 % 1004,6 hPa 0,0 l/m 0,0 km/h (0 Bft) NO 36 9,5 C 14,9 C
19.05.2019 08:29 14,8 C 70 % 1004,7 hPa 0,0 l/m 0,0 km/h (0 Bft) NO 36 9,4 C 14,8 C
19.05.2019 08:28 14,8 C 71 % 1004,7 hPa 0,0 l/m 0,0 km/h (0 Bft) NO 36 9,6 C 14,8 C
19.05.2019 08:27 14,8 C 71 % 1004,6 hPa 0,0 l/m 0,0 km/h (0 Bft) NO 36 9,6 C 14,8 C
19.05.2019 08:25 14,7 C 71 % 1004,7 hPa 0,0 l/m 0,0 km/h (0 Bft) N-NO 33 9,5 C 14,7 C
19.05.2019 08:24 14,7 C 72 % 1004,7 hPa 0,0 l/m 0,0 km/h (0 Bft) N-NO 33 9,7 C 14,7 C
19.05.2019 08:23 14,6 C 72 % 1004,6 hPa 0,0 l/m 0,0 km/h (0 Bft) N-NO 33 9,6 C 14,6 C
19.05.2019 08:22 14,6 C 73 % 1004,6 hPa 0,0 l/m 0,0 km/h (0 Bft) N-NO 33 9,8 C 14,6 C
19.05.2019 08:21 14,5 C 73 % 1004,7 hPa 0,0 l/m 0,0 km/h (0 Bft) N-NO 33 9,7 C 14,5 C
19.05.2019 08:20 14,5 C 73 % 1004,7 hPa 0,0 l/m 0,0 km/h (0 Bft) N-NO 33 9,7 C 14,5 C
19.05.2019 08:19 14,5 C 74 % 1004,7 hPa 0,0 l/m 0,0 km/h (0 Bft) N-NO 33 9,9 C 14,5 C
19.05.2019 08:18 14,4 C 75 % 1004,6 hPa 0,0 l/m 0,0 km/h (0 Bft) N-NO 33 10,0 C 14,4 C
19.05.2019 08:17 14,4 C 74 % 1004,6 hPa 0,0 l/m 0,0 km/h (0 Bft) N-NO 32 9,8 C 14,4 C
19.05.2019 08:16 14,3 C 75 % 1004,6 hPa 0,0 l/m 0,0 km/h (0 Bft) N-NO 32 9,9 C 14,3 C
19.05.2019 08:14 14,1 C 73 % 1004,6 hPa 0,0 l/m 0,0 km/h (0 Bft) N-NO 33 9,3 C 14,1 C
19.05.2019 08:13 14,1 C 73 % 1004,6 hPa 0,0 l/m 0,0 km/h (0 Bft) N-NO 33 9,3 C 14,1 C
19.05.2019 08:12 14,0 C 73 % 1004,6 hPa 0,0 l/m 0,0 km/h (0 Bft) N-NO 33 9,2 C 14,0 C
19.05.2019 08:11 14,0 C 73 % 1004,6 hPa 0,0 l/m 0,0 km/h (0 Bft) N-NO 33 9,2 C 14,0 C
19.05.2019 08:10 14,0 C 73 % 1004,6 hPa 0,0 l/m 0,0 km/h (0 Bft) N-NO 33 9,2 C 14,0 C
19.05.2019 08:09 13,9 C 74 % 1004,6 hPa 0,0 l/m 0,0 km/h (0 Bft) N-NO 33 9,3 C 13,9 C
19.05.2019 08:08 13,9 C 74 % 1004,6 hPa 0,0 l/m 0,0 km/h (0 Bft) N-NO 31 9,3 C 13,9 C
19.05.2019 08:07 13,9 C 74 % 1004,6 hPa 0,0 l/m 0,0 km/h (0 Bft) N-NO 31 9,3 C 13,9 C
19.05.2019 08:06 13,9 C 73 % 1004,6 hPa 0,0 l/m 0,0 km/h (0 Bft) N-NO 31 9,1 C 13,9 C
19.05.2019 08:05 13,8 C 74 % 1004,6 hPa 0,0 l/m 0,0 km/h (0 Bft) N-NO 31 9,2 C 13,8 C
19.05.2019 08:04 13,8 C 74 % 1004,6 hPa 0,0 l/m 0,0 km/h (0 Bft) N-NO 31 9,2 C 13,8 C
19.05.2019 08:03 13,8 C 74 % 1004,6 hPa 0,0 l/m 0,0 km/h (0 Bft) N-NO 31 9,2 C 13,8 C
19.05.2019 08:02 13,8 C 75 % 1004,6 hPa 0,0 l/m 0,0 km/h (0 Bft) N-NO 31 9,4 C 13,8 C
19.05.2019 08:01 13,8 C 77 % 1004,6 hPa 0,0 l/m 0,0 km/h (0 Bft) N-NO 31 9,8 C 13,8 C
19.05.2019 08:00 13,7 C 77 % 1004,6 hPa 0,0 l/m 0,0 km/h (0 Bft) N-NO 31 9,7 C 13,7 C
19.05.2019 07:59 13,6 C 78 % 1004,6 hPa 0,0 l/m 0,0 km/h (0 Bft) N-NO 29 9,8 C 13,6 C
19.05.2019 07:58 13,5 C 79 % 1004,6 hPa 0,0 l/m 0,0 km/h (0 Bft) N-NO 29 9,9 C 13,5 C
19.05.2019 07:57 13,4 C 79 % 1004,6 hPa 0,0 l/m 0,0 km/h (0 Bft) N-NO 29 9,8 C 13,4 C
19.05.2019 07:56 13,4 C 80 % 1004,7 hPa 0,0 l/m 0,0 km/h (0 Bft) N-NO 29 10,0 C 13,4 C
19.05.2019 07:55 13,3 C 80 % 1004,7 hPa 0,0 l/m 0,0 km/h (0 Bft) N-NO 29 9,9 C 13,3 C
19.05.2019 07:54 13,2 C 79 % 1004,6 hPa 0,0 l/m 0,0 km/h (0 Bft) N-NO 29 9,6 C 13,2 C
19.05.2019 07:53 13,1 C 80 % 1004,6 hPa 0,0 l/m 0,0 km/h (0 Bft) N-NO 29 9,7 C 13,1 C
19.05.2019 07:52 13,0 C 79 % 1004,6 hPa 0,0 l/m 0,0 km/h (0 Bft) N-NO 29 9,4 C 13,0 C
19.05.2019 07:51 13,0 C 80 % 1004,6 hPa 0,0 l/m 0,0 km/h (0 Bft) N-NO 29 9,6 C 13,0 C
19.05.2019 07:50 12,9 C 80 % 1004,5 hPa 0,0 l/m 0,0 km/h (0 Bft) N-NO 29 9,5 C 12,9 C
19.05.2019 07:49 12,8 C 81 % 1004,6 hPa 0,0 l/m 0,0 km/h (0 Bft) N-NO 29 9,6 C 12,8 C
19.05.2019 07:48 12,6 C 81 % 1004,6 hPa 0,0 l/m 0,0 km/h (0 Bft) N-NO 29 9,4 C 12,6 C
19.05.2019 07:47 12,5 C 80 % 1004,6 hPa 0,0 l/m 0,0 km/h (0 Bft) N-NO 29 9,1 C 12,5 C
19.05.2019 07:46 12,5 C 80 % 1004,6 hPa 0,0 l/m 0,0 km/h (0 Bft) N-NO 29 9,1 C 12,5 C
19.05.2019 07:45 12,4 C 81 % 1004,6 hPa 0,0 l/m 0,0 km/h (0 Bft) N-NO 29 9,2 C 12,4 C
19.05.2019 07:44 12,4 C 81 % 1004,7 hPa 0,0 l/m 0,0 km/h (0 Bft) N-NO 29 9,2 C 12,4 C
19.05.2019 07:43 12,3 C 82 % 1004,6 hPa 0,0 l/m 0,0 km/h (0 Bft) N-NO 29 9,3 C 12,3 C
19.05.2019 07:42 12,2 C 81 % 1004,7 hPa 0,0 l/m 0,0 km/h (0 Bft) N-NO 29 9,0 C 12,2 C
19.05.2019 07:40 12,0 C 81 % 1004,6 hPa 0,0 l/m 0,0 km/h (0 Bft) N-NO 29 8,8 C 12,0 C
19.05.2019 07:39 12,0 C 82 % 1004,6 hPa 0,0 l/m 0,0 km/h (0 Bft) N-NO 29 9,0 C 12,0 C
19.05.2019 07:38 11,9 C 82 % 1004,6 hPa 0,0 l/m 0,0 km/h (0 Bft) N-NO 29 8,9 C 11,9 C
19.05.2019 07:37 11,9 C 82 % 1004,6 hPa 0,0 l/m 0,0 km/h (0 Bft) N-NO 29 8,9 C 11,9 C
19.05.2019 07:36 11,8 C 82 % 1004,6 hPa 0,0 l/m 0,0 km/h (0 Bft) N-NO 29 8,8 C 11,8 C
19.05.2019 07:35 11,7 C 83 % 1004,6 hPa 0,0 l/m 0,0 km/h (0 Bft) N-NO 29 8,9 C 11,7 C
19.05.2019 07:34 11,6 C 83 % 1004,6 hPa 0,0 l/m 0,0 km/h (0 Bft) N-NO 29 8,8 C 11,6 C
19.05.2019 07:33 11,5 C 83 % 1004,6 hPa 0,0 l/m 0,0 km/h (0 Bft) N-NO 29 8,7 C 11,5 C
19.05.2019 07:32 11,5 C 83 % 1004,6 hPa 0,0 l/m 0,0 km/h (0 Bft) N-NO 29 8,7 C 11,5 C
19.05.2019 07:31 11,4 C 83 % 1004,6 hPa 0,0 l/m 0,0 km/h (0 Bft) N-NO 29 8,6 C 11,4 C
19.05.2019 07:30 11,4 C 83 % 1004,6 hPa 0,0 l/m 0,0 km/h (0 Bft) N-NO 29 8,6 C 11,4 C
19.05.2019 07:29 11,3 C 84 % 1004,7 hPa 0,0 l/m 0,0 km/h (0 Bft) N-NO 29 8,7 C 11,3 C
19.05.2019 07:28 11,3 C 85 % 1004,7 hPa 0,0 l/m 0,0 km/h (0 Bft) N-NO 29 8,9 C 11,3 C
19.05.2019 07:27 11,2 C 85 % 1004,6 hPa 0,0 l/m 0,0 km/h (0 Bft) N-NO 29 8,8 C 11,2 C
19.05.2019 07:26 11,1 C 85 % 1004,6 hPa 0,0 l/m 0,0 km/h (0 Bft) N-NO 29 8,7 C 11,1 C
19.05.2019 07:25 11,0 C 85 % 1004,6 hPa 0,0 l/m 0,0 km/h (0 Bft) N-NO 29 8,6 C 11,0 C
19.05.2019 07:24 11,0 C 86 % 1004,7 hPa 0,0 l/m 0,0 km/h (0 Bft) N-NO 29 8,7 C 11,0 C
19.05.2019 07:23 10,9 C 86 % 1004,7 hPa 0,0 l/m 0,0 km/h (0 Bft) N-NO 29 8,7 C 10,9 C
19.05.2019 07:22 10,9 C 86 % 1004,7 hPa 0,0 l/m 0,0 km/h (0 Bft) N-NO 29 8,7 C 10,9 C
19.05.2019 07:21 10,8 C 86 % 1004,7 hPa 0,0 l/m 0,0 km/h (0 Bft) N-NO 29 8,6 C 10,8 C
19.05.2019 07:20 10,7 C 87 % 1004,7 hPa 0,0 l/m 0,0 km/h (0 Bft) N-NO 29 8,6 C 10,7 C
19.05.2019 07:19 10,6 C 87 % 1004,7 hPa 0,0 l/m 0,0 km/h (0 Bft) N-NO 29 8,5 C 10,6 C
19.05.2019 07:18 10,6 C 87 % 1004,7 hPa 0,0 l/m 0,0 km/h (0 Bft) N-NO 29 8,5 C 10,6 C
19.05.2019 07:17 10,5 C 88 % 1004,7 hPa 0,0 l/m 0,0 km/h (0 Bft) N-NO 29 8,6 C 10,5 C
19.05.2019 07:16 10,5 C 88 % 1004,7 hPa 0,0 l/m 0,0 km/h (0 Bft) N-NO 29 8,6 C 10,5 C
19.05.2019 07:15 10,4 C 88 % 1004,7 hPa 0,0 l/m 0,0 km/h (0 Bft) N-NO 29 8,5 C 10,4 C
19.05.2019 07:14 10,3 C 88 % 1004,6 hPa 0,0 l/m 0,0 km/h (0 Bft) N-NO 29 8,4 C 10,3 C
19.05.2019 07:13 10,3 C 88 % 1004,7 hPa 0,0 l/m 0,0 km/h (0 Bft) N-NO 29 8,4 C 10,3 C
19.05.2019 07:12 10,2 C 88 % 1004,7 hPa 0,0 l/m 0,0 km/h (0 Bft) N-NO 29 8,3 C 10,2 C
19.05.2019 07:11 10,1 C 89 % 1004,6 hPa 0,0 l/m 0,0 km/h (0 Bft) N-NO 29 8,4 C 10,1 C
19.05.2019 07:09 10,0 C 89 % 1004,6 hPa 0,0 l/m 0,0 km/h (0 Bft) N-NO 29 8,3 C 10,0 C
19.05.2019 07:08 10,0 C 89 % 1004,6 hPa 0,0 l/m 0,0 km/h (0 Bft) N-NO 29 8,3 C 10,0 C
19.05.2019 07:07 9,9 C 89 % 1004,6 hPa 0,0 l/m 0,0 km/h (0 Bft) N-NO 29 8,2 C 9,9 C
19.05.2019 07:06 9,9 C 89 % 1004,6 hPa 0,0 l/m 0,0 km/h (0 Bft) N-NO 29 8,2 C 9,9 C
19.05.2019 07:05 9,8 C 90 % 1004,6 hPa 0,0 l/m 0,0 km/h (0 Bft) N-NO 29 8,2 C 9,8 C
19.05.2019 07:03 9,7 C 90 % 1004,6 hPa 0,0 l/m 0,0 km/h (0 Bft) N-NO 29 8,1 C 9,7 C
19.05.2019 07:02 9,6 C 90 % 1004,6 hPa 0,0 l/m 0,0 km/h (0 Bft) N-NO 29 8,0 C 9,6 C
19.05.2019 07:01 9,6 C 90 % 1004,6 hPa 0,0 l/m 0,0 km/h (0 Bft) N-NO 29 8,0 C 9,6 C
19.05.2019 06:59 9,5 C 89 % 1004,6 hPa 0,0 l/m 0,0 km/h (0 Bft) N-NO 29 7,8 C 9,5 C
19.05.2019 06:58 9,4 C 89 % 1004,6 hPa 0,0 l/m 0,0 km/h (0 Bft) N-NO 29 7,7 C 9,4 C
19.05.2019 06:57 9,4 C 89 % 1004,6 hPa 0,0 l/m 0,0 km/h (0 Bft) N-NO 29 7,7 C 9,4 C
19.05.2019 06:56 9,3 C 89 % 1004,6 hPa 0,0 l/m 0,0 km/h (0 Bft) N-NO 29 7,6 C 9,3 C
19.05.2019 06:55 9,2 C 89 % 1004,6 hPa 0,0 l/m 0,0 km/h (0 Bft) N-NO 29 7,5 C 9,2 C
19.05.2019 06:54 9,2 C 89 % 1004,6 hPa 0,0 l/m 0,0 km/h (0 Bft) N-NO 29 7,5 C 9,2 C
19.05.2019 06:53 9,1 C 89 % 1004,6 hPa 0,0 l/m 0,0 km/h (0 Bft) N-NO 29 7,4 C 9,1 C
19.05.2019 06:52 9,1 C 88 % 1004,5 hPa 0,0 l/m 0,0 km/h (0 Bft) N-NO 29 7,2 C 9,1 C
19.05.2019 06:51 9,1 C 88 % 1004,6 hPa 0,0 l/m 0,0 km/h (0 Bft) N-NO 29 7,2 C 9,1 C
19.05.2019 06:50 9,0 C 88 % 1004,6 hPa 0,0 l/m 0,0 km/h (0 Bft) N-NO 29 7,1 C 9,0 C
19.05.2019 06:49 9,0 C 88 % 1004,6 hPa 0,0 l/m 0,0 km/h (0 Bft) N-NO 29 7,1 C 9,0 C
19.05.2019 06:48 9,0 C 88 % 1004,6 hPa 0,0 l/m 0,0 km/h (0 Bft) N-NO 29 7,1 C 9,0 C
19.05.2019 06:47 8,9 C 88 % 1004,6 hPa 0,0 l/m 0,0 km/h (0 Bft) N-NO 29 7,0 C 8,9 C
19.05.2019 06:46 8,9 C 89 % 1004,6 hPa 0,0 l/m 0,0 km/h (0 Bft) N-NO 29 7,2 C 8,9 C
19.05.2019 06:45 8,9 C 88 % 1004,6 hPa 0,0 l/m 0,0 km/h (0 Bft) N-NO 29 7,0 C 8,9 C
19.05.2019 06:44 8,8 C 88 % 1004,6 hPa 0,0 l/m 0,0 km/h (0 Bft) N-NO 29 6,9 C 8,8 C
19.05.2019 06:43 8,8 C 88 % 1004,6 hPa 0,0 l/m 0,0 km/h (0 Bft) N-NO 29 6,9 C 8,8 C
19.05.2019 06:42 8,8 C 88 % 1004,6 hPa 0,0 l/m 0,0 km/h (0 Bft) N-NO 29 6,9 C 8,8 C
19.05.2019 06:41 8,8 C 87 % 1004,6 hPa 0,0 l/m 0,0 km/h (0 Bft) N-NO 29 6,8 C 8,8 C
19.05.2019 06:39 8,8 C 87 % 1004,6 hPa 0,0 l/m 0,0 km/h (0 Bft) N-NO 29 6,8 C 8,8 C
19.05.2019 06:38 8,8 C 87 % 1004,6 hPa 0,0 l/m 0,0 km/h (0 Bft) N-NO 29 6,8 C 8,8 C
19.05.2019 06:37 8,8 C 87 % 1004,6 hPa 0,0 l/m 0,0 km/h (0 Bft) N-NO 29 6,8 C 8,8 C
19.05.2019 06:36 8,8 C 87 % 1004,5 hPa 0,0 l/m 0,0 km/h (0 Bft) N-NO 29 6,8 C 8,8 C
19.05.2019 06:35 8,8 C 87 % 1004,6 hPa 0,0 l/m 0,0 km/h (0 Bft) N-NO 29 6,8 C 8,8 C
19.05.2019 06:34 8,8 C 87 % 1004,6 hPa 0,0 l/m 0,0 km/h (0 Bft) N-NO 29 6,8 C 8,8 C
19.05.2019 06:33 8,8 C 87 % 1004,6 hPa 0,0 l/m 0,0 km/h (0 Bft) N-NO 29 6,8 C 8,8 C
19.05.2019 06:32 8,8 C 87 % 1004,6 hPa 0,0 l/m 0,0 km/h (0 Bft) N-NO 29 6,8 C 8,8 C
19.05.2019 06:31 8,8 C 87 % 1004,6 hPa 0,0 l/m 0,0 km/h (0 Bft) N-NO 29 6,8 C 8,8 C
19.05.2019 06:30 8,8 C 87 % 1004,6 hPa 0,0 l/m 0,0 km/h (0 Bft) N-NO 29 6,8 C 8,8 C
19.05.2019 06:29 8,8 C 87 % 1004,6 hPa 0,0 l/m 0,0 km/h (0 Bft) N-NO 29 6,8 C 8,8 C
19.05.2019 06:28 8,8 C 87 % 1004,6 hPa 0,0 l/m 0,0 km/h (0 Bft) N-NO 29 6,8 C 8,8 C
19.05.2019 06:27 8,8 C 87 % 1004,6 hPa 0,0 l/m 0,0 km/h (0 Bft) N-NO 29 6,8 C 8,8 C
19.05.2019 06:26 8,8 C 87 % 1004,6 hPa 0,0 l/m 0,0 km/h (0 Bft) N-NO 29 6,8 C 8,8 C
19.05.2019 06:25 8,8 C 87 % 1004,6 hPa 0,0 l/m 0,0 km/h (0 Bft) N-NO 29 6,8 C 8,8 C
19.05.2019 06:24 8,8 C 87 % 1004,5 hPa 0,0 l/m 0,0 km/h (0 Bft) N-NO 29 6,8 C 8,8 C
19.05.2019 06:23 8,8 C 86 % 1004,5 hPa 0,0 l/m 0,0 km/h (0 Bft) N-NO 29 6,6 C 8,8 C
19.05.2019 06:22 8,8 C 86 % 1004,5 hPa 0,0 l/m 0,0 km/h (0 Bft) N-NO 29 6,6 C 8,8 C
19.05.2019 06:21 8,9 C 86 % 1004,5 hPa 0,0 l/m 0,0 km/h (0 Bft) N-NO 29 6,7 C 8,9 C
19.05.2019 06:20 8,9 C 86 % 1004,4 hPa 0,0 l/m 0,0 km/h (0 Bft) N-NO 29 6,7 C 8,9 C
19.05.2019 06:19 8,9 C 86 % 1004,4 hPa 0,0 l/m 0,0 km/h (0 Bft) N-NO 29 6,7 C 8,9 C
19.05.2019 06:18 8,9 C 86 % 1004,4 hPa 0,0 l/m 0,0 km/h (0 Bft) N-NO 29 6,7 C 8,9 C
19.05.2019 06:17 8,9 C 86 % 1004,4 hPa 0,0 l/m 0,0 km/h (0 Bft) N-NO 29 6,7 C 8,9 C
19.05.2019 06:16 8,9 C 86 % 1004,4 hPa 0,0 l/m 0,0 km/h (0 Bft) N-NO 29 6,7 C 8,9 C
19.05.2019 06:15 8,9 C 86 % 1004,4 hPa 0,0 l/m 0,0 km/h (0 Bft) N-NO 29 6,7 C 8,9 C
19.05.2019 06:14 8,9 C 86 % 1004,4 hPa 0,0 l/m 0,0 km/h (0 Bft) N-NO 29 6,7 C 8,9 C
19.05.2019 06:13 8,9 C 86 % 1004,5 hPa 0,0 l/m 0,0 km/h (0 Bft) N-NO 29 6,7 C 8,9 C
19.05.2019 06:12 8,9 C 86 % 1004,4 hPa 0,0 l/m 0,0 km/h (0 Bft) N-NO 29 6,7 C 8,9 C
19.05.2019 06:11 8,9 C 86 % 1004,4 hPa 0,0 l/m 0,0 km/h (0 Bft) N-NO 29 6,7 C 8,9 C
19.05.2019 06:10 9,0 C 86 % 1004,5 hPa 0,0 l/m 0,0 km/h (0 Bft) N-NO 29 6,8 C 9,0 C
19.05.2019 06:09 9,0 C 86 % 1004,4 hPa 0,0 l/m 0,0 km/h (0 Bft) N-NO 29 6,8 C 9,0 C
19.05.2019 06:08 9,0 C 86 % 1004,4 hPa 0,0 l/m 0,0 km/h (0 Bft) N-NO 29 6,8 C 9,0 C
19.05.2019 06:07 9,0 C 85 % 1004,4 hPa 0,0 l/m 0,0 km/h (0 Bft) N-NO 29 6,6 C 9,0 C
19.05.2019 06:06 9,0 C 85 % 1004,3 hPa 0,0 l/m 0,0 km/h (0 Bft) N-NO 29 6,6 C 9,0 C
19.05.2019 06:05 9,0 C 85 % 1004,4 hPa 0,0 l/m 0,0 km/h (0 Bft) N-NO 29 6,6 C 9,0 C
19.05.2019 06:04 9,0 C 85 % 1004,4 hPa 0,0 l/m 0,0 km/h (0 Bft) N-NO 29 6,6 C 9,0 C
19.05.2019 06:03 9,0 C 85 % 1004,3 hPa 0,0 l/m 0,0 km/h (0 Bft) N-NO 29 6,6 C 9,0 C
19.05.2019 06:02 9,0 C 85 % 1004,4 hPa 0,0 l/m 0,0 km/h (0 Bft) N-NO 29 6,6 C 9,0 C
19.05.2019 06:01 9,1 C 85 % 1004,4 hPa 0,0 l/m 0,0 km/h (0 Bft) N-NO 29 6,7 C 9,1 C
19.05.2019 06:00 9,1 C 85 % 1004,4 hPa 0,0 l/m 0,0 km/h (0 Bft) N-NO 29 6,7 C 9,1 C
19.05.2019 05:59 9,1 C 85 % 1004,3 hPa 0,0 l/m 0,0 km/h (0 Bft) N-NO 29 6,7 C 9,1 C
19.05.2019 05:58 9,1 C 85 % 1004,3 hPa 0,0 l/m 0,0 km/h (0 Bft) N-NO 29 6,7 C 9,1 C
19.05.2019 05:57 9,1 C 85 % 1004,3 hPa 0,0 l/m 0,0 km/h (0 Bft) N-NO 29 6,7 C 9,1 C
19.05.2019 05:56 9,1 C 85 % 1004,3 hPa 0,0 l/m 0,0 km/h (0 Bft) N-NO 29 6,7 C 9,1 C
19.05.2019 05:55 9,1 C 85 % 1004,3 hPa 0,0 l/m 0,0 km/h (0 Bft) N-NO 29 6,7 C 9,1 C
19.05.2019 05:54 9,1 C 85 % 1004,4 hPa 0,0 l/m 0,0 km/h (0 Bft) N-NO 29 6,7 C 9,1 C
19.05.2019 05:53 9,1 C 85 % 1004,3 hPa 0,0 l/m 0,0 km/h (0 Bft) N-NO 29 6,7 C 9,1 C
19.05.2019 05:52 9,2 C 85 % 1004,3 hPa 0,0 l/m 0,0 km/h (0 Bft) N-NO 29 6,8 C 9,2 C
19.05.2019 05:51 9,2 C 85 % 1004,4 hPa 0,0 l/m 0,0 km/h (0 Bft) N-NO 29 6,8 C 9,2 C
19.05.2019 05:50 9,2 C 85 % 1004,3 hPa 0,0 l/m 0,0 km/h (0 Bft) N-NO 29 6,8 C 9,2 C
19.05.2019 05:49 9,2 C 85 % 1004,4 hPa 0,0 l/m 0,0 km/h (0 Bft) N-NO 29 6,8 C 9,2 C
19.05.2019 05:48 9,3 C 85 % 1004,4 hPa 0,0 l/m 0,0 km/h (0 Bft) N-NO 29 6,9 C 9,3 C
19.05.2019 05:47 9,3 C 85 % 1004,3 hPa 0,0 l/m 0,0 km/h (0 Bft) N-NO 29 6,9 C 9,3 C
19.05.2019 05:46 9,3 C 84 % 1004,4 hPa 0,0 l/m 0,0 km/h (0 Bft) N-NO 29 6,7 C 9,3 C
19.05.2019 05:45 9,3 C 84 % 1004,3 hPa 0,0 l/m 0,0 km/h (0 Bft) N-NO 29 6,7 C 9,3 C
19.05.2019 05:44 9,3 C 84 % 1004,4 hPa 0,0 l/m 0,0 km/h (0 Bft) N-NO 29 6,7 C 9,3 C
19.05.2019 05:43 9,3 C 84 % 1004,4 hPa 0,0 l/m 0,0 km/h (0 Bft) N-NO 29 6,7 C 9,3 C
19.05.2019 05:42 9,3 C 84 % 1004,4 hPa 0,0 l/m 0,0 km/h (0 Bft) N-NO 29 6,7 C 9,3 C
19.05.2019 05:41 9,3 C 84 % 1004,4 hPa 0,0 l/m 0,0 km/h (0 Bft) N-NO 29 6,7 C 9,3 C
19.05.2019 05:40 9,4 C 84 % 1004,4 hPa 0,0 l/m 0,0 km/h (0 Bft) N-NO 29 6,8 C 9,4 C
19.05.2019 05:39 9,4 C 84 % 1004,3 hPa 0,0 l/m 0,0 km/h (0 Bft) N-NO 29 6,8 C 9,4 C
19.05.2019 05:38 9,4 C 84 % 1004,4 hPa 0,0 l/m 0,0 km/h (0 Bft) N-NO 29 6,8 C 9,4 C
19.05.2019 05:37 9,4 C 84 % 1004,3 hPa 0,0 l/m 0,0 km/h (0 Bft) N-NO 29 6,8 C 9,4 C
19.05.2019 05:36 9,4 C 84 % 1004,4 hPa 0,0 l/m 0,0 km/h (0 Bft) N-NO 29 6,8 C 9,4 C
19.05.2019 05:35 9,4 C 84 % 1004,4 hPa 0,0 l/m 0,0 km/h (0 Bft) N-NO 29 6,8 C 9,4 C
19.05.2019 05:34 9,4 C 84 % 1004,3 hPa 0,0 l/m 0,0 km/h (0 Bft) N-NO 29 6,8 C 9,4 C
19.05.2019 05:33 9,4 C 84 % 1004,3 hPa 0,0 l/m 0,0 km/h (0 Bft) N-NO 29 6,8 C 9,4 C
19.05.2019 05:32 9,4 C 84 % 1004,3 hPa 0,0 l/m 0,0 km/h (0 Bft) N-NO 29 6,8 C 9,4 C
19.05.2019 05:31 9,4 C 84 % 1004,3 hPa 0,0 l/m 0,0 km/h (0 Bft) N-NO 29 6,8 C 9,4 C
19.05.2019 05:30 9,4 C 84 % 1004,3 hPa 0,0 l/m 0,0 km/h (0 Bft) N-NO 29 6,8 C 9,4 C
19.05.2019 05:29 9,5 C 84 % 1004,3 hPa 0,0 l/m 0,0 km/h (0 Bft) N-NO 29 6,9 C 9,5 C
19.05.2019 05:28 9,5 C 84 % 1004,3 hPa 0,0 l/m 0,0 km/h (0 Bft) N-NO 29 6,9 C 9,5 C
19.05.2019 05:27 9,5 C 84 % 1004,3 hPa 0,0 l/m 0,0 km/h (0 Bft) N-NO 29 6,9 C 9,5 C
19.05.2019 05:26 9,5 C 84 % 1004,3 hPa 0,0 l/m 0,0 km/h (0 Bft) N-NO 29 6,9 C 9,5 C
19.05.2019 05:25 9,5 C 84 % 1004,4 hPa 0,0 l/m 0,0 km/h (0 Bft) N-NO 29 6,9 C 9,5 C
19.05.2019 05:24 9,5 C 84 % 1004,4 hPa 0,0 l/m 0,0 km/h (0 Bft) N-NO 29 6,9 C 9,5 C
19.05.2019 05:23 9,5 C 84 % 1004,4 hPa 0,0 l/m 0,0 km/h (0 Bft) N-NO 29 6,9 C 9,5 C
19.05.2019 05:22 9,5 C 84 % 1004,4 hPa 0,0 l/m 0,0 km/h (0 Bft) N-NO 29 6,9 C 9,5 C
19.05.2019 05:21 9,6 C 84 % 1004,4 hPa 0,0 l/m 0,0 km/h (0 Bft) N-NO 29 7,0 C 9,6 C
19.05.2019 05:20 9,6 C 84 % 1004,4 hPa 0,0 l/m 0,0 km/h (0 Bft) N-NO 29 7,0 C 9,6 C
19.05.2019 05:19 9,6 C 84 % 1004,4 hPa 0,0 l/m 0,0 km/h (0 Bft) N-NO 29 7,0 C 9,6 C
19.05.2019 05:18 9,6 C 84 % 1004,4 hPa 0,0 l/m 0,0 km/h (0 Bft) N-NO 29 7,0 C 9,6 C
19.05.2019 05:17 9,6 C 84 % 1004,4 hPa 0,0 l/m 0,0 km/h (0 Bft) N-NO 29 7,0 C 9,6 C
19.05.2019 05:16 9,6 C 84 % 1004,4 hPa 0,0 l/m 0,0 km/h (0 Bft) N-NO 29 7,0 C 9,6 C
19.05.2019 05:15 9,6 C 84 % 1004,4 hPa 0,0 l/m 0,0 km/h (0 Bft) N-NO 29 7,0 C 9,6 C
19.05.2019 05:14 9,6 C 84 % 1004,3 hPa 0,0 l/m 0,0 km/h (0 Bft) N-NO 29 7,0 C 9,6 C
19.05.2019 05:13 9,6 C 84 % 1004,4 hPa 0,0 l/m 0,0 km/h (0 Bft) N-NO 29 7,0 C 9,6 C
19.05.2019 05:12 9,6 C 84 % 1004,4 hPa 0,0 l/m 0,0 km/h (0 Bft) N-NO 29 7,0 C 9,6 C
19.05.2019 05:11 9,6 C 84 % 1004,4 hPa 0,0 l/m 0,0 km/h (0 Bft) N-NO 29 7,0 C 9,6 C
19.05.2019 05:10 9,7 C 84 % 1004,4 hPa 0,0 l/m 0,0 km/h (0 Bft) N-NO 29 7,1 C 9,7 C
19.05.2019 05:09 9,7 C 84 % 1004,4 hPa 0,0 l/m 0,0 km/h (0 Bft) N-NO 29 7,1 C 9,7 C
19.05.2019 05:08 9,7 C 84 % 1004,4 hPa 0,0 l/m 0,0 km/h (0 Bft) N-NO 29 7,1 C 9,7 C
19.05.2019 05:07 9,7 C 84 % 1004,5 hPa 0,0 l/m 0,0 km/h (0 Bft) N-NO 29 7,1 C 9,7 C
19.05.2019 05:06 9,7 C 84 % 1004,5 hPa 0,0 l/m 0,0 km/h (0 Bft) N-NO 29 7,1 C 9,7 C
19.05.2019 05:05 9,7 C 84 % 1004,5 hPa 0,0 l/m 0,0 km/h (0 Bft) N-NO 29 7,1 C 9,7 C
19.05.2019 05:04 9,7 C 84 % 1004,5 hPa 0,0 l/m 0,0 km/h (0 Bft) N-NO 29 7,1 C 9,7 C
19.05.2019 05:03 9,7 C 84 % 1004,5 hPa 0,0 l/m 0,0 km/h (0 Bft) N-NO 29 7,1 C 9,7 C
19.05.2019 05:02 9,7 C 84 % 1004,5 hPa 0,0 l/m 0,0 km/h (0 Bft) N-NO 29 7,1 C 9,7 C
19.05.2019 05:01 9,8 C 84 % 1004,5 hPa 0,0 l/m 0,0 km/h (0 Bft) N-NO 29 7,2 C 9,8 C
19.05.2019 05:00 9,8 C 85 % 1004,5 hPa 0,0 l/m 0,0 km/h (0 Bft) N-NO 29 7,4 C 9,8 C
19.05.2019 04:59 9,8 C 85 % 1004,5 hPa 0,0 l/m 0,0 km/h (0 Bft) N-NO 29 7,4 C 9,8 C
19.05.2019 04:58 9,8 C 85 % 1004,4 hPa 0,0 l/m 0,0 km/h (0 Bft) N-NO 29 7,4 C 9,8 C
19.05.2019 04:57 9,8 C 85 % 1004,4 hPa 0,0 l/m 0,0 km/h (0 Bft) N-NO 29 7,4 C 9,8 C
19.05.2019 04:56 9,8 C 85 % 1004,4 hPa 0,0 l/m 0,0 km/h (0 Bft) N-NO 29 7,4 C 9,8 C
19.05.2019 04:55 9,8 C 85 % 1004,3 hPa 0,0 l/m 0,0 km/h (0 Bft) N-NO 29 7,4 C 9,8 C
19.05.2019 04:54 9,8 C 85 % 1004,3 hPa 0,0 l/m 0,0 km/h (0 Bft) N-NO 29 7,4 C 9,8 C
19.05.2019 04:53 9,8 C 85 % 1004,4 hPa 0,0 l/m 0,0 km/h (0 Bft) N-NO 29 7,4 C 9,8 C
19.05.2019 04:52 9,8 C 85 % 1004,4 hPa 0,0 l/m 0,0 km/h (0 Bft) N-NO 29 7,4 C 9,8 C
19.05.2019 04:51 9,8 C 85 % 1004,4 hPa 0,0 l/m 0,0 km/h (0 Bft) N-NO 29 7,4 C 9,8 C
19.05.2019 04:50 9,8 C 85 % 1004,3 hPa 0,0 l/m 0,0 km/h (0 Bft) N-NO 29 7,4 C 9,8 C
19.05.2019 04:49 9,8 C 85 % 1004,4 hPa 0,0 l/m 0,0 km/h (0 Bft) N-NO 29 7,4 C 9,8 C
19.05.2019 04:48 9,8 C 85 % 1004,4 hPa 0,0 l/m 0,0 km/h (0 Bft) N-NO 29 7,4 C 9,8 C
19.05.2019 04:47 9,8 C 85 % 1004,4 hPa 0,0 l/m 0,0 km/h (0 Bft) N-NO 29 7,4 C 9,8 C
19.05.2019 04:46 9,8 C 85 % 1004,4 hPa 0,0 l/m 0,0 km/h (0 Bft) N-NO 29 7,4 C 9,8 C
19.05.2019 04:45 9,8 C 85 % 1004,4 hPa 0,0 l/m 0,0 km/h (0 Bft) N-NO 29 7,4 C 9,8 C
19.05.2019 04:44 9,8 C 85 % 1004,4 hPa 0,0 l/m 0,0 km/h (0 Bft) N-NO 29 7,4 C 9,8 C
19.05.2019 04:43 9,8 C 85 % 1004,4 hPa 0,0 l/m 0,0 km/h (0 Bft) N-NO 29 7,4 C 9,8 C
19.05.2019 04:42 9,8 C 85 % 1004,4 hPa 0,0 l/m 0,0 km/h (0 Bft) N-NO 29 7,4 C 9,8 C
19.05.2019 04:41 9,8 C 85 % 1004,4 hPa 0,0 l/m 0,0 km/h (0 Bft) N-NO 29 7,4 C 9,8 C
19.05.2019 04:40 9,8 C 85 % 1004,4 hPa 0,0 l/m 0,0 km/h (0 Bft) N-NO 29 7,4 C 9,8 C
19.05.2019 04:39 9,8 C 85 % 1004,4 hPa 0,0 l/m 0,0 km/h (0 Bft) N-NO 29 7,4 C 9,8 C
19.05.2019 04:38 9,8 C 85 % 1004,4 hPa 0,0 l/m 0,0 km/h (0 Bft) N-NO 29 7,4 C 9,8 C
19.05.2019 04:37 9,8 C 85 % 1004,5 hPa 0,0 l/m 0,0 km/h (0 Bft) N-NO 29 7,4 C 9,8 C
19.05.2019 04:36 9,8 C 85 % 1004,5 hPa 0,0 l/m 0,0 km/h (0 Bft) N-NO 29 7,4 C 9,8 C
19.05.2019 04:35 9,8 C 85 % 1004,5 hPa 0,0 l/m 0,0 km/h (0 Bft) N-NO 29 7,4 C 9,8 C
19.05.2019 04:34 9,8 C 85 % 1004,5 hPa 0,0 l/m 0,0 km/h (0 Bft) N-NO 29 7,4 C 9,8 C
19.05.2019 04:33 9,8 C 85 % 1004,5 hPa 0,0 l/m 0,0 km/h (0 Bft) N-NO 29 7,4 C 9,8 C
19.05.2019 04:32 9,8 C 85 % 1004,5 hPa 0,0 l/m 0,0 km/h (0 Bft) N-NO 29 7,4 C 9,8 C
19.05.2019 04:31 9,8 C 85 % 1004,5 hPa 0,0 l/m 0,0 km/h (0 Bft) N-NO 29 7,4 C 9,8 C
19.05.2019 04:30 9,8 C 85 % 1004,5 hPa 0,0 l/m 0,0 km/h (0 Bft) N-NO 29 7,4 C 9,8 C
19.05.2019 04:29 9,8 C 85 % 1004,4 hPa 0,0 l/m 0,0 km/h (0 Bft) N-NO 29 7,4 C 9,8 C
19.05.2019 04:28 9,8 C 85 % 1004,4 hPa 0,0 l/m 0,0 km/h (0 Bft) N-NO 29 7,4 C 9,8 C
19.05.2019 04:27 9,8 C 85 % 1004,4 hPa 0,0 l/m 0,0 km/h (0 Bft) N-NO 29 7,4 C 9,8 C
19.05.2019 04:26 9,8 C 85 % 1004,4 hPa 0,0 l/m 0,0 km/h (0 Bft) N-NO 29 7,4 C 9,8 C
19.05.2019 04:25 9,8 C 86 % 1004,4 hPa 0,0 l/m 0,0 km/h (0 Bft) N-NO 29 7,6 C 9,8 C
19.05.2019 04:24 9,8 C 86 % 1004,3 hPa 0,0 l/m 0,0 km/h (0 Bft) N-NO 29 7,6 C 9,8 C
19.05.2019 04:23 9,8 C 86 % 1004,4 hPa 0,0 l/m 0,0 km/h (0 Bft) N-NO 29 7,6 C 9,8 C
19.05.2019 04:22 9,8 C 86 % 1004,4 hPa 0,0 l/m 0,0 km/h (0 Bft) N-NO 29 7,6 C 9,8 C
19.05.2019 04:21 9,7 C 86 % 1004,4 hPa 0,0 l/m 0,0 km/h (0 Bft) N-NO 29 7,5 C 9,7 C
19.05.2019 04:20 9,7 C 86 % 1004,4 hPa 0,0 l/m 0,0 km/h (0 Bft) N-NO 29 7,5 C 9,7 C
19.05.2019 04:19 9,7 C 86 % 1004,4 hPa 0,0 l/m 0,0 km/h (0 Bft) N-NO 29 7,5 C 9,7 C
19.05.2019 04:18 9,6 C 86 % 1004,4 hPa 0,0 l/m 0,0 km/h (0 Bft) N-NO 29 7,4 C 9,6 C
19.05.2019 04:17 9,6 C 86 % 1004,4 hPa 0,0 l/m 0,0 km/h (0 Bft) N-NO 29 7,4 C 9,6 C
19.05.2019 04:16 9,6 C 86 % 1004,4 hPa 0,0 l/m 0,0 km/h (0 Bft) N-NO 29 7,4 C 9,6 C
19.05.2019 04:15 9,6 C 86 % 1004,4 hPa 0,0 l/m 0,0 km/h (0 Bft) N-NO 29 7,4 C 9,6 C
19.05.2019 04:14 9,6 C 86 % 1004,4 hPa 0,0 l/m 0,0 km/h (0 Bft) N-NO 29 7,4 C 9,6 C
19.05.2019 04:13 9,6 C 86 % 1004,5 hPa 0,0 l/m 0,0 km/h (0 Bft) N-NO 29 7,4 C 9,6 C
19.05.2019 04:12 9,6 C 86 % 1004,5 hPa 0,0 l/m 0,0 km/h (0 Bft) O 82 7,4 C 9,6 C
19.05.2019 04:11 9,6 C 86 % 1004,5 hPa 0,0 l/m 0,0 km/h (0 Bft) O 82 7,4 C 9,6 C
19.05.2019 04:10 9,6 C 86 % 1004,5 hPa 0,0 l/m 0,0 km/h (0 Bft) O 82 7,4 C 9,6 C
19.05.2019 04:09 9,6 C 85 % 1004,5 hPa 0,0 l/m 0,0 km/h (0 Bft) O 82 7,2 C 9,6 C
19.05.2019 04:08 9,6 C 85 % 1004,5 hPa 0,0 l/m 0,0 km/h (0 Bft) O 82 7,2 C 9,6 C
19.05.2019 04:07 9,6 C 85 % 1004,5 hPa 0,0 l/m 0,0 km/h (0 Bft) O 82 7,2 C 9,6 C
19.05.2019 04:06 9,6 C 85 % 1004,5 hPa 0,0 l/m 0,0 km/h (0 Bft) O 82 7,2 C 9,6 C
19.05.2019 04:05 9,6 C 85 % 1004,5 hPa 0,0 l/m 0,0 km/h (0 Bft) O 82 7,2 C 9,6 C
19.05.2019 04:04 9,6 C 85 % 1004,5 hPa 0,0 l/m 0,0 km/h (0 Bft) O 82 7,2 C 9,6 C
19.05.2019 04:03 9,7 C 85 % 1004,5 hPa 0,0 l/m 0,0 km/h (0 Bft) O 82 7,3 C 9,7 C
19.05.2019 04:02 9,7 C 85 % 1004,5 hPa 0,0 l/m 0,0 km/h (0 Bft) O 82 7,3 C 9,7 C
19.05.2019 04:01 9,7 C 85 % 1004,5 hPa 0,0 l/m 0,0 km/h (0 Bft) O 82 7,3 C 9,7 C
19.05.2019 04:00 9,8 C 85 % 1004,4 hPa 0,0 l/m 0,0 km/h (0 Bft) O 82 7,4 C 9,8 C
19.05.2019 03:59 9,8 C 85 % 1004,4 hPa 0,0 l/m 0,0 km/h (0 Bft) O 82 7,4 C 9,8 C
19.05.2019 03:58 9,8 C 85 % 1004,4 hPa 0,0 l/m 0,0 km/h (0 Bft) O 82 7,4 C 9,8 C
19.05.2019 03:57 9,8 C 85 % 1004,4 hPa 0,0 l/m 0,0 km/h (0 Bft) O 82 7,4 C 9,8 C
19.05.2019 03:56 9,8 C 85 % 1004,5 hPa 0,0 l/m 0,0 km/h (0 Bft) O 82 7,4 C 9,8 C
19.05.2019 03:55 9,8 C 85 % 1004,4 hPa 0,0 l/m 0,0 km/h (0 Bft) O 82 7,4 C 9,8 C
19.05.2019 03:54 9,8 C 85 % 1004,4 hPa 0,0 l/m 0,0 km/h (0 Bft) O 82 7,4 C 9,8 C
19.05.2019 03:53 9,8 C 85 % 1004,5 hPa 0,0 l/m 0,0 km/h (0 Bft) O 82 7,4 C 9,8 C
19.05.2019 03:52 9,8 C 85 % 1004,4 hPa 0,0 l/m 0,0 km/h (0 Bft) O 82 7,4 C 9,8 C
19.05.2019 03:51 9,8 C 85 % 1004,4 hPa 0,0 l/m 0,0 km/h (0 Bft) O 82 7,4 C 9,8 C
19.05.2019 03:50 9,8 C 85 % 1004,5 hPa 0,0 l/m 0,0 km/h (0 Bft) O 82 7,4 C 9,8 C
19.05.2019 03:49 9,8 C 85 % 1004,5 hPa 0,0 l/m 0,0 km/h (0 Bft) O 82 7,4 C 9,8 C
19.05.2019 03:48 9,9 C 85 % 1004,5 hPa 0,0 l/m 0,0 km/h (0 Bft) O 82 7,5 C 9,9 C
19.05.2019 03:47 9,8 C 85 % 1004,5 hPa 0,0 l/m 0,0 km/h (0 Bft) O 82 7,4 C 9,8 C
19.05.2019 03:46 9,9 C 85 % 1004,5 hPa 0,0 l/m 0,0 km/h (0 Bft) O 82 7,5 C 9,9 C
19.05.2019 03:45 9,9 C 85 % 1004,5 hPa 0,0 l/m 0,0 km/h (0 Bft) O 82 7,5 C 9,9 C
19.05.2019 03:44 9,9 C 84 % 1004,6 hPa 0,0 l/m 0,0 km/h (0 Bft) O 82 7,3 C 9,9 C
19.05.2019 03:43 9,9 C 84 % 1004,5 hPa 0,0 l/m 0,0 km/h (0 Bft) O 82 7,3 C 9,9 C
19.05.2019 03:42 9,9 C 85 % 1004,6 hPa 0,0 l/m 0,0 km/h (0 Bft) O 82 7,5 C 9,9 C
19.05.2019 03:41 9,9 C 85 % 1004,6 hPa 0,0 l/m 0,0 km/h (0 Bft) O 82 7,5 C 9,9 C
19.05.2019 03:40 9,9 C 85 % 1004,6 hPa 0,0 l/m 0,0 km/h (0 Bft) O 82 7,5 C 9,9 C
19.05.2019 03:39 9,9 C 84 % 1004,6 hPa 0,0 l/m 0,0 km/h (0 Bft) O 82 7,3 C 9,9 C
19.05.2019 03:38 10,0 C 84 % 1004,6 hPa 0,0 l/m 0,0 km/h (0 Bft) O 82 7,4 C 10,0 C
19.05.2019 03:37 10,0 C 84 % 1004,6 hPa 0,0 l/m 0,0 km/h (0 Bft) O 82 7,4 C 10,0 C
19.05.2019 03:36 10,0 C 84 % 1004,6 hPa 0,0 l/m 0,0 km/h (0 Bft) O 82 7,4 C 10,0 C
19.05.2019 03:35 10,0 C 84 % 1004,7 hPa 0,0 l/m 0,0 km/h (0 Bft) O 82 7,4 C 10,0 C
19.05.2019 03:34 10,0 C 84 % 1004,7 hPa 0,0 l/m 0,0 km/h (0 Bft) O 82 7,4 C 10,0 C
19.05.2019 03:33 10,0 C 84 % 1004,7 hPa 0,0 l/m 0,0 km/h (0 Bft) O 82 7,4 C 10,0 C
19.05.2019 03:32 10,0 C 83 % 1004,7 hPa 0,0 l/m 0,0 km/h (0 Bft) O 82 7,2 C 10,0 C
19.05.2019 03:31 10,1 C 84 % 1004,7 hPa 0,0 l/m 0,0 km/h (0 Bft) O 82 7,5 C 10,1 C
19.05.2019 03:30 10,1 C 83 % 1004,6 hPa 0,0 l/m 0,0 km/h (0 Bft) O 82 7,3 C 10,1 C
19.05.2019 03:29 10,1 C 83 % 1004,6 hPa 0,0 l/m 0,0 km/h (0 Bft) O 82 7,3 C 10,1 C
19.05.2019 03:28 10,1 C 83 % 1004,7 hPa 0,0 l/m 0,0 km/h (0 Bft) O 82 7,3 C 10,1 C
19.05.2019 03:27 10,2 C 83 % 1004,6 hPa 0,0 l/m 0,0 km/h (0 Bft) O 82 7,4 C 10,2 C
19.05.2019 03:26 10,2 C 83 % 1004,6 hPa 0,0 l/m 0,0 km/h (0 Bft) O 82 7,4 C 10,2 C
19.05.2019 03:25 10,2 C 82 % 1004,6 hPa 0,0 l/m 0,0 km/h (0 Bft) O 82 7,3 C 10,2 C
19.05.2019 03:24 10,3 C 82 % 1004,6 hPa 0,0 l/m 0,0 km/h (0 Bft) O 82 7,4 C 10,3 C
19.05.2019 03:23 10,3 C 82 % 1004,6 hPa 0,0 l/m 0,0 km/h (0 Bft) O 82 7,4 C 10,3 C
19.05.2019 03:22 10,3 C 82 % 1004,6 hPa 0,0 l/m 0,0 km/h (0 Bft) O 82 7,4 C 10,3 C
19.05.2019 03:21 10,3 C 82 % 1004,6 hPa 0,0 l/m 0,0 km/h (0 Bft) O 82 7,4 C 10,3 C
19.05.2019 03:20 10,3 C 82 % 1004,6 hPa 0,0 l/m 0,0 km/h (0 Bft) O 82 7,4 C 10,3 C
19.05.2019 03:19 10,4 C 82 % 1004,6 hPa 0,0 l/m 0,0 km/h (0 Bft) O 82 7,5 C 10,4 C
19.05.2019 03:18 10,4 C 82 % 1004,5 hPa 0,0 l/m 0,0 km/h (0 Bft) O 82 7,5 C 10,4 C
19.05.2019 03:17 10,4 C 81 % 1004,6 hPa 0,0 l/m 0,0 km/h (0 Bft) O 82 7,3 C 10,4 C
19.05.2019 03:16 10,4 C 81 % 1004,6 hPa 0,0 l/m 0,0 km/h (0 Bft) O 82 7,3 C 10,4 C
19.05.2019 03:15 10,4 C 81 % 1004,6 hPa 0,0 l/m 0,0 km/h (0 Bft) O 82 7,3 C 10,4 C
19.05.2019 03:14 10,4 C 81 % 1004,6 hPa 0,0 l/m 0,0 km/h (0 Bft) O 82 7,3 C 10,4 C
19.05.2019 03:13 10,5 C 82 % 1004,7 hPa 0,0 l/m 0,0 km/h (0 Bft) O 82 7,6 C 10,5 C
19.05.2019 03:12 10,5 C 82 % 1004,7 hPa 0,0 l/m 0,0 km/h (0 Bft) O 82 7,6 C 10,5 C
19.05.2019 03:11 10,5 C 81 % 1004,7 hPa 0,0 l/m 0,0 km/h (0 Bft) O 82 7,4 C 10,5 C
19.05.2019 03:10 10,5 C 81 % 1004,6 hPa 0,0 l/m 0,0 km/h (0 Bft) O 82 7,4 C 10,5 C
19.05.2019 03:09 10,5 C 81 % 1004,7 hPa 0,0 l/m 0,0 km/h (0 Bft) O 82 7,4 C 10,5 C
19.05.2019 03:08 10,5 C 81 % 1004,7 hPa 0,0 l/m 0,0 km/h (0 Bft) O 82 7,4 C 10,5 C
19.05.2019 03:07 10,6 C 81 % 1004,7 hPa 0,0 l/m 0,0 km/h (0 Bft) O 82 7,5 C 10,6 C
19.05.2019 03:06 10,6 C 81 % 1004,7 hPa 0,0 l/m 0,0 km/h (0 Bft) O 82 7,5 C 10,6 C
19.05.2019 03:05 10,6 C 81 % 1004,7 hPa 0,0 l/m 0,0 km/h (0 Bft) O 82 7,5 C 10,6 C
19.05.2019 03:04 10,6 C 81 % 1004,7 hPa 0,0 l/m 0,0 km/h (0 Bft) O 82 7,5 C 10,6 C
19.05.2019 03:03 10,6 C 81 % 1004,7 hPa 0,0 l/m 0,0 km/h (0 Bft) O 82 7,5 C 10,6 C
19.05.2019 03:02 10,7 C 81 % 1004,7 hPa 0,0 l/m 0,0 km/h (0 Bft) O 82 7,6 C 10,7 C
19.05.2019 03:01 10,7 C 81 % 1004,7 hPa 0,0 l/m 0,0 km/h (0 Bft) O 82 7,6 C 10,7 C
19.05.2019 03:00 10,7 C 81 % 1004,7 hPa 0,0 l/m 0,0 km/h (0 Bft) O 82 7,6 C 10,7 C
19.05.2019 02:59 10,8 C 81 % 1004,7 hPa 0,0 l/m 0,0 km/h (0 Bft) O 82 7,7 C 10,8 C
19.05.2019 02:58 10,8 C 81 % 1004,7 hPa 0,0 l/m 0,0 km/h (0 Bft) O 82 7,7 C 10,8 C
19.05.2019 02:57 10,8 C 80 % 1004,7 hPa 0,0 l/m 0,0 km/h (0 Bft) O 82 7,5 C 10,8 C
19.05.2019 02:56 10,9 C 80 % 1004,7 hPa 0,0 l/m 0,0 km/h (0 Bft) O 82 7,6 C 10,9 C
19.05.2019 02:55 10,9 C 80 % 1004,7 hPa 0,0 l/m 0,0 km/h (0 Bft) O 82 7,6 C 10,9 C
19.05.2019 02:54 10,9 C 80 % 1004,7 hPa 0,0 l/m 0,0 km/h (0 Bft) O 82 7,6 C 10,9 C
19.05.2019 02:53 10,9 C 80 % 1004,6 hPa 0,0 l/m 0,0 km/h (0 Bft) O 82 7,6 C 10,9 C
19.05.2019 02:52 10,9 C 80 % 1004,7 hPa 0,0 l/m 0,0 km/h (0 Bft) O 82 7,6 C 10,9 C
19.05.2019 02:51 10,9 C 80 % 1004,7 hPa 0,0 l/m 0,0 km/h (0 Bft) O 82 7,6 C 10,9 C
19.05.2019 02:50 11,0 C 80 % 1004,7 hPa 0,0 l/m 0,0 km/h (0 Bft) O 82 7,7 C 11,0 C
19.05.2019 02:49 11,0 C 80 % 1004,7 hPa 0,0 l/m 0,0 km/h (0 Bft) O 82 7,7 C 11,0 C
19.05.2019 02:48 11,0 C 80 % 1004,7 hPa 0,0 l/m 0,0 km/h (0 Bft) O 82 7,7 C 11,0 C
19.05.2019 02:47 11,0 C 80 % 1004,7 hPa 0,0 l/m 0,0 km/h (0 Bft) O 82 7,7 C 11,0 C
19.05.2019 02:46 11,0 C 80 % 1004,7 hPa 0,0 l/m 0,0 km/h (0 Bft) O 82 7,7 C 11,0 C
19.05.2019 02:45 11,1 C 80 % 1004,7 hPa 0,0 l/m 0,0 km/h (0 Bft) O 82 7,8 C 11,1 C
19.05.2019 02:44 11,1 C 80 % 1004,7 hPa 0,0 l/m 0,0 km/h (0 Bft) O 82 7,8 C 11,1 C
19.05.2019 02:43 11,1 C 79 % 1004,6 hPa 0,0 l/m 0,0 km/h (0 Bft) O 82 7,6 C 11,1 C
19.05.2019 02:42 11,1 C 79 % 1004,6 hPa 0,0 l/m 0,0 km/h (0 Bft) O 82 7,6 C 11,1 C
19.05.2019 02:41 11,2 C 79 % 1004,7 hPa 0,0 l/m 0,0 km/h (0 Bft) O 82 7,7 C 11,2 C
19.05.2019 02:40 11,3 C 79 % 1004,7 hPa 0,0 l/m 0,0 km/h (0 Bft) O 82 7,8 C 11,3 C
19.05.2019 02:39 11,3 C 79 % 1004,7 hPa 0,0 l/m 0,0 km/h (0 Bft) O 82 7,8 C 11,3 C
19.05.2019 02:38 11,3 C 79 % 1004,7 hPa 0,0 l/m 0,0 km/h (0 Bft) O 82 7,8 C 11,3 C
19.05.2019 02:37 11,3 C 79 % 1004,7 hPa 0,0 l/m 0,0 km/h (0 Bft) O 82 7,8 C 11,3 C
19.05.2019 02:36 11,3 C 79 % 1004,7 hPa 0,0 l/m 0,0 km/h (0 Bft) O 82 7,8 C 11,3 C
19.05.2019 02:35 11,4 C 79 % 1004,7 hPa 0,0 l/m 0,0 km/h (0 Bft) O 82 7,9 C 11,4 C
19.05.2019 02:34 11,4 C 79 % 1004,7 hPa 0,0 l/m 0,0 km/h (0 Bft) O 82 7,9 C 11,4 C
19.05.2019 02:33 11,4 C 79 % 1004,7 hPa 0,0 l/m 0,0 km/h (0 Bft) O 82 7,9 C 11,4 C
19.05.2019 02:32 11,4 C 79 % 1004,7 hPa 0,0 l/m 0,0 km/h (0 Bft) O 82 7,9 C 11,4 C
19.05.2019 02:31 11,4 C 79 % 1004,7 hPa 0,0 l/m 0,0 km/h (0 Bft) O 82 7,9 C 11,4 C
19.05.2019 02:30 11,5 C 79 % 1004,7 hPa 0,0 l/m 0,0 km/h (0 Bft) O 82 8,0 C 11,5 C
19.05.2019 02:29 11,5 C 79 % 1004,7 hPa 0,0 l/m 0,0 km/h (0 Bft) O 82 8,0 C 11,5 C
19.05.2019 02:28 11,5 C 79 % 1004,7 hPa 0,0 l/m 0,0 km/h (0 Bft) O 82 8,0 C 11,5 C
19.05.2019 02:27 11,5 C 79 % 1004,7 hPa 0,0 l/m 0,0 km/h (0 Bft) O 82 8,0 C 11,5 C
19.05.2019 02:26 11,5 C 79 % 1004,7 hPa 0,0 l/m 0,0 km/h (0 Bft) O 82 8,0 C 11,5 C
19.05.2019 02:25 11,6 C 79 % 1004,7 hPa 0,0 l/m 0,0 km/h (0 Bft) O 82 8,1 C 11,6 C
19.05.2019 02:24 11,6 C 79 % 1004,7 hPa 0,0 l/m 0,0 km/h (0 Bft) O 82 8,1 C 11,6 C
19.05.2019 02:23 11,6 C 79 % 1004,6 hPa 0,0 l/m 0,0 km/h (0 Bft) O 82 8,1 C 11,6 C
19.05.2019 02:22 11,6 C 79 % 1004,6 hPa 0,0 l/m 0,0 km/h (0 Bft) O 82 8,1 C 11,6 C
19.05.2019 02:21 11,6 C 79 % 1004,6 hPa 0,0 l/m 0,0 km/h (0 Bft) O 82 8,1 C 11,6 C
19.05.2019 02:20 11,6 C 78 % 1004,6 hPa 0,0 l/m 0,0 km/h (0 Bft) O 82 7,9 C 11,6 C
19.05.2019 02:19 11,6 C 79 % 1004,7 hPa 0,0 l/m 0,0 km/h (0 Bft) O 82 8,1 C 11,6 C
19.05.2019 02:18 11,7 C 79 % 1004,7 hPa 0,0 l/m 0,0 km/h (0 Bft) O 82 8,2 C 11,7 C
19.05.2019 02:17 11,7 C 78 % 1004,6 hPa 0,0 l/m 0,0 km/h (0 Bft) O 82 8,0 C 11,7 C
19.05.2019 02:16 11,8 C 78 % 1004,6 hPa 0,0 l/m 0,0 km/h (0 Bft) O 82 8,1 C 11,8 C
19.05.2019 02:15 11,8 C 78 % 1004,6 hPa 0,0 l/m 0,0 km/h (0 Bft) O 82 8,1 C 11,8 C
19.05.2019 02:14 11,8 C 78 % 1004,6 hPa 0,0 l/m 0,0 km/h (0 Bft) O 82 8,1 C 11,8 C
19.05.2019 02:13 11,8 C 78 % 1004,6 hPa 0,0 l/m 0,0 km/h (0 Bft) O 82 8,1 C 11,8 C
19.05.2019 02:12 11,8 C 78 % 1004,6 hPa 0,0 l/m 0,0 km/h (0 Bft) O 82 8,1 C 11,8 C
19.05.2019 02:11 11,9 C 78 % 1004,6 hPa 0,0 l/m 0,0 km/h (0 Bft) O 82 8,2 C 11,9 C
19.05.2019 02:10 11,9 C 78 % 1004,6 hPa 0,0 l/m 0,0 km/h (0 Bft) O 82 8,2 C 11,9 C
19.05.2019 02:09 11,9 C 78 % 1004,6 hPa 0,0 l/m 0,0 km/h (0 Bft) O 82 8,2 C 11,9 C
19.05.2019 02:08 11,9 C 78 % 1004,6 hPa 0,0 l/m 0,0 km/h (0 Bft) O 82 8,2 C 11,9 C
19.05.2019 02:07 11,9 C 78 % 1004,6 hPa 0,0 l/m 0,0 km/h (0 Bft) O 82 8,2 C 11,9 C
19.05.2019 02:06 11,9 C 78 % 1004,6 hPa 0,0 l/m 0,0 km/h (0 Bft) O 84 8,2 C 11,9 C
19.05.2019 02:05 11,9 C 78 % 1004,6 hPa 0,0 l/m 0,0 km/h (0 Bft) O 84 8,2 C 11,9 C
19.05.2019 02:04 11,9 C 77 % 1004,5 hPa 0,0 l/m 0,0 km/h (0 Bft) O 84 8,0 C 11,9 C
19.05.2019 02:03 11,9 C 77 % 1004,6 hPa 0,0 l/m 0,0 km/h (0 Bft) O 84 8,0 C 11,9 C
19.05.2019 02:02 11,9 C 77 % 1004,6 hPa 0,0 l/m 0,0 km/h (0 Bft) O 84 8,0 C 11,9 C
19.05.2019 02:01 12,0 C 77 % 1004,6 hPa 0,0 l/m 0,0 km/h (0 Bft) O 84 8,1 C 12,0 C
19.05.2019 02:00 12,0 C 77 % 1004,7 hPa 0,0 l/m 0,0 km/h (0 Bft) O 84 8,1 C 12,0 C
19.05.2019 01:59 12,0 C 77 % 1004,7 hPa 0,0 l/m 0,0 km/h (0 Bft) O 84 8,1 C 12,0 C
19.05.2019 01:58 12,0 C 77 % 1004,7 hPa 0,0 l/m 0,0 km/h (0 Bft) O 84 8,1 C 12,0 C
19.05.2019 01:57 12,0 C 77 % 1004,7 hPa 0,0 l/m 0,0 km/h (0 Bft) O 84 8,1 C 12,0 C
19.05.2019 01:56 12,0 C 77 % 1004,7 hPa 0,0 l/m 0,0 km/h (0 Bft) O 84 8,1 C 12,0 C
19.05.2019 01:55 12,0 C 77 % 1004,7 hPa 0,0 l/m 0,0 km/h (0 Bft) O 84 8,1 C 12,0 C
19.05.2019 01:54 12,1 C 76 % 1004,7 hPa 0,0 l/m 0,0 km/h (0 Bft) O 84 8,0 C 12,1 C
19.05.2019 01:53 12,1 C 76 % 1004,7 hPa 0,0 l/m 0,0 km/h (0 Bft) O 84 8,0 C 12,1 C
19.05.2019 01:52 12,1 C 76 % 1004,7 hPa 0,0 l/m 0,0 km/h (0 Bft) O 84 8,0 C 12,1 C
19.05.2019 01:51 12,1 C 76 % 1004,7 hPa 0,0 l/m 0,0 km/h (0 Bft) O 84 8,0 C 12,1 C
19.05.2019 01:50 12,1 C 76 % 1004,7 hPa 0,0 l/m 0,0 km/h (0 Bft) O 84 8,0 C 12,1 C
19.05.2019 01:49 12,1 C 77 % 1004,7 hPa 0,0 l/m 0,0 km/h (0 Bft) O 84 8,2 C 12,1 C
19.05.2019 01:48 12,2 C 77 % 1004,7 hPa 0,0 l/m 0,0 km/h (0 Bft) O 84 8,3 C 12,2 C
19.05.2019 01:47 12,2 C 76 % 1004,7 hPa 0,0 l/m 0,0 km/h (0 Bft) O 84 8,1 C 12,2 C
19.05.2019 01:46 12,3 C 77 % 1004,7 hPa 0,0 l/m 0,0 km/h (0 Bft) O 84 8,4 C 12,3 C
19.05.2019 01:45 12,3 C 76 % 1004,7 hPa 0,0 l/m 0,0 km/h (0 Bft) O 84 8,2 C 12,3 C
19.05.2019 01:44 12,3 C 76 % 1004,7 hPa 0,0 l/m 0,0 km/h (0 Bft) O 84 8,2 C 12,3 C
19.05.2019 01:43 12,3 C 76 % 1004,7 hPa 0,0 l/m 0,0 km/h (0 Bft) O 84 8,2 C 12,3 C
19.05.2019 01:42 12,4 C 76 % 1004,7 hPa 0,0 l/m 0,0 km/h (0 Bft) O 84 8,3 C 12,4 C
19.05.2019 01:41 12,4 C 76 % 1004,7 hPa 0,0 l/m 0,0 km/h (0 Bft) O 84 8,3 C 12,4 C
19.05.2019 01:40 12,4 C 76 % 1004,7 hPa 0,0 l/m 0,0 km/h (0 Bft) O 84 8,3 C 12,4 C
19.05.2019 01:39 12,4 C 76 % 1004,7 hPa 0,0 l/m 0,0 km/h (0 Bft) O 84 8,3 C 12,4 C
19.05.2019 01:38 12,5 C 76 % 1004,7 hPa 0,0 l/m 0,0 km/h (0 Bft) O 84 8,4 C 12,5 C
19.05.2019 01:37 12,5 C 76 % 1004,7 hPa 0,0 l/m 0,0 km/h (0 Bft) O 84 8,4 C 12,5 C
19.05.2019 01:36 12,5 C 75 % 1004,7 hPa 0,0 l/m 0,0 km/h (0 Bft) O 84 8,2 C 12,5 C
19.05.2019 01:35 12,5 C 75 % 1004,7 hPa 0,0 l/m 0,0 km/h (0 Bft) O 84 8,2 C 12,5 C
19.05.2019 01:34 12,6 C 75 % 1004,7 hPa 0,0 l/m 0,0 km/h (0 Bft) O 84 8,3 C 12,6 C
19.05.2019 01:33 12,6 C 75 % 1004,7 hPa 0,0 l/m 0,0 km/h (0 Bft) O 84 8,3 C 12,6 C
19.05.2019 01:32 12,6 C 75 % 1004,7 hPa 0,0 l/m 0,0 km/h (0 Bft) O 84 8,3 C 12,6 C
19.05.2019 01:31 12,6 C 75 % 1004,7 hPa 0,0 l/m 0,0 km/h (0 Bft) O 84 8,3 C 12,6 C
19.05.2019 01:30 12,6 C 75 % 1004,7 hPa 0,0 l/m 0,0 km/h (0 Bft) O 84 8,3 C 12,6 C
19.05.2019 01:29 12,7 C 75 % 1004,7 hPa 0,0 l/m 0,0 km/h (0 Bft) O 84 8,4 C 12,7 C
19.05.2019 01:28 12,7 C 75 % 1004,7 hPa 0,0 l/m 0,0 km/h (0 Bft) O 84 8,4 C 12,7 C
19.05.2019 01:27 12,7 C 74 % 1004,7 hPa 0,0 l/m 0,0 km/h (0 Bft) O 84 8,2 C 12,7 C
19.05.2019 01:26 12,8 C 74 % 1004,7 hPa 0,0 l/m 0,0 km/h (0 Bft) O 84 8,3 C 12,8 C
19.05.2019 01:25 12,8 C 74 % 1004,8 hPa 0,0 l/m 0,0 km/h (0 Bft) O 84 8,3 C 12,8 C
19.05.2019 01:24 12,8 C 74 % 1004,8 hPa 0,0 l/m 0,0 km/h (0 Bft) O 84 8,3 C 12,8 C
19.05.2019 01:23 12,8 C 74 % 1004,7 hPa 0,0 l/m 0,0 km/h (0 Bft) O 84 8,3 C 12,8 C
19.05.2019 01:22 12,9 C 74 % 1004,8 hPa 0,0 l/m 0,0 km/h (0 Bft) O 84 8,4 C 12,9 C
19.05.2019 01:21 12,9 C 74 % 1004,7 hPa 0,0 l/m 0,0 km/h (0 Bft) O 84 8,4 C 12,9 C
19.05.2019 01:20 12,9 C 74 % 1004,7 hPa 0,0 l/m 0,0 km/h (0 Bft) O 84 8,4 C 12,9 C
19.05.2019 01:19 13,0 C 73 % 1004,8 hPa 0,0 l/m 0,0 km/h (0 Bft) O 84 8,3 C 13,0 C
19.05.2019 01:18 13,0 C 73 % 1004,7 hPa 0,0 l/m 0,0 km/h (0 Bft) O 84 8,3 C 13,0 C
19.05.2019 01:17 13,0 C 73 % 1004,7 hPa 0,0 l/m 0,0 km/h (0 Bft) O 84 8,3 C 13,0 C
19.05.2019 01:16 13,1 C 74 % 1004,7 hPa 0,0 l/m 0,0 km/h (0 Bft) O 84 8,6 C 13,1 C
19.05.2019 01:15 13,1 C 73 % 1004,8 hPa 0,0 l/m 0,0 km/h (0 Bft) O 84 8,4 C 13,1 C
19.05.2019 01:14 13,1 C 73 % 1004,8 hPa 0,0 l/m 0,0 km/h (0 Bft) O 84 8,4 C 13,1 C
19.05.2019 01:13 13,2 C 73 % 1004,8 hPa 0,0 l/m 0,0 km/h (0 Bft) O 84 8,5 C 13,2 C
19.05.2019 01:12 13,3 C 73 % 1004,8 hPa 0,0 l/m 0,0 km/h (0 Bft) O 84 8,6 C 13,3 C
19.05.2019 01:11 13,3 C 73 % 1004,8 hPa 0,0 l/m 0,0 km/h (0 Bft) O 84 8,6 C 13,3 C
19.05.2019 01:10 13,3 C 73 % 1004,9 hPa 0,0 l/m 0,0 km/h (0 Bft) O 84 8,6 C 13,3 C
19.05.2019 01:09 13,4 C 73 % 1004,8 hPa 0,0 l/m 0,0 km/h (0 Bft) O 84 8,7 C 13,4 C
19.05.2019 01:08 13,4 C 73 % 1004,9 hPa 0,0 l/m 0,0 km/h (0 Bft) O 84 8,7 C 13,4 C
19.05.2019 01:07 13,4 C 72 % 1004,8 hPa 0,0 l/m 0,0 km/h (0 Bft) O 84 8,5 C 13,4 C
19.05.2019 01:06 13,4 C 73 % 1004,8 hPa 0,0 l/m 0,0 km/h (0 Bft) O 84 8,7 C 13,4 C
19.05.2019 01:05 13,5 C 72 % 1004,8 hPa 0,0 l/m 0,0 km/h (0 Bft) O 84 8,6 C 13,5 C
19.05.2019 01:04 13,5 C 72 % 1004,8 hPa 0,0 l/m 0,0 km/h (0 Bft) O 84 8,6 C 13,5 C
19.05.2019 01:03 13,5 C 72 % 1004,8 hPa 0,0 l/m 0,0 km/h (0 Bft) O 84 8,6 C 13,5 C
19.05.2019 01:02 13,5 C 72 % 1004,8 hPa 0,0 l/m 0,0 km/h (0 Bft) O 84 8,6 C 13,5 C
19.05.2019 01:01 13,5 C 72 % 1004,8 hPa 0,0 l/m 0,0 km/h (0 Bft) O 84 8,6 C 13,5 C
19.05.2019 01:00 13,6 C 71 % 1004,9 hPa 0,0 l/m 0,0 km/h (0 Bft) O 84 8,4 C 13,6 C
19.05.2019 00:59 13,6 C 71 % 1004,9 hPa 0,0 l/m 0,0 km/h (0 Bft) O 84 8,4 C 13,6 C
19.05.2019 00:58 13,6 C 71 % 1004,9 hPa 0,0 l/m 0,0 km/h (0 Bft) O 84 8,4 C 13,6 C
19.05.2019 00:57 13,6 C 71 % 1004,9 hPa 0,0 l/m 0,0 km/h (0 Bft) O 84 8,4 C 13,6 C
19.05.2019 00:56 13,6 C 71 % 1004,9 hPa 0,0 l/m 0,0 km/h (0 Bft) O 84 8,4 C 13,6 C
19.05.2019 00:55 13,6 C 71 % 1004,9 hPa 0,0 l/m 0,0 km/h (0 Bft) O 84 8,4 C 13,6 C
19.05.2019 00:54 13,7 C 71 % 1004,8 hPa 0,0 l/m 0,0 km/h (0 Bft) O 84 8,5 C 13,7 C
19.05.2019 00:53 13,7 C 71 % 1004,9 hPa 0,0 l/m 0,0 km/h (0 Bft) O 84 8,5 C 13,7 C
19.05.2019 00:52 13,7 C 71 % 1004,9 hPa 0,0 l/m 0,0 km/h (0 Bft) O 84 8,5 C 13,7 C
19.05.2019 00:51 13,7 C 71 % 1004,9 hPa 0,0 l/m 0,0 km/h (0 Bft) O 84 8,5 C 13,7 C
19.05.2019 00:50 13,8 C 70 % 1004,9 hPa 0,0 l/m 0,0 km/h (0 Bft) O 84 8,4 C 13,8 C
19.05.2019 00:49 13,8 C 70 % 1004,8 hPa 0,0 l/m 0,0 km/h (0 Bft) O 84 8,4 C 13,8 C
19.05.2019 00:48 13,8 C 70 % 1004,8 hPa 0,0 l/m 0,0 km/h (0 Bft) O 84 8,4 C 13,8 C
19.05.2019 00:47 13,8 C 70 % 1004,9 hPa 0,0 l/m 0,0 km/h (0 Bft) O 84 8,4 C 13,8 C
19.05.2019 00:46 13,8 C 70 % 1004,9 hPa 0,0 l/m 0,0 km/h (0 Bft) O 84 8,4 C 13,8 C
19.05.2019 00:45 13,8 C 70 % 1004,9 hPa 0,0 l/m 0,0 km/h (0 Bft) O 84 8,4 C 13,8 C
19.05.2019 00:44 13,8 C 70 % 1004,9 hPa 0,0 l/m 0,0 km/h (0 Bft) O 84 8,4 C 13,8 C
19.05.2019 00:43 13,8 C 69 % 1004,9 hPa 0,0 l/m 0,0 km/h (0 Bft) O 84 8,2 C 13,8 C
19.05.2019 00:42 13,8 C 68 % 1004,9 hPa 0,0 l/m 0,0 km/h (0 Bft) O 84 8,0 C 13,8 C
19.05.2019 00:41 13,8 C 69 % 1004,9 hPa 0,0 l/m 0,0 km/h (0 Bft) O 84 8,2 C 13,8 C
19.05.2019 00:40 13,8 C 69 % 1004,9 hPa 0,0 l/m 0,0 km/h (0 Bft) O 84 8,2 C 13,8 C
19.05.2019 00:39 13,8 C 69 % 1005,0 hPa 0,0 l/m 0,0 km/h (0 Bft) O 84 8,2 C 13,8 C
19.05.2019 00:38 13,8 C 68 % 1005,0 hPa 0,0 l/m 0,0 km/h (0 Bft) O 84 8,0 C 13,8 C
19.05.2019 00:37 13,8 C 68 % 1005,0 hPa 0,0 l/m 0,0 km/h (0 Bft) O 84 8,0 C 13,8 C
19.05.2019 00:36 13,8 C 68 % 1005,0 hPa 0,0 l/m 0,0 km/h (0 Bft) O 84 8,0 C 13,8 C
19.05.2019 00:35 13,8 C 68 % 1005,0 hPa 0,0 l/m 0,0 km/h (0 Bft) O 84 8,0 C 13,8 C
19.05.2019 00:34 13,8 C 68 % 1005,0 hPa 0,0 l/m 0,0 km/h (0 Bft) O 84 8,0 C 13,8 C
19.05.2019 00:33 13,8 C 68 % 1005,0 hPa 0,0 l/m 0,0 km/h (0 Bft) O 84 8,0 C 13,8 C
19.05.2019 00:31 13,9 C 68 % 1005,0 hPa 0,0 l/m 0,0 km/h (0 Bft) O 84 8,1 C 13,9 C
19.05.2019 00:30 13,9 C 68 % 1005,0 hPa 0,0 l/m 0,0 km/h (0 Bft) O 84 8,1 C 13,9 C
19.05.2019 00:29 13,9 C 68 % 1005,0 hPa 0,0 l/m 0,0 km/h (0 Bft) O 84 8,1 C 13,9 C
19.05.2019 00:28 13,9 C 68 % 1005,0 hPa 0,0 l/m 0,0 km/h (0 Bft) O 84 8,1 C 13,9 C
19.05.2019 00:27 13,9 C 68 % 1005,0 hPa 0,0 l/m 0,0 km/h (0 Bft) O 84 8,1 C 13,9 C
19.05.2019 00:26 14,0 C 68 % 1005,0 hPa 0,0 l/m 0,0 km/h (0 Bft) O 84 8,2 C 14,0 C
19.05.2019 00:25 14,0 C 68 % 1005,1 hPa 0,0 l/m 0,0 km/h (0 Bft) O 84 8,2 C 14,0 C
19.05.2019 00:24 14,0 C 68 % 1005,1 hPa 0,0 l/m 0,0 km/h (0 Bft) O 84 8,2 C 14,0 C
19.05.2019 00:23 14,0 C 69 % 1005,1 hPa 0,0 l/m 0,0 km/h (0 Bft) O 84 8,4 C 14,0 C
19.05.2019 00:22 14,1 C 69 % 1005,1 hPa 0,0 l/m 0,0 km/h (0 Bft) O 84 8,5 C 14,1 C
19.05.2019 00:21 14,1 C 69 % 1005,1 hPa 0,0 l/m 0,0 km/h (0 Bft) O 84 8,5 C 14,1 C
19.05.2019 00:20 14,1 C 69 % 1005,1 hPa 0,0 l/m 0,0 km/h (0 Bft) O 84 8,5 C 14,1 C
19.05.2019 00:19 14,1 C 68 % 1005,1 hPa 0,0 l/m 0,0 km/h (0 Bft) O 84 8,3 C 14,1 C
19.05.2019 00:18 14,1 C 68 % 1005,1 hPa 0,0 l/m 0,0 km/h (0 Bft) O 84 8,3 C 14,1 C
19.05.2019 00:17 14,2 C 68 % 1005,2 hPa 0,0 l/m 0,0 km/h (0 Bft) O 84 8,4 C 14,2 C
19.05.2019 00:16 14,2 C 68 % 1005,1 hPa 0,0 l/m 0,0 km/h (0 Bft) O 84 8,4 C 14,2 C
19.05.2019 00:15 14,2 C 68 % 1005,1 hPa 0,0 l/m 0,0 km/h (0 Bft) O 84 8,4 C 14,2 C
19.05.2019 00:14 14,2 C 68 % 1005,2 hPa 0,0 l/m 0,0 km/h (0 Bft) O 84 8,4 C 14,2 C
19.05.2019 00:13 14,3 C 68 % 1005,2 hPa 0,0 l/m 0,0 km/h (0 Bft) O 84 8,5 C 14,3 C
19.05.2019 00:12 14,3 C 68 % 1005,2 hPa 0,0 l/m 0,0 km/h (0 Bft) O 84 8,5 C 14,3 C
19.05.2019 00:11 14,3 C 67 % 1005,2 hPa 0,0 l/m 0,0 km/h (0 Bft) O 84 8,3 C 14,3 C
19.05.2019 00:10 14,3 C 67 % 1005,2 hPa 0,0 l/m 0,0 km/h (0 Bft) O 84 8,3 C 14,3 C
19.05.2019 00:09 14,3 C 67 % 1005,1 hPa 0,0 l/m 0,0 km/h (0 Bft) O 84 8,3 C 14,3 C
19.05.2019 00:08 14,3 C 67 % 1005,2 hPa 0,0 l/m 0,0 km/h (0 Bft) O 84 8,3 C 14,3 C
19.05.2019 00:07 14,4 C 67 % 1005,1 hPa 0,0 l/m 0,0 km/h (0 Bft) O 84 8,4 C 14,4 C
19.05.2019 00:06 14,4 C 67 % 1005,2 hPa 0,0 l/m 0,0 km/h (0 Bft) O 84 8,4 C 14,4 C
19.05.2019 00:05 14,4 C 67 % 1005,2 hPa 0,0 l/m 0,0 km/h (0 Bft) O 84 8,4 C 14,4 C
19.05.2019 00:04 14,4 C 67 % 1005,2 hPa 0,0 l/m 0,0 km/h (0 Bft) O 84 8,4 C 14,4 C
19.05.2019 00:03 14,4 C 66 % 1005,2 hPa 0,0 l/m 0,0 km/h (0 Bft) O 84 8,1 C 14,4 C
19.05.2019 00:02 14,4 C 67 % 1005,2 hPa 0,0 l/m 0,0 km/h (0 Bft) O 84 8,4 C 14,4 C
19.05.2019 00:01 14,4 C 67 % 1005,2 hPa 0,0 l/m 0,0 km/h (0 Bft) O 84 8,4 C 14,4 C
19.05.2019 00:00 14,5 C 67 % 1005,2 hPa 0,0 l/m 0,0 km/h (0 Bft) O 84 8,4 C 14,5 C
_ Min-Zeit 06:22 15:25 18:08 - 00:00 - - 06:22 06:22
Minimum _ 8,8 C 38 % 1001,3 hPa - 0,0 km/h (0 Bft) - - 6,6 C 8,8 C
_ Max-Zeit 14:35 07:01 00:00 00:00 18:17 - - 13:48 14:35
Maximum _ 25,0 C 90 % 1005,2 hPa 0,0 l/m 19,3 km/h
O (3 Bft)
- - 12,8 C 25,0 C
Durchschnitt _ 17,4 C 63 % 1003,4 hPa #0,0 l/m 1,8 km/h (1 Bft) O - 9,8 C 17,3 C